Darstellungsparameter: Aktuell verwendete Einstellungen:
Skalierung der Graphiken ... ?
xyx+y,   Skalierungsfaktor:      Skalierung: Modus: x, Faktor: 1
Darstellungszeitraum ... ?
Vom - - bis: - -   Zeitraum: 01.02.2021 - 22.04.2021
Min/Max/Avg-Anzeige ... ?
Zeige MMA aktuell
Zeige MMA Monat
Zeige MMA alles
Zeige --A aktuell
Zeige --A Monat
Zeige --A alles
Keine MMA-Anzeige
MMA:
Average (ber die Originaldaten)
MMA-Basis: 23.02.2003 - 03.08.2020
Quicknavigation für Darstellung... ?
Tage:      1T, 2T, 3T, 5T -1T -2T -3T -5T +1T +2T +3T +5T
Wochen: 1W, 2W, 3W -1W -2W -3W +1W +2W +3W
Monate: 1M, 3M, 6M -1M -3M -6M +1M +3M +6M
Jahre:    1J, 3J, 5J, 10J -1J -3J -5J -10J +1J +3J +5J +10J
Nutze für die Darstellung ... ?
Originaldaten oder ...
Mittelwerte Minima Maxima auf...
Stundenbasis Tagesbasis Wochenbasis
Monatsbasis Jahresbasis      Datenbasis: Mittelwerte auf Stundenbasis
Darstellen als:
Statistik (Auto) Statistik J:M      Darstellung:

Der gewünschte Datumsbereich war nicht gültig/verfügbar und wurde korrigiert....
Das angegebene Enddatum (31.07.2021 23:59:59) liegt in der Zukunft.


Zur Graphik,    zurück zur Übersicht aller Sensoren.
 
Tabellarische Datenbersicht: ?
 
Sensor: Nr:Datum:Temp:Abs-Feuchte:Windchill:Wind:
Aussen-T/F 1 01-02-2021 00:00:00 1.7 C 5.23 g/m*3 1.7 C 0.26667 km/h
2 01-02-2021 01:00:00 1.7 C 5.23 g/m*3 1.7 C 0.93333 km/h
3 01-02-2021 02:00:00 1.775 C 5.25 g/m*3 1.78 C 0.13333 km/h
4 01-02-2021 03:00:00 1.85833 C 5.28 g/m*3 1.86 C 0.4 km/h
5 01-02-2021 04:00:00 1.9 C 5.3 g/m*3 1.9 C 0.26667 km/h
6 01-02-2021 05:00:00 1.95833 C 5.32 g/m*3 1.96 C 0.4 km/h
7 01-02-2021 06:00:00 2.09167 C 5.37 g/m*3 2.09 C 0.4 km/h
8 01-02-2021 07:00:00 2.15833 C 5.45 g/m*3 2.16 C 0.26667 km/h
9 01-02-2021 08:00:00 2.23333 C 5.48 g/m*3 2.23 C 0.13333 km/h
10 01-02-2021 09:00:00 2.75833 C 5.67 g/m*3 2.76 C 0 km/h
11 01-02-2021 10:00:00 3.49167 C 5.96 g/m*3 3.49 C 0.26667 km/h
12 01-02-2021 11:00:00 3.98333 C 6.16 g/m*3 3.98 C 0 km/h
13 01-02-2021 12:00:00 4.45 C 6.35 g/m*3 4.45 C 1.46667 km/h
14 01-02-2021 13:00:00 4.975 C 6.57 g/m*3 4.97 C 0.53333 km/h
15 01-02-2021 14:00:00 5.40833 C 6.71 g/m*3 5.41 C 0.13333 km/h
16 01-02-2021 15:00:00 5.76667 C 6.86 g/m*3 5.77 C 0.26667 km/h
17 01-02-2021 16:00:00 5.94167 C 6.94 g/m*3 5.94 C 0 km/h
18 01-02-2021 17:00:00 5.94167 C 6.94 g/m*3 5.94 C 0 km/h
19 01-02-2021 18:00:00 5.71667 C 6.84 g/m*3 5.72 C 0 km/h
20 01-02-2021 19:00:00 5.475 C 6.73 g/m*3 5.48 C 1.2 km/h
21 01-02-2021 20:00:00 5.55833 C 6.83 g/m*3 5.56 C 1.06667 km/h
22 01-02-2021 21:00:00 5.70833 C 6.91 g/m*3 5.71 C 1.46667 km/h
23 01-02-2021 22:00:00 5.53333 C 6.8 g/m*3 5.53 C 2.13333 km/h
24 01-02-2021 23:00:00 5.30833 C 6.68 g/m*3 5.31 C 0.4 km/h
25 02-02-2021 00:00:00 5.18333 C 6.63 g/m*3 5.18 C 0 km/h
Sensor: Nr:Datum:Temp:Abs-Feuchte:Windchill:Wind:
Aussen-T/F 26 02-02-2021 01:00:00 5.06667 C 6.62 g/m*3 5.07 C 1.6 km/h
27 02-02-2021 02:00:00 4.95 C 6.57 g/m*3 4.95 C 2.26667 km/h
28 02-02-2021 03:00:00 4.81667 C 6.51 g/m*3 4.82 C 1.73333 km/h
29 02-02-2021 04:00:00 4.6 C 6.35 g/m*3 4.6 C 4.80833 km/h
30 02-02-2021 05:00:00 4.6 C 6.29 g/m*3 4.6 C 1.86667 km/h
31 02-02-2021 06:00:00 4.65 C 6.31 g/m*3 4.65 C 1.33333 km/h
32 02-02-2021 07:00:00 4.85 C 6.43 g/m*3 4.85 C 0.8 km/h
33 02-02-2021 08:00:00 5.14167 C 6.55 g/m*3 5.14 C 0.53333 km/h
34 02-02-2021 09:00:00 5.48333 C 6.73 g/m*3 5.48 C 0 km/h
35 02-02-2021 10:00:00 5.93333 C 6.95 g/m*3 5.93 C 0 km/h
36 02-02-2021 11:00:00 6.55 C 7.29 g/m*3 6.55 C 0 km/h
37 02-02-2021 12:00:00 7.50833 C 7.77 g/m*3 7.51 C 1.06667 km/h
38 02-02-2021 13:00:00 9.35 C 8.69 g/m*3 7.27 C 13.81667 km/h
39 02-02-2021 14:00:00 10.65 C 9.04 g/m*3 8.67 C 15.43333 km/h
40 02-02-2021 15:00:00 11.125 C 9.19 g/m*3 11.13 C 9.68333 km/h
41 02-02-2021 16:00:00 11.19167 C 9.23 g/m*3 11.19 C 7.25 km/h
42 02-02-2021 17:00:00 10.84167 C 9.07 g/m*3 10.06 C 7.65833 km/h
43 02-02-2021 18:00:00 10.79167 C 8.9 g/m*3 9.65 C 9.55833 km/h
44 02-02-2021 19:00:00 10.175 C 8.64 g/m*3 10.18 C 4.28333 km/h
45 02-02-2021 20:00:00 10.075 C 8.84 g/m*3 9.41 C 6.56667 km/h
46 02-02-2021 21:00:00 10.00833 C 8.92 g/m*3 9.3 C 6.70833 km/h
47 02-02-2021 22:00:00 10.29167 C 9.09 g/m*3 8.86 C 10.75 km/h
48 02-02-2021 23:00:00 10.08333 C 8.97 g/m*3 9.78 C 5.225 km/h
49 03-02-2021 00:00:00 10.26667 C 9.08 g/m*3 9.25 C 8.33333 km/h
50 03-02-2021 01:00:00 9.65833 C 8.7 g/m*3 9.66 C 4.4 km/h
Sensor: Nr:Datum:Temp:Abs-Feuchte:Windchill:Wind:
Aussen-T/F 51 03-02-2021 02:00:00 9.06667 C 8.47 g/m*3 9.07 C 2.66667 km/h
52 03-02-2021 03:00:00 8.95 C 8.44 g/m*3 8.95 C 2.13333 km/h
53 03-02-2021 04:00:00 8.33333 C 8.11 g/m*3 8.33 C 0 km/h
54 03-02-2021 05:00:00 8 C 7.94 g/m*3 8 C 0 km/h
55 03-02-2021 06:00:00 7.825 C 7.9 g/m*3 7.83 C 0 km/h
56 03-02-2021 07:00:00 8 C 8.02 g/m*3 8 C 0 km/h
57 03-02-2021 08:00:00 8.225 C 8.14 g/m*3 8.23 C 0 km/h
58 03-02-2021 09:00:00 9.05833 C 8.64 g/m*3 9.06 C 0 km/h
59 03-02-2021 10:00:00 9.83333 C 9.1 g/m*3 9.83 C 0 km/h
60 03-02-2021 11:00:00 10.2 C 9.27 g/m*3 10.2 C 1.2 km/h
61 03-02-2021 12:00:00 10.56667 C 9.5 g/m*3 10.57 C 2.54167 km/h
62 03-02-2021 13:00:00 11.55833 C 9.76 g/m*3 11.56 C 18.9 km/h
63 03-02-2021 14:00:00 12.11667 C 9.7 g/m*3 12.12 C 15.3 km/h
64 03-02-2021 15:00:00 10.89167 C 9.28 g/m*3 8.87 C 16.25 km/h
65 03-02-2021 16:00:00 11.26667 C 8.79 g/m*3 11.27 C 18.65 km/h
66 03-02-2021 17:00:00 10.45 C 8.66 g/m*3 8.81 C 12.33333 km/h
67 03-02-2021 18:00:00 9.81667 C 8.65 g/m*3 9.25 C 6.025 km/h
68 03-02-2021 19:00:00 9.75833 C 8.69 g/m*3 8.22 C 10.75 km/h
69 03-02-2021 20:00:00 10.175 C 8.84 g/m*3 8.83 C 10.09167 km/h
70 03-02-2021 21:00:00 9.95 C 8.69 g/m*3 7.98 C 13.96667 km/h
71 03-02-2021 22:00:00 9.6 C 8.44 g/m*3 7.26 C 16.36667 km/h
72 03-02-2021 23:00:00 9.7 C 8.01 g/m*3 7.31 C 17.03333 km/h
73 04-02-2021 00:00:00 9.36667 C 7.69 g/m*3 6.98 C 16.23333 km/h
74 04-02-2021 01:00:00 8.76667 C 7.53 g/m*3 6.96 C 11.15833 km/h
75 04-02-2021 02:00:00 8.03333 C 7.3 g/m*3 6.42 C 9.275 km/h
Sensor: Nr:Datum:Temp:Abs-Feuchte:Windchill:Wind:
Aussen-T/F 76 04-02-2021 03:00:00 7.51667 C 7 g/m*3 5.57 C 10.5 km/h
77 04-02-2021 04:00:00 7.175 C 6.75 g/m*3 4.56 C 14.09167 km/h
78 04-02-2021 05:00:00 6.58333 C 6.57 g/m*3 4.7 C 9.28333 km/h
79 04-02-2021 06:00:00 6.23333 C 6.63 g/m*3 4.44 C 8.58333 km/h
80 04-02-2021 07:00:00 6.4 C 6.65 g/m*3 4.61 C 8.71667 km/h
81 04-02-2021 08:00:00 5.775 C 6.45 g/m*3 4.32 C 6.98333 km/h
82 04-02-2021 09:00:00 5.15 C 6.33 g/m*3 5.15 C 3.33333 km/h
83 04-02-2021 10:00:00 5.25 C 6.46 g/m*3 5.25 C 3.6 km/h
84 04-02-2021 11:00:00 6.6 C 6.82 g/m*3 4.84 C 8.725 km/h
85 04-02-2021 12:00:00 7.76667 C 6.91 g/m*3 5.97 C 9.94167 km/h
86 04-02-2021 13:00:00 8.01667 C 6.84 g/m*3 6.89 C 7.10833 km/h
87 04-02-2021 14:00:00 8.89167 C 6.91 g/m*3 7.94 C 6.975 km/h
88 04-02-2021 15:00:00 8.41667 C 6.94 g/m*3 8.42 C 4.13333 km/h
89 04-02-2021 16:00:00 6.84167 C 6.77 g/m*3 5.97 C 5.6 km/h
90 04-02-2021 17:00:00 6.08333 C 6.67 g/m*3 6.08 C 4.66667 km/h
91 04-02-2021 18:00:00 5.66667 C 6.56 g/m*3 5.67 C 2.66667 km/h
92 04-02-2021 19:00:00 5.25833 C 6.43 g/m*3 5.26 C 0.26667 km/h
93 04-02-2021 20:00:00 4.7 C 6.26 g/m*3 4.7 C 0.26667 km/h
94 04-02-2021 21:00:00 4.78333 C 6.36 g/m*3 4.78 C 0.4 km/h
95 04-02-2021 22:00:00 4.825 C 6.38 g/m*3 4.83 C 0.13333 km/h
96 04-02-2021 23:00:00 5.075 C 6.52 g/m*3 5.08 C 0 km/h
97 05-02-2021 00:00:00 5.25 C 6.63 g/m*3 5.25 C 0 km/h
98 05-02-2021 01:00:00 5.3 C 6.64 g/m*3 5.3 C 0 km/h
99 05-02-2021 02:00:00 5.26667 C 6.64 g/m*3 5.27 C 0 km/h
100 05-02-2021 03:00:00 5.15 C 6.57 g/m*3 5.15 C 0 km/h
Sensor: Nr:Datum:Temp:Abs-Feuchte:Windchill:Wind:
Aussen-T/F 101 05-02-2021 04:00:00 4.86667 C 6.43 g/m*3 4.87 C 0 km/h
102 05-02-2021 05:00:00 4.625 C 6.34 g/m*3 4.63 C 1.06667 km/h
103 05-02-2021 06:00:00 4.95 C 6.5 g/m*3 4.95 C 0 km/h
104 05-02-2021 07:00:00 5.2 C 6.61 g/m*3 5.2 C 0 km/h
105 05-02-2021 08:00:00 5.575 C 6.78 g/m*3 5.58 C 0 km/h
106 05-02-2021 09:00:00 6.025 C 7.02 g/m*3 6.03 C 0 km/h
107 05-02-2021 10:00:00 6.625 C 7.31 g/m*3 6.63 C 0 km/h
108 05-02-2021 11:00:00 7.16667 C 7.54 g/m*3 7.17 C 0 km/h
109 05-02-2021 12:00:00 7.6 C 7.73 g/m*3 7.6 C 0 km/h
110 05-02-2021 13:00:00 7.96667 C 7.92 g/m*3 7.97 C 0 km/h
111 05-02-2021 14:00:00 8.50833 C 8.25 g/m*3 8.51 C 0 km/h
112 05-02-2021 15:00:00 9.13333 C 8.6 g/m*3 9.13 C 2 km/h
113 05-02-2021 16:00:00 9.25833 C 8.6 g/m*3 9.26 C 0 km/h
114 05-02-2021 17:00:00 8.25833 C 8 g/m*3 8.26 C 2.26667 km/h
115 05-02-2021 18:00:00 6.98333 C 7.39 g/m*3 6.98 C 3.33333 km/h
116 05-02-2021 19:00:00 7.10833 C 7.49 g/m*3 7.11 C 0.66667 km/h
117 05-02-2021 20:00:00 6.125 C 7.03 g/m*3 6.13 C 0.13333 km/h
118 05-02-2021 21:00:00 5.3 C 6.67 g/m*3 5.3 C 0 km/h
119 05-02-2021 22:00:00 5.825 C 6.96 g/m*3 5.83 C 0 km/h
120 05-02-2021 23:00:00 6.18333 C 7.13 g/m*3 6.18 C 0 km/h
121 06-02-2021 00:00:00 6.15 C 7.11 g/m*3 6.15 C 0 km/h
122 06-02-2021 01:00:00 6.025 C 7.05 g/m*3 6.03 C 0.8 km/h
123 06-02-2021 02:00:00 6.325 C 7.19 g/m*3 6.33 C 0.8 km/h
124 06-02-2021 03:00:00 6.20833 C 7.14 g/m*3 6.21 C 0 km/h
125 06-02-2021 04:00:00 6.10833 C 7.09 g/m*3 6.11 C 0 km/h
Sensor: Nr:Datum:Temp:Abs-Feuchte:Windchill:Wind:
Aussen-T/F 126 06-02-2021 05:00:00 6.13333 C 7.1 g/m*3 6.13 C 0.13333 km/h
127 06-02-2021 06:00:00 6.2 C 7.13 g/m*3 6.2 C 0.13333 km/h
128 06-02-2021 07:00:00 6.2 C 7.13 g/m*3 6.2 C 0 km/h
129 06-02-2021 08:00:00 6.14167 C 7.11 g/m*3 6.14 C 1.46667 km/h
130 06-02-2021 09:00:00 6.04167 C 7.06 g/m*3 6.04 C 4.29167 km/h
131 06-02-2021 10:00:00 6.20833 C 7.14 g/m*3 6.21 C 1.86667 km/h
132 06-02-2021 11:00:00 6.21667 C 7.14 g/m*3 6.22 C 3.20833 km/h
133 06-02-2021 12:00:00 6.04167 C 7.05 g/m*3 6.04 C 4.83333 km/h
134 06-02-2021 13:00:00 5.78333 C 6.85 g/m*3 4.04 C 8.05 km/h
135 06-02-2021 14:00:00 5.45833 C 6.65 g/m*3 5.46 C 4.825 km/h
136 06-02-2021 15:00:00 5.11667 C 6.49 g/m*3 3.63 C 6.71667 km/h
137 06-02-2021 16:00:00 4.66667 C 6.25 g/m*3 3.16 C 6.56667 km/h
138 06-02-2021 17:00:00 4.16667 C 6.06 g/m*3 2.37 C 7.25 km/h
139 06-02-2021 18:00:00 3.675 C 5.91 g/m*3 1.12 C 9.80833 km/h
140 06-02-2021 19:00:00 3.28333 C 5.74 g/m*3 -0.14 C 13.7 km/h
141 06-02-2021 20:00:00 3.05833 C 5.67 g/m*3 1.39 C 6.3 km/h
142 06-02-2021 21:00:00 2.69167 C 5.53 g/m*3 1.06 C 6.03333 km/h
143 06-02-2021 22:00:00 2.39167 C 5.42 g/m*3 -0.75 C 11.28333 km/h
144 06-02-2021 23:00:00 2.3 C 5.39 g/m*3 -0.74 C 10.74167 km/h
145 07-02-2021 00:00:00 2.325 C 5.4 g/m*3 -1.71 C 15.96667 km/h
146 07-02-2021 01:00:00 2.4 C 5.42 g/m*3 -1.05 C 12.75833 km/h
147 07-02-2021 02:00:00 2.325 C 5.4 g/m*3 -0.1 C 8.30833 km/h
148 07-02-2021 03:00:00 2.13333 C 5.33 g/m*3 -0.65 C 9.55 km/h
149 07-02-2021 04:00:00 1.96667 C 5.31 g/m*3 -1.14 C 10.75 km/h
150 07-02-2021 05:00:00 2.025 C 5.34 g/m*3 0.3 C 6.01667 km/h
Sensor: Nr:Datum:Temp:Abs-Feuchte:Windchill:Wind:
Aussen-T/F 151 07-02-2021 06:00:00 2 C 5.33 g/m*3 0.32 C 5.89167 km/h
152 07-02-2021 07:00:00 1.94167 C 5.31 g/m*3 0.58 C 5.08333 km/h
153 07-02-2021 08:00:00 1.75833 C 5.25 g/m*3 -1.06 C 9.4 km/h
154 07-02-2021 09:00:00 1.7 C 5.23 g/m*3 0.13 C 5.5 km/h
155 07-02-2021 10:00:00 1.73333 C 5.24 g/m*3 0.29 C 5.20833 km/h
156 07-02-2021 11:00:00 1.81667 C 5.27 g/m*3 0.05 C 6.025 km/h
157 07-02-2021 12:00:00 1.66667 C 5.18 g/m*3 1.67 C 4.54167 km/h
158 07-02-2021 13:00:00 1.275 C 5.03 g/m*3 -0.36 C 5.5 km/h
159 07-02-2021 14:00:00 1.14167 C 5.01 g/m*3 1.14 C 4.00833 km/h
160 07-02-2021 15:00:00 0.99167 C 4.93 g/m*3 0.99 C 2.66667 km/h
161 07-02-2021 16:00:00 0.825 C 4.87 g/m*3 0.83 C 2.4 km/h
162 07-02-2021 17:00:00 0.575 C 4.79 g/m*3 -0.98 C 5.08333 km/h
163 07-02-2021 18:00:00 0.24167 C 4.68 g/m*3 -1.35 C 5.08333 km/h
164 07-02-2021 19:00:00 0.00833 C 4.57 g/m*3 0.01 C 4.825 km/h
165 07-02-2021 20:00:00 -0.35 C 4.45 g/m*3 -2.6 C 6.43333 km/h
166 07-02-2021 21:00:00 -0.80833 C 4.28 g/m*3 -3.57 C 7.65833 km/h
167 07-02-2021 22:00:00 -1.34167 C 4.1 g/m*3 -4.34 C 8.06667 km/h
168 07-02-2021 23:00:00 -1.81667 C 3.96 g/m*3 -4.35 C 6.56667 km/h
169 08-02-2021 00:00:00 -2.03333 C 3.86 g/m*3 -4.2 C 5.63333 km/h
170 08-02-2021 01:00:00 -2.28333 C 3.76 g/m*3 -4.72 C 6.15833 km/h
171 08-02-2021 02:00:00 -2.6 C 3.63 g/m*3 -5.03 C 6.03333 km/h
172 08-02-2021 03:00:00 -2.84167 C 3.56 g/m*3 -5.24 C 5.89167 km/h
173 08-02-2021 04:00:00 -3.24167 C 3.44 g/m*3 -5.38 C 5.225 km/h
174 08-02-2021 05:00:00 -3.53333 C 3.34 g/m*3 -6.81 C 7.775 km/h
175 08-02-2021 06:00:00 -3.70833 C 3.27 g/m*3 -7.07 C 7.925 km/h
Sensor: Nr:Datum:Temp:Abs-Feuchte:Windchill:Wind:
Aussen-T/F 176 08-02-2021 07:00:00 -3.8 C 3.24 g/m*3 -6.64 C 6.56667 km/h
177 08-02-2021 08:00:00 -3.93333 C 3.2 g/m*3 -6.74 C 6.44167 km/h
178 08-02-2021 09:00:00 -3.825 C 3.23 g/m*3 -7.3 C 8.2 km/h
179 08-02-2021 10:00:00 -3.63333 C 3.25 g/m*3 -7.35 C 9.00833 km/h
180 08-02-2021 11:00:00 -3.38333 C 3.29 g/m*3 -7.3 C 9.81667 km/h
181 08-02-2021 12:00:00 -3.275 C 3.33 g/m*3 -6.65 C 8.18333 km/h
182 08-02-2021 13:00:00 -3.3 C 3.32 g/m*3 -6.63 C 8.05 km/h
183 08-02-2021 14:00:00 -3.28333 C 3.36 g/m*3 -3.28 C 4.95 km/h
184 08-02-2021 15:00:00 -3.28333 C 3.4 g/m*3 -5.49 C 5.34167 km/h
185 08-02-2021 16:00:00 -3.33333 C 3.39 g/m*3 -6.16 C 6.70833 km/h
186 08-02-2021 17:00:00 -3.51667 C 3.32 g/m*3 -6.08 C 6.025 km/h
187 08-02-2021 18:00:00 -3.925 C 3.26 g/m*3 -7.47 C 8.33333 km/h
188 08-02-2021 19:00:00 -4.08333 C 3.23 g/m*3 -4.08 C 4.80833 km/h
189 08-02-2021 20:00:00 -4.18333 C 3.15 g/m*3 -6.78 C 5.88333 km/h
190 08-02-2021 21:00:00 -4.3 C 3.07 g/m*3 -4.3 C 3.475 km/h
191 08-02-2021 22:00:00 -4.38333 C 3.04 g/m*3 -4.38 C 3.475 km/h
192 08-02-2021 23:00:00 -4.40833 C 3.06 g/m*3 -4.41 C 1.33333 km/h
193 09-02-2021 00:00:00 -4.55 C 3 g/m*3 -4.55 C 3.06667 km/h
194 09-02-2021 01:00:00 -4.65833 C 2.95 g/m*3 -4.66 C 2.4 km/h
195 09-02-2021 02:00:00 -4.8 C 2.92 g/m*3 -4.8 C 1.46667 km/h
196 09-02-2021 03:00:00 -4.8 C 2.94 g/m*3 -4.8 C 1.33333 km/h
197 09-02-2021 04:00:00 -4.85 C 2.96 g/m*3 -4.85 C 0.8 km/h
198 09-02-2021 05:00:00 -4.9 C 2.96 g/m*3 -4.9 C 1.06667 km/h
199 09-02-2021 06:00:00 -4.95833 C 2.96 g/m*3 -4.96 C 1.6 km/h
200 09-02-2021 07:00:00 -5.1 C 2.92 g/m*3 -5.1 C 2.66667 km/h
Sensor: Nr:Datum:Temp:Abs-Feuchte:Windchill:Wind:
Aussen-T/F 201 09-02-2021 08:00:00 -5.225 C 2.88 g/m*3 -5.23 C 1.46667 km/h
202 09-02-2021 09:00:00 -5.325 C 2.84 g/m*3 -5.33 C 2.13333 km/h
203 09-02-2021 10:00:00 -5.375 C 2.78 g/m*3 -5.38 C 3.73333 km/h
204 09-02-2021 11:00:00 -4.99167 C 2.63 g/m*3 -7.78 C 6.025 km/h
205 09-02-2021 12:00:00 -4.21667 C 2.67 g/m*3 -7.12 C 6.55 km/h
206 09-02-2021 13:00:00 -3.69167 C 2.71 g/m*3 -3.69 C 4.4 km/h
207 09-02-2021 14:00:00 -3.49167 C 2.65 g/m*3 -3.49 C 3.48333 km/h
208 09-02-2021 15:00:00 -3.325 C 2.67 g/m*3 -3.33 C 1.86667 km/h
209 09-02-2021 16:00:00 -3.45833 C 2.71 g/m*3 -6.57 C 7.375 km/h
210 09-02-2021 17:00:00 -3.88333 C 2.71 g/m*3 -8.02 C 10.23333 km/h
211 09-02-2021 18:00:00 -4.28333 C 2.6 g/m*3 -8.03 C 8.73333 km/h
212 09-02-2021 19:00:00 -4.45833 C 2.66 g/m*3 -7.8 C 7.525 km/h
213 09-02-2021 20:00:00 -4.75833 C 2.83 g/m*3 -4.76 C 2.4 km/h
214 09-02-2021 21:00:00 -5.35833 C 2.73 g/m*3 -8.84 C 7.51667 km/h
215 09-02-2021 22:00:00 -5.94167 C 2.53 g/m*3 -9.41 C 7.24167 km/h
216 09-02-2021 23:00:00 -6.64167 C 2.38 g/m*3 -9.74 C 6.15833 km/h
217 10-02-2021 00:00:00 -7.61667 C 2.23 g/m*3 -7.62 C 3.6 km/h
218 10-02-2021 01:00:00 -8.38333 C 2.16 g/m*3 -8.38 C 1.46667 km/h
219 10-02-2021 02:00:00 -9 C 2.13 g/m*3 -9 C 2.26667 km/h
220 10-02-2021 03:00:00 -8.85 C 2.14 g/m*3 -8.85 C 4.95833 km/h
221 10-02-2021 04:00:00 -9.15833 C 2.08 g/m*3 -9.16 C 2.8 km/h
222 10-02-2021 05:00:00 -9.09167 C 2.1 g/m*3 -9.09 C 4.00833 km/h
223 10-02-2021 06:00:00 -9.075 C 2.09 g/m*3 -9.07 C 3.06667 km/h
224 10-02-2021 07:00:00 -8.88333 C 2.15 g/m*3 -8.88 C 4.00833 km/h
225 10-02-2021 08:00:00 -8.58333 C 2.21 g/m*3 -8.58 C 4.55 km/h
Sensor: Nr:Datum:Temp:Abs-Feuchte:Windchill:Wind:
Aussen-T/F 226 10-02-2021 09:00:00 -8.14167 C 2.23 g/m*3 -12.27 C 7.91667 km/h
227 10-02-2021 10:00:00 -7.58333 C 2.24 g/m*3 -11.16 C 6.85833 km/h
228 10-02-2021 11:00:00 -6.46667 C 2.39 g/m*3 -9.74 C 6.58333 km/h
229 10-02-2021 12:00:00 -4.59167 C 2.59 g/m*3 -8.78 C 9.93333 km/h
230 10-02-2021 13:00:00 -3.61667 C 2.74 g/m*3 -7.89 C 10.9 km/h
231 10-02-2021 14:00:00 -2.65 C 2.83 g/m*3 -7.41 C 13.7 km/h
232 10-02-2021 15:00:00 -2.16667 C 2.89 g/m*3 -5.65 C 9.125 km/h
233 10-02-2021 16:00:00 -1.525 C 2.98 g/m*3 -5.08 C 9.8 km/h
234 10-02-2021 17:00:00 -1.85 C 3.08 g/m*3 -3.73 C 5.09167 km/h
235 10-02-2021 18:00:00 -2.6 C 3 g/m*3 -5.03 C 6.04167 km/h
236 10-02-2021 19:00:00 -3.74167 C 3.02 g/m*3 -3.74 C 0.53333 km/h
237 10-02-2021 20:00:00 -2.84167 C 3.21 g/m*3 -6.49 C 9.275 km/h
238 10-02-2021 21:00:00 -2.65833 C 3.28 g/m*3 -5.69 C 7.50833 km/h
239 10-02-2021 22:00:00 -3.05 C 3.28 g/m*3 -3.05 C 2.26667 km/h
240 10-02-2021 23:00:00 -3.11667 C 3.3 g/m*3 -3.12 C 3.06667 km/h
241 11-02-2021 00:00:00 -2.94167 C 3.31 g/m*3 -2.94 C 3.6 km/h
242 11-02-2021 01:00:00 -2.98333 C 3.3 g/m*3 -2.98 C 4.15 km/h
243 11-02-2021 02:00:00 -3.10833 C 3.3 g/m*3 -3.11 C 4.69167 km/h
244 11-02-2021 03:00:00 -3.275 C 3.3 g/m*3 -3.28 C 2.66667 km/h
245 11-02-2021 04:00:00 -3.64167 C 3.24 g/m*3 -5.96 C 5.475 km/h
246 11-02-2021 05:00:00 -4.2 C 3.17 g/m*3 -4.2 C 1.46667 km/h
247 11-02-2021 06:00:00 -4.81667 C 3.05 g/m*3 -4.82 C 1.6 km/h
248 11-02-2021 07:00:00 -5.86667 C 2.88 g/m*3 -5.87 C 1.2 km/h
249 11-02-2021 08:00:00 -6.35 C 2.82 g/m*3 -6.35 C 0.8 km/h
250 11-02-2021 09:00:00 -6.11667 C 2.89 g/m*3 -6.12 C 0.8 km/h
Sensor: Nr:Datum:Temp:Abs-Feuchte:Windchill:Wind:
Aussen-T/F 251 11-02-2021 10:00:00 -5.55 C 3.01 g/m*3 -5.55 C 1.2 km/h
252 11-02-2021 11:00:00 -4.425 C 3.26 g/m*3 -4.43 C 2.53333 km/h
253 11-02-2021 12:00:00 -2.89167 C 3.54 g/m*3 -2.89 C 0 km/h
254 11-02-2021 13:00:00 -1.04167 C 3.56 g/m*3 -1.04 C 2.26667 km/h
255 11-02-2021 14:00:00 0.03333 C 3.38 g/m*3 -2.26 C 6.71667 km/h
256 11-02-2021 15:00:00 0.55 C 3.26 g/m*3 -1.29 C 5.74167 km/h
257 11-02-2021 16:00:00 -0.33333 C 3.31 g/m*3 -0.33 C 1.46667 km/h
258 11-02-2021 17:00:00 -1.23333 C 3.4 g/m*3 -1.23 C 3.46667 km/h
259 11-02-2021 18:00:00 -2.19167 C 3.41 g/m*3 -2.19 C 2.53333 km/h
260 11-02-2021 19:00:00 -2.81667 C 3.3 g/m*3 -2.82 C 4.13333 km/h
261 11-02-2021 20:00:00 -3.95 C 3.11 g/m*3 -3.95 C 4.26667 km/h
262 11-02-2021 21:00:00 -3.69167 C 3.19 g/m*3 -3.69 C 2.26667 km/h
263 11-02-2021 22:00:00 -3.84167 C 3.18 g/m*3 -3.84 C 2.8 km/h
264 11-02-2021 23:00:00 -4.19167 C 2.98 g/m*3 -4.19 C 4.40833 km/h
265 12-02-2021 00:00:00 -4.94167 C 2.77 g/m*3 -4.94 C 4.69167 km/h
266 12-02-2021 01:00:00 -5.375 C 2.7 g/m*3 -5.38 C 2.66667 km/h
267 12-02-2021 02:00:00 -6.46667 C 2.6 g/m*3 -6.47 C 2.13333 km/h
268 12-02-2021 03:00:00 -6.825 C 2.6 g/m*3 -6.83 C 3.075 km/h
269 12-02-2021 04:00:00 -6.03333 C 2.75 g/m*3 -6.03 C 2.66667 km/h
270 12-02-2021 05:00:00 -5.29167 C 2.81 g/m*3 -8.37 C 6.575 km/h
271 12-02-2021 06:00:00 -5.81667 C 2.73 g/m*3 -5.82 C 1.74167 km/h
272 12-02-2021 07:00:00 -6.825 C 2.6 g/m*3 -6.83 C 1.06667 km/h
273 12-02-2021 08:00:00 -7.38333 C 2.55 g/m*3 -7.38 C 1.33333 km/h
274 12-02-2021 09:00:00 -7.11667 C 2.63 g/m*3 -7.12 C 1.6 km/h
275 12-02-2021 10:00:00 -6.16667 C 2.76 g/m*3 -6.17 C 3.20833 km/h
Sensor: Nr:Datum:Temp:Abs-Feuchte:Windchill:Wind:
Aussen-T/F 276 12-02-2021 11:00:00 -3.975 C 2.8 g/m*3 -7.84 C 9.26667 km/h
277 12-02-2021 12:00:00 -2.5 C 2.85 g/m*3 -6.89 C 12.23333 km/h
278 12-02-2021 13:00:00 -1.525 C 2.85 g/m*3 -5.67 C 12.08333 km/h
279 12-02-2021 14:00:00 -1.03333 C 2.86 g/m*3 -5.01 C 11.81667 km/h
280 12-02-2021 15:00:00 -1.00833 C 2.82 g/m*3 -5.43 C 13.83333 km/h
281 12-02-2021 16:00:00 -1.30833 C 2.83 g/m*3 -4.59 C 8.99167 km/h
282 12-02-2021 17:00:00 -1.81667 C 2.91 g/m*3 -4.55 C 7.1 km/h
283 12-02-2021 18:00:00 -3.19167 C 2.94 g/m*3 -3.19 C 4.81667 km/h
284 12-02-2021 19:00:00 -4.525 C 2.87 g/m*3 -4.53 C 4.13333 km/h
285 12-02-2021 20:00:00 -5.2 C 2.76 g/m*3 -5.2 C 4.55 km/h
286 12-02-2021 21:00:00 -5.84167 C 2.68 g/m*3 -5.84 C 3.86667 km/h
287 12-02-2021 22:00:00 -6.31667 C 2.61 g/m*3 -6.32 C 3.6 km/h
288 12-02-2021 23:00:00 -6.96667 C 2.52 g/m*3 -6.97 C 3.35 km/h
289 13-02-2021 00:00:00 -7.23333 C 2.45 g/m*3 -7.23 C 3.33333 km/h
290 13-02-2021 01:00:00 -8.16667 C 2.33 g/m*3 -8.17 C 1.73333 km/h
291 13-02-2021 02:00:00 -8.54167 C 2.29 g/m*3 -8.54 C 2 km/h
292 13-02-2021 03:00:00 -8.91667 C 2.25 g/m*3 -8.92 C 3.33333 km/h
293 13-02-2021 04:00:00 -8.98333 C 2.24 g/m*3 -8.98 C 3.73333 km/h
294 13-02-2021 05:00:00 -9.275 C 2.19 g/m*3 -9.28 C 2.13333 km/h
295 13-02-2021 06:00:00 -9.30833 C 2.21 g/m*3 -9.31 C 2.8 km/h
296 13-02-2021 07:00:00 -9.20833 C 2.22 g/m*3 -9.21 C 3.06667 km/h
297 13-02-2021 08:00:00 -9.36667 C 2.2 g/m*3 -9.37 C 1.2 km/h
298 13-02-2021 09:00:00 -8.81667 C 2.33 g/m*3 -8.82 C 1.075 km/h
299 13-02-2021 10:00:00 -7.29167 C 2.59 g/m*3 -7.29 C 3.2 km/h
300 13-02-2021 11:00:00 -4.75833 C 2.91 g/m*3 -7.25 C 5.49167 km/h
Sensor: Nr:Datum:Temp:Abs-Feuchte:Windchill:Wind:
Aussen-T/F 301 13-02-2021 12:00:00 -2.29167 C 3 g/m*3 -5.59 C 8.475 km/h
302 13-02-2021 13:00:00 -0.41667 C 2.89 g/m*3 -2.73 C 6.58333 km/h
303 13-02-2021 14:00:00 0.825 C 2.53 g/m*3 -2.76 C 11.825 km/h
304 13-02-2021 15:00:00 0.76667 C 2.55 g/m*3 -1.86 C 8.05833 km/h
305 13-02-2021 16:00:00 0.76667 C 2.66 g/m*3 -1.9 C 8.19167 km/h
306 13-02-2021 17:00:00 -0.125 C 2.9 g/m*3 -0.13 C 3.6 km/h
307 13-02-2021 18:00:00 -2.71667 C 2.98 g/m*3 -2.72 C 4 km/h
308 13-02-2021 19:00:00 -4.21667 C 2.88 g/m*3 -4.22 C 3.2 km/h
309 13-02-2021 20:00:00 -4.88333 C 2.82 g/m*3 -4.88 C 3.46667 km/h
310 13-02-2021 21:00:00 -5.55833 C 2.74 g/m*3 -5.56 C 2.66667 km/h
311 13-02-2021 22:00:00 -6.19167 C 2.68 g/m*3 -6.19 C 4 km/h
312 13-02-2021 23:00:00 -6.58333 C 2.64 g/m*3 -6.58 C 2.66667 km/h
313 14-02-2021 00:00:00 -7.39167 C 2.52 g/m*3 -7.39 C 1.33333 km/h
314 14-02-2021 01:00:00 -8.10833 C 2.43 g/m*3 -8.11 C 1.2 km/h
315 14-02-2021 02:00:00 -8.21667 C 2.44 g/m*3 -8.22 C 4 km/h
316 14-02-2021 03:00:00 -7.96667 C 2.49 g/m*3 -7.97 C 2.4 km/h
317 14-02-2021 04:00:00 -8.55 C 2.38 g/m*3 -8.55 C 1.86667 km/h
318 14-02-2021 05:00:00 -8.66667 C 2.38 g/m*3 -8.67 C 2.13333 km/h
319 14-02-2021 06:00:00 -8.95 C 2.34 g/m*3 -8.95 C 1.33333 km/h
320 14-02-2021 07:00:00 -9.49167 C 2.24 g/m*3 -9.49 C 0.53333 km/h
321 14-02-2021 08:00:00 -9.31667 C 2.28 g/m*3 -9.32 C 1.73333 km/h
322 14-02-2021 09:00:00 -8.16667 C 2.51 g/m*3 -8.17 C 4.4 km/h
323 14-02-2021 10:00:00 -6.625 C 2.81 g/m*3 -6.63 C 4.4 km/h
324 14-02-2021 11:00:00 -4.275 C 3.31 g/m*3 -6.48 C 5.06667 km/h
325 14-02-2021 12:00:00 -1.55 C 3.72 g/m*3 -3.57 C 5.475 km/h
Sensor: Nr:Datum:Temp:Abs-Feuchte:Windchill:Wind:
Aussen-T/F 326 14-02-2021 13:00:00 1.44167 C 3.4 g/m*3 -0.47 C 6.28333 km/h
327 14-02-2021 14:00:00 3.7 C 2.83 g/m*3 1.34 C 9 km/h
328 14-02-2021 15:00:00 3.725 C 2.85 g/m*3 2.25 C 6.00833 km/h
329 14-02-2021 16:00:00 3.175 C 3.3 g/m*3 3.18 C 3.86667 km/h
330 14-02-2021 17:00:00 1.175 C 3.64 g/m*3 -0.4 C 5.33333 km/h
331 14-02-2021 18:00:00 -0.13333 C 3.57 g/m*3 -0.13 C 4.53333 km/h
332 14-02-2021 19:00:00 -0.38333 C 3.57 g/m*3 -0.38 C 4.66667 km/h
333 14-02-2021 20:00:00 -0.825 C 3.43 g/m*3 -0.83 C 4.66667 km/h
334 14-02-2021 21:00:00 -1.56667 C 3.4 g/m*3 -1.57 C 3.73333 km/h
335 14-02-2021 22:00:00 -1.86667 C 3.37 g/m*3 -1.87 C 3.06667 km/h
336 14-02-2021 23:00:00 -1.95833 C 3.15 g/m*3 -1.96 C 3.6 km/h
337 15-02-2021 00:00:00 -1.79167 C 3.05 g/m*3 -1.79 C 4 km/h
338 15-02-2021 01:00:00 -2.36667 C 3 g/m*3 -2.37 C 3.6 km/h
339 15-02-2021 02:00:00 -2.40833 C 2.99 g/m*3 -2.41 C 4 km/h
340 15-02-2021 03:00:00 -1.96667 C 2.9 g/m*3 -3.93 C 5.225 km/h
341 15-02-2021 04:00:00 -0.44167 C 2.82 g/m*3 -4.07 C 10.88333 km/h
342 15-02-2021 05:00:00 -0.39167 C 2.84 g/m*3 -2.65 C 6.43333 km/h
343 15-02-2021 06:00:00 -0.43333 C 2.92 g/m*3 -0.43 C 3.74167 km/h
344 15-02-2021 07:00:00 -0.325 C 2.96 g/m*3 -0.33 C 2.80833 km/h
345 15-02-2021 08:00:00 -0.15833 C 3.05 g/m*3 -0.16 C 2.80833 km/h
346 15-02-2021 09:00:00 0.475 C 3.12 g/m*3 0.48 C 3.35 km/h
347 15-02-2021 10:00:00 1.45 C 3.28 g/m*3 1.45 C 2.26667 km/h
348 15-02-2021 11:00:00 2.13333 C 3.45 g/m*3 2.13 C 3.06667 km/h
349 15-02-2021 12:00:00 1.88333 C 4.27 g/m*3 1.88 C 2.66667 km/h
350 15-02-2021 13:00:00 1.75 C 4.81 g/m*3 1.75 C 0.26667 km/h
Sensor: Nr:Datum:Temp:Abs-Feuchte:Windchill:Wind:
Aussen-T/F 351 15-02-2021 14:00:00 1.825 C 5.01 g/m*3 1.83 C 1.06667 km/h
352 15-02-2021 15:00:00 2.125 C 5.21 g/m*3 2.13 C 0.4 km/h
353 15-02-2021 16:00:00 2.25 C 5.26 g/m*3 2.25 C 0.4 km/h
354 15-02-2021 17:00:00 2.05 C 5.2 g/m*3 2.05 C 1.46667 km/h
355 15-02-2021 18:00:00 1.80833 C 5.16 g/m*3 1.81 C 1.06667 km/h
356 15-02-2021 19:00:00 1.75833 C 5.17 g/m*3 1.76 C 0 km/h
357 15-02-2021 20:00:00 1.80833 C 5.21 g/m*3 1.81 C 0.13333 km/h
358 15-02-2021 21:00:00 1.99167 C 5.3 g/m*3 1.99 C 0.53333 km/h
359 15-02-2021 22:00:00 2.94167 C 5.69 g/m*3 2.94 C 3.20833 km/h
360 15-02-2021 23:00:00 4 C 6.1 g/m*3 1.73 C 8.86667 km/h
361 16-02-2021 00:00:00 4.13333 C 6.09 g/m*3 2.54 C 6.575 km/h
362 16-02-2021 01:00:00 4.03333 C 6.05 g/m*3 4.03 C 2 km/h
363 16-02-2021 02:00:00 4.075 C 6.11 g/m*3 4.08 C 2.93333 km/h
364 16-02-2021 03:00:00 4.01667 C 6.11 g/m*3 4.02 C 2.93333 km/h
365 16-02-2021 04:00:00 3.95 C 6.08 g/m*3 3.95 C 0.66667 km/h
366 16-02-2021 05:00:00 3.94167 C 6.08 g/m*3 3.94 C 0 km/h
367 16-02-2021 06:00:00 3.78333 C 6.02 g/m*3 3.78 C 0 km/h
368 16-02-2021 07:00:00 3.34167 C 5.84 g/m*3 3.34 C 0 km/h
369 16-02-2021 08:00:00 3.00833 C 5.73 g/m*3 3.01 C 0.53333 km/h
370 16-02-2021 09:00:00 3.99167 C 6.16 g/m*3 3.99 C 0 km/h
371 16-02-2021 10:00:00 5.025 C 6.6 g/m*3 5.03 C 0 km/h
372 16-02-2021 11:00:00 6.3 C 7.18 g/m*3 6.3 C 0.13333 km/h
373 16-02-2021 12:00:00 7.41667 C 7.69 g/m*3 7.42 C 0 km/h
374 16-02-2021 13:00:00 8.89167 C 8.3 g/m*3 8.89 C 0.53333 km/h
375 16-02-2021 14:00:00 9.775 C 8.56 g/m*3 9.78 C 0.93333 km/h
Sensor: Nr:Datum:Temp:Abs-Feuchte:Windchill:Wind:
Aussen-T/F 376 16-02-2021 15:00:00 9.96667 C 8.23 g/m*3 9.97 C 3.2 km/h
377 16-02-2021 16:00:00 8.75833 C 7.45 g/m*3 8.76 C 3.73333 km/h
378 16-02-2021 17:00:00 6.99167 C 6.91 g/m*3 6.13 C 5.61667 km/h
379 16-02-2021 18:00:00 5.89167 C 6.53 g/m*3 5.89 C 4.94167 km/h
380 16-02-2021 19:00:00 5.4 C 6.45 g/m*3 4.46 C 5.20833 km/h
381 16-02-2021 20:00:00 5.08333 C 6.38 g/m*3 5.08 C 3.73333 km/h
382 16-02-2021 21:00:00 5.16667 C 6.47 g/m*3 5.17 C 1.6 km/h
383 16-02-2021 22:00:00 5.75 C 6.78 g/m*3 5.75 C 1.86667 km/h
384 16-02-2021 23:00:00 6.85 C 7.37 g/m*3 5.8 C 6.15833 km/h
385 17-02-2021 00:00:00 7.325 C 7.52 g/m*3 5.13 C 11.68333 km/h
386 17-02-2021 01:00:00 6.15 C 6.86 g/m*3 5.36 C 5.08333 km/h
387 17-02-2021 02:00:00 6.31667 C 7.09 g/m*3 4.84 C 7.39167 km/h
388 17-02-2021 03:00:00 6.55833 C 7.12 g/m*3 6.56 C 4.675 km/h
389 17-02-2021 04:00:00 5.275 C 6.54 g/m*3 5.28 C 4.8 km/h
390 17-02-2021 05:00:00 5.35833 C 6.67 g/m*3 4.41 C 5.20833 km/h
391 17-02-2021 06:00:00 5.35 C 6.67 g/m*3 5.35 C 4.14167 km/h
392 17-02-2021 07:00:00 4.86667 C 6.47 g/m*3 4.87 C 3.46667 km/h
393 17-02-2021 08:00:00 5.575 C 6.82 g/m*3 4.66 C 5.20833 km/h
394 17-02-2021 09:00:00 7.05 C 7.44 g/m*3 5.56 C 7.91667 km/h
395 17-02-2021 10:00:00 8.7 C 7.84 g/m*3 6.6 C 12.89167 km/h
396 17-02-2021 11:00:00 9.71667 C 7.9 g/m*3 7.71 C 13.83333 km/h
397 17-02-2021 12:00:00 10.4 C 7.99 g/m*3 8.9 C 11.3 km/h
398 17-02-2021 13:00:00 10.65 C 7.88 g/m*3 9.23 C 11.15833 km/h
399 17-02-2021 14:00:00 10.85833 C 8.03 g/m*3 9.48 C 11.15833 km/h
400 17-02-2021 15:00:00 11.06667 C 8.01 g/m*3 11.07 C 8.6 km/h
Sensor: Nr:Datum:Temp:Abs-Feuchte:Windchill:Wind:
Aussen-T/F 401 17-02-2021 16:00:00 10.81667 C 8.09 g/m*3 10.15 C 7.1 km/h
402 17-02-2021 17:00:00 9.55833 C 7.6 g/m*3 9.07 C 5.60833 km/h
403 17-02-2021 18:00:00 7.375 C 7.1 g/m*3 7.38 C 4.93333 km/h
404 17-02-2021 19:00:00 6.75833 C 7.02 g/m*3 6.76 C 3.73333 km/h
405 17-02-2021 20:00:00 5.89167 C 6.63 g/m*3 5.89 C 1.06667 km/h
406 17-02-2021 21:00:00 4.425 C 6.09 g/m*3 4.43 C 1.86667 km/h
407 17-02-2021 22:00:00 3.29167 C 5.7 g/m*3 3.29 C 0.26667 km/h
408 17-02-2021 23:00:00 2.375 C 5.39 g/m*3 2.38 C 0 km/h
409 18-02-2021 00:00:00 1.64167 C 5.15 g/m*3 1.64 C 0 km/h
410 18-02-2021 01:00:00 1.08333 C 4.96 g/m*3 1.08 C 0.13333 km/h
411 18-02-2021 02:00:00 0.6 C 4.82 g/m*3 0.6 C 0 km/h
412 18-02-2021 03:00:00 0.08333 C 4.67 g/m*3 0.08 C 0 km/h
413 18-02-2021 04:00:00 -0.01667 C 4.65 g/m*3 -0.02 C 0 km/h
414 18-02-2021 05:00:00 -0.26667 C 4.57 g/m*3 -0.27 C 0 km/h
415 18-02-2021 06:00:00 -0.46667 C 4.5 g/m*3 -0.47 C 0 km/h
416 18-02-2021 07:00:00 -0.31667 C 4.56 g/m*3 -0.32 C 0 km/h
417 18-02-2021 08:00:00 0.30833 C 4.8 g/m*3 0.31 C 0.4 km/h
418 18-02-2021 09:00:00 0.81667 C 4.97 g/m*3 0.82 C 0.26667 km/h
419 18-02-2021 10:00:00 2.075 C 5.42 g/m*3 2.08 C 1.2 km/h
420 18-02-2021 11:00:00 3.725 C 6.09 g/m*3 3.73 C 0.53333 km/h
421 18-02-2021 12:00:00 5.55 C 6.9 g/m*3 5.55 C 0.13333 km/h
422 18-02-2021 13:00:00 7.475 C 7.57 g/m*3 7.48 C 1.33333 km/h
423 18-02-2021 14:00:00 8.58333 C 7.12 g/m*3 8.58 C 4.8 km/h
424 18-02-2021 15:00:00 8.125 C 7.08 g/m*3 8.13 C 0.66667 km/h
425 18-02-2021 16:00:00 8.48333 C 7.39 g/m*3 8.48 C 3.88333 km/h
Sensor: Nr:Datum:Temp:Abs-Feuchte:Windchill:Wind:
Aussen-T/F 426 18-02-2021 17:00:00 8.25833 C 7.14 g/m*3 8.26 C 2.66667 km/h
427 18-02-2021 18:00:00 6.88333 C 6.88 g/m*3 6.88 C 3.2 km/h
428 18-02-2021 19:00:00 6.91667 C 6.94 g/m*3 6.92 C 4 km/h
429 18-02-2021 20:00:00 7.375 C 7.13 g/m*3 7.38 C 3.06667 km/h
430 18-02-2021 21:00:00 8.15 C 7.79 g/m*3 8.15 C 4.41667 km/h
431 18-02-2021 22:00:00 8.15833 C 7.8 g/m*3 6.52 C 9.51667 km/h
432 18-02-2021 23:00:00 6.80833 C 6.93 g/m*3 5.41 C 7.375 km/h
433 19-02-2021 00:00:00 5.29167 C 6.31 g/m*3 3.23 C 9 km/h
434 19-02-2021 01:00:00 5.11667 C 6.18 g/m*3 3.19 C 8.33333 km/h
435 19-02-2021 02:00:00 4.01667 C 5.85 g/m*3 2.88 C 5.20833 km/h
436 19-02-2021 03:00:00 3.65833 C 5.81 g/m*3 2.48 C 5.20833 km/h
437 19-02-2021 04:00:00 3.54167 C 5.82 g/m*3 2.08 C 5.9 km/h
438 19-02-2021 05:00:00 4.125 C 6.01 g/m*3 2.75 C 5.90833 km/h
439 19-02-2021 06:00:00 3.25833 C 5.65 g/m*3 3.26 C 2 km/h
440 19-02-2021 07:00:00 3.65 C 5.9 g/m*3 3.65 C 1.33333 km/h
441 19-02-2021 08:00:00 4.2 C 6.15 g/m*3 4.2 C 1.73333 km/h
442 19-02-2021 09:00:00 5.23333 C 6.54 g/m*3 5.23 C 0.53333 km/h
443 19-02-2021 10:00:00 6.275 C 6.86 g/m*3 6.28 C 1.46667 km/h
444 19-02-2021 11:00:00 7.65 C 7.21 g/m*3 7.65 C 0.53333 km/h
445 19-02-2021 12:00:00 9 C 7.52 g/m*3 9 C 0.53333 km/h
446 19-02-2021 13:00:00 10.01667 C 7.63 g/m*3 10.02 C 0.4 km/h
447 19-02-2021 14:00:00 11.09167 C 7.79 g/m*3 11.09 C 3.08333 km/h
448 19-02-2021 15:00:00 11.80833 C 7.56 g/m*3 11.81 C 6.99167 km/h
449 19-02-2021 16:00:00 11.85 C 7.51 g/m*3 11.85 C 6.30833 km/h
450 19-02-2021 17:00:00 10.28333 C 7.34 g/m*3 10.28 C 4.66667 km/h
Sensor: Nr:Datum:Temp:Abs-Feuchte:Windchill:Wind:
Aussen-T/F 451 19-02-2021 18:00:00 7.3 C 6.76 g/m*3 6.37 C 6 km/h
452 19-02-2021 19:00:00 6.275 C 6.64 g/m*3 6.28 C 4.26667 km/h
453 19-02-2021 20:00:00 5.39167 C 6.35 g/m*3 5.39 C 0.8 km/h
454 19-02-2021 21:00:00 4.175 C 5.96 g/m*3 4.18 C 0 km/h
455 19-02-2021 22:00:00 3.71667 C 5.86 g/m*3 3.72 C 0.26667 km/h
456 19-02-2021 23:00:00 3.19167 C 5.69 g/m*3 3.19 C 0 km/h
457 20-02-2021 00:00:00 2.83333 C 5.59 g/m*3 2.83 C 0 km/h
458 20-02-2021 01:00:00 2.48333 C 5.47 g/m*3 2.48 C 0 km/h
459 20-02-2021 02:00:00 2.21667 C 5.39 g/m*3 2.22 C 0 km/h
460 20-02-2021 03:00:00 2.125 C 5.38 g/m*3 2.13 C 0 km/h
461 20-02-2021 04:00:00 1.58333 C 5.19 g/m*3 1.58 C 0 km/h
462 20-02-2021 05:00:00 1.20833 C 5.05 g/m*3 1.21 C 0 km/h
463 20-02-2021 06:00:00 0.85 C 4.93 g/m*3 0.85 C 0.26667 km/h
464 20-02-2021 07:00:00 0.8 C 4.92 g/m*3 0.8 C 0.13333 km/h
465 20-02-2021 08:00:00 1.25833 C 5.12 g/m*3 1.26 C 0 km/h
466 20-02-2021 09:00:00 1.89167 C 5.35 g/m*3 1.89 C 0 km/h
467 20-02-2021 10:00:00 3.41667 C 5.95 g/m*3 3.42 C 2 km/h
468 20-02-2021 11:00:00 8.10833 C 8.16 g/m*3 8.11 C 3.2 km/h
469 20-02-2021 12:00:00 11.60833 C 9.07 g/m*3 11.61 C 7.51667 km/h
470 20-02-2021 13:00:00 14.96667 C 8.64 g/m*3 14.97 C 7.25 km/h
471 20-02-2021 14:00:00 16.40833 C 8.6 g/m*3 16.41 C 6.83333 km/h
472 20-02-2021 15:00:00 16.55833 C 8.67 g/m*3 16.56 C 3.75 km/h
473 20-02-2021 16:00:00 16.01667 C 8.98 g/m*3 16.02 C 2.4 km/h
474 20-02-2021 17:00:00 14.09167 C 9.02 g/m*3 14.09 C 4.13333 km/h
475 20-02-2021 18:00:00 10.94167 C 8.29 g/m*3 10.52 C 6.14167 km/h
Sensor: Nr:Datum:Temp:Abs-Feuchte:Windchill:Wind:
Aussen-T/F 476 20-02-2021 19:00:00 9.39167 C 7.94 g/m*3 8.7 C 6.275 km/h
477 20-02-2021 20:00:00 8.46667 C 7.67 g/m*3 7.67 C 6.14167 km/h
478 20-02-2021 21:00:00 7.675 C 7.36 g/m*3 7.68 C 3.86667 km/h
479 20-02-2021 22:00:00 6.575 C 6.91 g/m*3 6.58 C 0.8 km/h
480 20-02-2021 23:00:00 5.825 C 6.66 g/m*3 5.83 C 1.06667 km/h
481 21-02-2021 00:00:00 4.53333 C 6.12 g/m*3 4.53 C 0 km/h
482 21-02-2021 01:00:00 3.54167 C 5.81 g/m*3 3.54 C 0.53333 km/h
483 21-02-2021 02:00:00 3.275 C 5.74 g/m*3 3.28 C 0 km/h
484 21-02-2021 03:00:00 3.04167 C 5.66 g/m*3 3.04 C 0 km/h
485 21-02-2021 04:00:00 2.325 C 5.42 g/m*3 2.33 C 0.26667 km/h
486 21-02-2021 05:00:00 2.05 C 5.33 g/m*3 2.05 C 0.13333 km/h
487 21-02-2021 06:00:00 1.70833 C 5.23 g/m*3 1.71 C 0.13333 km/h
488 21-02-2021 07:00:00 1.19167 C 5.05 g/m*3 1.19 C 0.13333 km/h
489 21-02-2021 08:00:00 1.21667 C 5.06 g/m*3 1.22 C 0.13333 km/h
490 21-02-2021 09:00:00 2.01667 C 5.38 g/m*3 2.02 C 0.53333 km/h
491 21-02-2021 10:00:00 3.925 C 6.15 g/m*3 3.93 C 0.8 km/h
492 21-02-2021 11:00:00 7.24167 C 7.71 g/m*3 7.24 C 1.06667 km/h
493 21-02-2021 12:00:00 11.425 C 8.78 g/m*3 11.43 C 4.14167 km/h
494 21-02-2021 13:00:00 15.85 C 7.97 g/m*3 15.85 C 6.31667 km/h
495 21-02-2021 14:00:00 17.91667 C 7.46 g/m*3 17.92 C 5.76667 km/h
496 21-02-2021 15:00:00 17.48333 C 7.46 g/m*3 17.48 C 4.55 km/h
497 21-02-2021 16:00:00 16.59167 C 7.66 g/m*3 16.59 C 5.06667 km/h
498 21-02-2021 17:00:00 15.05833 C 7.71 g/m*3 15.06 C 6.68333 km/h
499 21-02-2021 18:00:00 11.95833 C 7.5 g/m*3 11.96 C 8.21667 km/h
500 21-02-2021 19:00:00 11.75833 C 7.57 g/m*3 11.76 C 9.425 km/h
Sensor: Nr:Datum:Temp:Abs-Feuchte:Windchill:Wind:
Aussen-T/F 501 21-02-2021 20:00:00 10.83333 C 7.4 g/m*3 10.26 C 6.69167 km/h
502 21-02-2021 21:00:00 8.63333 C 6.85 g/m*3 8.63 C 1.46667 km/h
503 21-02-2021 22:00:00 6.55833 C 6.45 g/m*3 6.56 C 0 km/h
504 21-02-2021 23:00:00 5.4 C 6.19 g/m*3 5.4 C 0 km/h
505 22-02-2021 00:00:00 4.18333 C 5.85 g/m*3 4.18 C 0 km/h
506 22-02-2021 01:00:00 3.50833 C 5.7 g/m*3 3.51 C 0.53333 km/h
507 22-02-2021 02:00:00 2.675 C 5.41 g/m*3 2.68 C 0 km/h
508 22-02-2021 03:00:00 1.88333 C 5.18 g/m*3 1.88 C 0 km/h
509 22-02-2021 04:00:00 1.40833 C 5.05 g/m*3 1.41 C 0.13333 km/h
510 22-02-2021 05:00:00 1.43333 C 5.09 g/m*3 1.43 C 2.4 km/h
511 22-02-2021 06:00:00 1.05833 C 4.96 g/m*3 1.06 C 0.13333 km/h
512 22-02-2021 07:00:00 1.25 C 5.07 g/m*3 1.25 C 1.06667 km/h
513 22-02-2021 08:00:00 1.96667 C 5.32 g/m*3 1.97 C 1.33333 km/h
514 22-02-2021 09:00:00 3.15833 C 5.79 g/m*3 3.16 C 0 km/h
515 22-02-2021 10:00:00 4.85833 C 6.52 g/m*3 4.86 C 0.13333 km/h
516 22-02-2021 11:00:00 6.3 C 6.93 g/m*3 6.3 C 0.93333 km/h
517 22-02-2021 12:00:00 7.90833 C 7.18 g/m*3 7.91 C 1.2 km/h
518 22-02-2021 13:00:00 9.33333 C 7.5 g/m*3 9.33 C 1.73333 km/h
519 22-02-2021 14:00:00 11.34167 C 8.03 g/m*3 11.34 C 0 km/h
520 22-02-2021 15:00:00 13.69167 C 8.28 g/m*3 13.69 C 0.8 km/h
521 22-02-2021 16:00:00 14.44167 C 8.72 g/m*3 14.44 C 0 km/h
522 22-02-2021 17:00:00 12.63333 C 8.37 g/m*3 12.63 C 2.93333 km/h
523 22-02-2021 18:00:00 11.19167 C 8.1 g/m*3 11.19 C 1.6 km/h
524 22-02-2021 19:00:00 10.50833 C 7.93 g/m*3 10.51 C 0 km/h
525 22-02-2021 20:00:00 10.175 C 7.9 g/m*3 10.18 C 0 km/h
Sensor: Nr:Datum:Temp:Abs-Feuchte:Windchill:Wind:
Aussen-T/F 526 22-02-2021 21:00:00 9.13333 C 7.5 g/m*3 9.13 C 0 km/h
527 22-02-2021 22:00:00 7.86667 C 7.21 g/m*3 7.87 C 0 km/h
528 22-02-2021 23:00:00 7.70833 C 7.3 g/m*3 7.71 C 0 km/h
529 23-02-2021 00:00:00 7.375 C 7.19 g/m*3 7.38 C 0 km/h
530 23-02-2021 01:00:00 7.2 C 7.18 g/m*3 7.2 C 0 km/h
531 23-02-2021 02:00:00 7.26667 C 7.25 g/m*3 7.27 C 0 km/h
532 23-02-2021 03:00:00 7.38333 C 7.32 g/m*3 7.38 C 0 km/h
533 23-02-2021 04:00:00 7.36667 C 7.35 g/m*3 7.37 C 0 km/h
534 23-02-2021 05:00:00 7.16667 C 7.24 g/m*3 7.17 C 0 km/h
535 23-02-2021 06:00:00 6.33333 C 6.89 g/m*3 6.33 C 0 km/h
536 23-02-2021 07:00:00 6.83333 C 7.27 g/m*3 6.83 C 1.2 km/h
537 23-02-2021 08:00:00 7.975 C 7.78 g/m*3 7.98 C 1.73333 km/h
538 23-02-2021 09:00:00 8.91667 C 8.13 g/m*3 8.92 C 0.13333 km/h
539 23-02-2021 10:00:00 10.43333 C 8.69 g/m*3 10.43 C 0.66667 km/h
540 23-02-2021 11:00:00 13.50833 C 9.58 g/m*3 13.51 C 1.2 km/h
541 23-02-2021 12:00:00 16.23333 C 10.08 g/m*3 16.23 C 5.23333 km/h
542 23-02-2021 13:00:00 18.51667 C 9.73 g/m*3 18.52 C 10.63333 km/h
543 23-02-2021 14:00:00 19.725 C 9.76 g/m*3 19.73 C 6.43333 km/h
544 23-02-2021 15:00:00 19.70833 C 9.71 g/m*3 19.71 C 8.19167 km/h
545 23-02-2021 16:00:00 19.66667 C 9.58 g/m*3 19.67 C 4.26667 km/h
546 23-02-2021 17:00:00 18.21667 C 9.46 g/m*3 18.22 C 5.88333 km/h
547 23-02-2021 18:00:00 14.58333 C 9.24 g/m*3 14.58 C 6.4 km/h
548 23-02-2021 19:00:00 12.85 C 9.03 g/m*3 12.85 C 4.66667 km/h
549 23-02-2021 20:00:00 11.35 C 8.65 g/m*3 11.35 C 1.06667 km/h
550 23-02-2021 21:00:00 10.10833 C 8.33 g/m*3 10.11 C 0 km/h
Sensor: Nr:Datum:Temp:Abs-Feuchte:Windchill:Wind:
Aussen-T/F 551 23-02-2021 22:00:00 9.25 C 8.03 g/m*3 9.25 C 0 km/h
552 23-02-2021 23:00:00 8.29167 C 7.7 g/m*3 8.29 C 0.4 km/h
553 24-02-2021 00:00:00 7.91667 C 7.65 g/m*3 7.92 C 0.53333 km/h
554 24-02-2021 01:00:00 7.1 C 7.27 g/m*3 7.1 C 0.13333 km/h
555 24-02-2021 02:00:00 6.45833 C 7.02 g/m*3 6.46 C 0 km/h
556 24-02-2021 03:00:00 5.96667 C 6.86 g/m*3 5.97 C 0 km/h
557 24-02-2021 04:00:00 5.5 C 6.67 g/m*3 5.5 C 0 km/h
558 24-02-2021 05:00:00 5.11667 C 6.51 g/m*3 5.12 C 0 km/h
559 24-02-2021 06:00:00 4.65833 C 6.34 g/m*3 4.66 C 0 km/h
560 24-02-2021 07:00:00 4.79167 C 6.43 g/m*3 4.79 C 0.4 km/h
561 24-02-2021 08:00:00 5.55 C 6.8 g/m*3 5.55 C 0.4 km/h
562 24-02-2021 09:00:00 6.575 C 7.31 g/m*3 6.58 C 0.26667 km/h
563 24-02-2021 10:00:00 7.44167 C 7.73 g/m*3 7.44 C 0 km/h
564 24-02-2021 11:00:00 9.74167 C 8.97 g/m*3 9.74 C 0 km/h
565 24-02-2021 12:00:00 13.26667 C 10.67 g/m*3 13.27 C 0 km/h
566 24-02-2021 13:00:00 17.18333 C 10.55 g/m*3 17.18 C 6.025 km/h
567 24-02-2021 14:00:00 18.73333 C 10.36 g/m*3 18.73 C 4.28333 km/h
568 24-02-2021 15:00:00 18.79167 C 10.41 g/m*3 18.79 C 1.475 km/h
569 24-02-2021 16:00:00 18.89167 C 10.34 g/m*3 18.89 C 0.13333 km/h
570 24-02-2021 17:00:00 16.73333 C 9.86 g/m*3 16.73 C 0.93333 km/h
571 24-02-2021 18:00:00 13.725 C 9.11 g/m*3 13.73 C 0.26667 km/h
572 24-02-2021 19:00:00 11.96667 C 8.69 g/m*3 11.97 C 0 km/h
573 24-02-2021 20:00:00 10.1 C 8.15 g/m*3 10.1 C 0 km/h
574 24-02-2021 21:00:00 8.825 C 7.84 g/m*3 8.82 C 0 km/h
575 24-02-2021 22:00:00 8.05833 C 7.62 g/m*3 8.06 C 0 km/h
Sensor: Nr:Datum:Temp:Abs-Feuchte:Windchill:Wind:
Aussen-T/F 576 24-02-2021 23:00:00 7.33333 C 7.36 g/m*3 7.33 C 0 km/h
577 25-02-2021 00:00:00 6.60833 C 7.09 g/m*3 6.61 C 0.13333 km/h
578 25-02-2021 01:00:00 6.15833 C 6.92 g/m*3 6.16 C 0.53333 km/h
579 25-02-2021 02:00:00 5.61667 C 6.72 g/m*3 5.62 C 0 km/h
580 25-02-2021 03:00:00 5.19167 C 6.54 g/m*3 5.19 C 0 km/h
581 25-02-2021 04:00:00 4.475 C 6.23 g/m*3 4.47 C 0 km/h
582 25-02-2021 05:00:00 4.175 C 6.14 g/m*3 4.18 C 0.13333 km/h
583 25-02-2021 06:00:00 3.76667 C 6 g/m*3 3.77 C 0 km/h
584 25-02-2021 07:00:00 3.33333 C 5.84 g/m*3 3.33 C 0 km/h
585 25-02-2021 08:00:00 3.74167 C 6 g/m*3 3.74 C 0 km/h
586 25-02-2021 09:00:00 4.56667 C 6.39 g/m*3 4.57 C 0 km/h
587 25-02-2021 10:00:00 6.4 C 7.23 g/m*3 6.4 C 0.4 km/h
588 25-02-2021 11:00:00 9.25833 C 8.68 g/m*3 9.26 C 1.33333 km/h
589 25-02-2021 12:00:00 13.89167 C 8.89 g/m*3 13.89 C 1.2 km/h
590 25-02-2021 13:00:00 17.64167 C 8.88 g/m*3 17.64 C 1.73333 km/h
591 25-02-2021 14:00:00 19.93333 C 8.88 g/m*3 19.93 C 2.53333 km/h
592 25-02-2021 15:00:00 18.975 C 8.53 g/m*3 18.98 C 5.475 km/h
593 25-02-2021 16:00:00 18.51667 C 8.05 g/m*3 18.52 C 3.74167 km/h
594 25-02-2021 17:00:00 15.69167 C 7.79 g/m*3 15.69 C 6.55 km/h
595 25-02-2021 18:00:00 12.9 C 7.49 g/m*3 12.9 C 5.6 km/h
596 25-02-2021 19:00:00 11.68333 C 7.31 g/m*3 11.68 C 2.13333 km/h
597 25-02-2021 20:00:00 10.78333 C 7.36 g/m*3 10.78 C 0.8 km/h
598 25-02-2021 21:00:00 10.03333 C 7.16 g/m*3 10.03 C 3.34167 km/h
599 25-02-2021 22:00:00 8.75833 C 6.83 g/m*3 8.76 C 0.4 km/h
600 25-02-2021 23:00:00 7.2 C 6.6 g/m*3 7.2 C 1.33333 km/h
Sensor: Nr:Datum:Temp:Abs-Feuchte:Windchill:Wind:
Aussen-T/F 601 26-02-2021 00:00:00 6.60833 C 6.59 g/m*3 6.61 C 1.73333 km/h
602 26-02-2021 01:00:00 6.425 C 6.64 g/m*3 6.43 C 2.53333 km/h
603 26-02-2021 02:00:00 6.38333 C 6.67 g/m*3 6.38 C 0.8 km/h
604 26-02-2021 03:00:00 7 C 6.9 g/m*3 7 C 0 km/h
605 26-02-2021 04:00:00 7.225 C 6.94 g/m*3 7.23 C 0.13333 km/h
606 26-02-2021 05:00:00 7.64167 C 7.1 g/m*3 7.64 C 3.075 km/h
607 26-02-2021 06:00:00 8.03333 C 7.35 g/m*3 7.32 C 5.63333 km/h
608 26-02-2021 07:00:00 8.38333 C 7.63 g/m*3 6.59 C 10.61667 km/h
609 26-02-2021 08:00:00 7.8 C 7.36 g/m*3 6.38 C 8.19167 km/h
610 26-02-2021 09:00:00 6.99167 C 7.01 g/m*3 5.56 C 7.64167 km/h
611 26-02-2021 10:00:00 6.63333 C 6.97 g/m*3 6.63 C 2.26667 km/h
612 26-02-2021 11:00:00 6.80833 C 7.11 g/m*3 6.81 C 3.88333 km/h
613 26-02-2021 12:00:00 7.025 C 7.23 g/m*3 7.03 C 3.60833 km/h
614 26-02-2021 13:00:00 7.50833 C 7.35 g/m*3 7.51 C 0.66667 km/h
615 26-02-2021 14:00:00 8.44167 C 7.58 g/m*3 8.44 C 1.6 km/h
616 26-02-2021 15:00:00 8.76667 C 7.71 g/m*3 8.77 C 0.8 km/h
617 26-02-2021 16:00:00 9.29167 C 7.33 g/m*3 9.29 C 4.80833 km/h
618 26-02-2021 17:00:00 9.35 C 6.69 g/m*3 8.99 C 5.09167 km/h
619 26-02-2021 18:00:00 7.41667 C 6.16 g/m*3 7.42 C 3.20833 km/h
620 26-02-2021 19:00:00 6.50833 C 6.22 g/m*3 6.51 C 3.06667 km/h
621 26-02-2021 20:00:00 6.225 C 6.4 g/m*3 6.23 C 1.2 km/h
622 26-02-2021 21:00:00 5.475 C 6.12 g/m*3 5.48 C 3.46667 km/h
623 26-02-2021 22:00:00 3.73333 C 5.6 g/m*3 3.73 C 1.33333 km/h
624 26-02-2021 23:00:00 2.55833 C 5.28 g/m*3 2.56 C 0.13333 km/h
625 27-02-2021 00:00:00 1.79167 C 5.1 g/m*3 1.79 C 0.13333 km/h
Sensor: Nr:Datum:Temp:Abs-Feuchte:Windchill:Wind:
Aussen-T/F 626 27-02-2021 01:00:00 1.38333 C 5.01 g/m*3 1.38 C 0.13333 km/h
627 27-02-2021 02:00:00 0.85833 C 4.83 g/m*3 0.86 C 0.13333 km/h
628 27-02-2021 03:00:00 0.46667 C 4.74 g/m*3 0.47 C 0 km/h
629 27-02-2021 04:00:00 0.04167 C 4.62 g/m*3 0.04 C 0.13333 km/h
630 27-02-2021 05:00:00 -0.175 C 4.55 g/m*3 -0.18 C 0 km/h
631 27-02-2021 06:00:00 -0.40833 C 4.47 g/m*3 -0.41 C 0 km/h
632 27-02-2021 07:00:00 -0.19167 C 4.57 g/m*3 -0.19 C 0.26667 km/h
633 27-02-2021 08:00:00 1.25 C 5.08 g/m*3 1.25 C 0.4 km/h
634 27-02-2021 09:00:00 2.35833 C 5.48 g/m*3 2.36 C 0.53333 km/h
635 27-02-2021 10:00:00 3.1 C 5.75 g/m*3 3.1 C 0.66667 km/h
636 27-02-2021 11:00:00 4.31667 C 6.17 g/m*3 4.32 C 1.73333 km/h
637 27-02-2021 12:00:00 6.15 C 6.54 g/m*3 6.15 C 1.86667 km/h
638 27-02-2021 13:00:00 8.29167 C 6.55 g/m*3 7.02 C 7.90833 km/h
639 27-02-2021 14:00:00 9.35833 C 6.43 g/m*3 8.92 C 5.35833 km/h
640 27-02-2021 15:00:00 9.85833 C 6.34 g/m*3 9.38 C 5.74167 km/h
641 27-02-2021 16:00:00 10.59167 C 6.27 g/m*3 10.01 C 6.58333 km/h
642 27-02-2021 17:00:00 10.86667 C 6.57 g/m*3 10.87 C 2.93333 km/h
643 27-02-2021 18:00:00 7.25 C 6.22 g/m*3 7.25 C 4.4 km/h
644 27-02-2021 19:00:00 5.225 C 5.91 g/m*3 5.23 C 4.93333 km/h
645 27-02-2021 20:00:00 4.625 C 5.9 g/m*3 4.63 C 3.88333 km/h
646 27-02-2021 21:00:00 5.84167 C 6.13 g/m*3 5.84 C 3.475 km/h
647 27-02-2021 22:00:00 5.89167 C 6.03 g/m*3 4.78 C 5.9 km/h
648 27-02-2021 23:00:00 5.8 C 5.94 g/m*3 5.8 C 2.66667 km/h
649 28-02-2021 00:00:00 5.825 C 5.86 g/m*3 5.83 C 2.95833 km/h
650 28-02-2021 01:00:00 5.825 C 5.76 g/m*3 4.94 C 5.225 km/h
Sensor: Nr:Datum:Temp:Abs-Feuchte:Windchill:Wind:
Aussen-T/F 651 28-02-2021 02:00:00 5.68333 C 5.69 g/m*3 5.68 C 3.88333 km/h
652 28-02-2021 03:00:00 5.43333 C 5.48 g/m*3 4.54 C 5.09167 km/h
653 28-02-2021 04:00:00 5.06667 C 5.42 g/m*3 5.07 C 1.33333 km/h
654 28-02-2021 05:00:00 4.75833 C 5.39 g/m*3 4.76 C 2.13333 km/h
655 28-02-2021 06:00:00 3.28333 C 5.08 g/m*3 3.28 C 0.66667 km/h
656 28-02-2021 07:00:00 1.58333 C 4.75 g/m*3 1.58 C 0.26667 km/h
657 28-02-2021 08:00:00 1.09167 C 4.76 g/m*3 1.09 C 0.53333 km/h
658 28-02-2021 09:00:00 1.65833 C 4.99 g/m*3 1.66 C 1.73333 km/h
659 28-02-2021 10:00:00 3.55 C 5.45 g/m*3 3.55 C 3.73333 km/h
660 28-02-2021 11:00:00 6.55833 C 5.63 g/m*3 5.77 C 5.23333 km/h
661 28-02-2021 12:00:00 8.34167 C 5.66 g/m*3 8.34 C 4.54167 km/h
662 28-02-2021 13:00:00 9.875 C 5.78 g/m*3 9.88 C 3.6 km/h
663 28-02-2021 14:00:00 11.30833 C 5.49 g/m*3 11.31 C 10.725 km/h
664 28-02-2021 15:00:00 11.63333 C 5.25 g/m*3 11.63 C 9.54167 km/h
665 28-02-2021 16:00:00 12.35 C 5.26 g/m*3 12.35 C 6.575 km/h
666 28-02-2021 17:00:00 12.00833 C 5.87 g/m*3 12.01 C 2.275 km/h
667 28-02-2021 18:00:00 7.725 C 5.58 g/m*3 6.78 C 6.26667 km/h
668 28-02-2021 19:00:00 5.575 C 5.43 g/m*3 4.38 C 6.01667 km/h
669 28-02-2021 20:00:00 4.425 C 5.37 g/m*3 4.43 C 4.26667 km/h
670 28-02-2021 21:00:00 3.14167 C 5.17 g/m*3 3.14 C 0 km/h
671 28-02-2021 22:00:00 2.275 C 5.03 g/m*3 2.28 C 0 km/h
672 28-02-2021 23:00:00 1.24167 C 4.78 g/m*3 1.24 C 0 km/h
673 01-03-2021 00:00:00 0.76667 C 4.7 g/m*3 0.77 C 0 km/h
674 01-03-2021 01:00:00 0.1 C 4.53 g/m*3 0.1 C 0 km/h
675 01-03-2021 02:00:00 -0.25833 C 4.46 g/m*3 -0.26 C 0 km/h
Sensor: Nr:Datum:Temp:Abs-Feuchte:Windchill:Wind:
Aussen-T/F 676 01-03-2021 03:00:00 -0.55833 C 4.38 g/m*3 -0.56 C 0 km/h
677 01-03-2021 04:00:00 -0.9 C 4.29 g/m*3 -0.9 C 0 km/h
678 01-03-2021 05:00:00 -1.275 C 4.2 g/m*3 -1.27 C 0 km/h
679 01-03-2021 06:00:00 -1.475 C 4.15 g/m*3 -1.48 C 0.13333 km/h
680 01-03-2021 07:00:00 -1.71667 C 4.08 g/m*3 -1.72 C 0 km/h
681 01-03-2021 08:00:00 -1.45 C 4.17 g/m*3 -1.45 C 0 km/h
682 01-03-2021 09:00:00 -0.575 C 4.46 g/m*3 -0.57 C 0 km/h
683 01-03-2021 10:00:00 1.31667 C 5.11 g/m*3 1.32 C 2 km/h
684 01-03-2021 11:00:00 3.9 C 6 g/m*3 2.4 C 6.175 km/h
685 01-03-2021 12:00:00 7 C 6.2 g/m*3 6.15 C 5.6 km/h
686 01-03-2021 13:00:00 9.88333 C 6.3 g/m*3 9.4 C 5.75 km/h
687 01-03-2021 14:00:00 11.93333 C 6.09 g/m*3 11.93 C 4.94167 km/h
688 01-03-2021 15:00:00 12.71667 C 6.12 g/m*3 12.72 C 5.89167 km/h
689 01-03-2021 16:00:00 13.74167 C 6.4 g/m*3 13.74 C 6.71667 km/h
690 01-03-2021 17:00:00 13.53333 C 6.85 g/m*3 13.53 C 4.80833 km/h
691 01-03-2021 18:00:00 9.18333 C 6.52 g/m*3 9.18 C 0 km/h
692 01-03-2021 19:00:00 6.8 C 6.16 g/m*3 6.8 C 3.73333 km/h
693 01-03-2021 20:00:00 5.60833 C 5.93 g/m*3 5.61 C 3.46667 km/h
694 01-03-2021 21:00:00 5.14167 C 5.93 g/m*3 5.14 C 4.26667 km/h
695 01-03-2021 22:00:00 4.50833 C 5.86 g/m*3 4.51 C 3.6 km/h
696 01-03-2021 23:00:00 3.26667 C 5.48 g/m*3 3.27 C 0 km/h
697 02-03-2021 00:00:00 2.14167 C 5.18 g/m*3 2.14 C 0 km/h
698 02-03-2021 01:00:00 1.66667 C 5.08 g/m*3 1.67 C 0 km/h
699 02-03-2021 02:00:00 1 C 4.88 g/m*3 1 C 0 km/h
700 02-03-2021 03:00:00 0.325 C 4.66 g/m*3 0.33 C 0 km/h
Sensor: Nr:Datum:Temp:Abs-Feuchte:Windchill:Wind:
Aussen-T/F 701 02-03-2021 04:00:00 0.025 C 4.61 g/m*3 0.03 C 0 km/h
702 02-03-2021 05:00:00 -0.325 C 4.5 g/m*3 -0.33 C 0 km/h
703 02-03-2021 06:00:00 -0.45833 C 4.46 g/m*3 -0.46 C 0 km/h
704 02-03-2021 07:00:00 -0.58333 C 4.43 g/m*3 -0.58 C 0 km/h
705 02-03-2021 08:00:00 -0.83333 C 4.35 g/m*3 -0.83 C 0 km/h
706 02-03-2021 09:00:00 -0.08333 C 4.62 g/m*3 -0.08 C 0 km/h
707 02-03-2021 10:00:00 1.625 C 5.23 g/m*3 1.63 C 0 km/h
708 02-03-2021 11:00:00 5.225 C 6.69 g/m*3 5.23 C 0 km/h
709 02-03-2021 12:00:00 8.925 C 7.96 g/m*3 8.93 C 0 km/h
710 02-03-2021 13:00:00 13.59167 C 8.19 g/m*3 13.59 C 0 km/h
711 02-03-2021 14:00:00 16.175 C 7.49 g/m*3 16.18 C 1.2 km/h
712 02-03-2021 15:00:00 15.58333 C 7.25 g/m*3 15.58 C 2 km/h
713 02-03-2021 16:00:00 15.725 C 7.56 g/m*3 15.73 C 1.86667 km/h
714 02-03-2021 17:00:00 14.525 C 7.54 g/m*3 14.53 C 5.46667 km/h
715 02-03-2021 18:00:00 10.81667 C 6.91 g/m*3 10.27 C 6.575 km/h
716 02-03-2021 19:00:00 8.775 C 6.67 g/m*3 8.78 C 4.93333 km/h
717 02-03-2021 20:00:00 7.50833 C 6.55 g/m*3 6.86 C 5.2 km/h
718 02-03-2021 21:00:00 6.21667 C 6.24 g/m*3 6.22 C 1.86667 km/h
719 02-03-2021 22:00:00 4.79167 C 5.91 g/m*3 4.79 C 0.53333 km/h
720 02-03-2021 23:00:00 3.46667 C 5.52 g/m*3 3.47 C 0 km/h
721 03-03-2021 00:00:00 2.61667 C 5.32 g/m*3 2.62 C 0.13333 km/h
722 03-03-2021 01:00:00 2.05 C 5.19 g/m*3 2.05 C 0 km/h
723 03-03-2021 02:00:00 1.41667 C 5 g/m*3 1.42 C 0 km/h
724 03-03-2021 03:00:00 1.09167 C 4.91 g/m*3 1.09 C 0 km/h
725 03-03-2021 04:00:00 1.24167 C 5.01 g/m*3 1.24 C 0 km/h
Sensor: Nr:Datum:Temp:Abs-Feuchte:Windchill:Wind:
Aussen-T/F 726 03-03-2021 05:00:00 0.89167 C 4.89 g/m*3 0.89 C 0.53333 km/h
727 03-03-2021 06:00:00 0.83333 C 4.88 g/m*3 0.83 C 0 km/h
728 03-03-2021 07:00:00 0.75833 C 4.86 g/m*3 0.76 C 0 km/h
729 03-03-2021 08:00:00 1.54167 C 5.17 g/m*3 1.54 C 0 km/h
730 03-03-2021 09:00:00 2.4 C 5.47 g/m*3 2.4 C 0.4 km/h
731 03-03-2021 10:00:00 3.43333 C 5.83 g/m*3 3.43 C 0 km/h
732 03-03-2021 11:00:00 6.2 C 6.61 g/m*3 6.2 C 0 km/h
733 03-03-2021 12:00:00 10.13333 C 7.19 g/m*3 10.13 C 0 km/h
734 03-03-2021 13:00:00 13.675 C 7.58 g/m*3 13.68 C 0.8 km/h
735 03-03-2021 14:00:00 15.6 C 7.58 g/m*3 15.6 C 1.075 km/h
736 03-03-2021 15:00:00 16.20833 C 7.58 g/m*3 16.21 C 0 km/h
737 03-03-2021 16:00:00 16.59167 C 7.9 g/m*3 16.59 C 0 km/h
738 03-03-2021 17:00:00 14.38333 C 7.98 g/m*3 14.38 C 0 km/h
739 03-03-2021 18:00:00 11.225 C 7.33 g/m*3 11.23 C 0 km/h
740 03-03-2021 19:00:00 9.75 C 7.11 g/m*3 9.75 C 0 km/h
741 03-03-2021 20:00:00 8.625 C 6.91 g/m*3 8.63 C 0 km/h
742 03-03-2021 21:00:00 7.79167 C 6.8 g/m*3 7.79 C 0 km/h
743 03-03-2021 22:00:00 7.88333 C 6.87 g/m*3 7.88 C 0 km/h
744 03-03-2021 23:00:00 7.79167 C 6.88 g/m*3 7.79 C 0 km/h
745 04-03-2021 00:00:00 7.225 C 6.59 g/m*3 7.23 C 0 km/h
746 04-03-2021 01:00:00 6.10833 C 6.44 g/m*3 6.11 C 0 km/h
747 04-03-2021 02:00:00 5.425 C 6.21 g/m*3 5.43 C 0 km/h
748 04-03-2021 03:00:00 4.73333 C 6.04 g/m*3 4.73 C 0.8 km/h
749 04-03-2021 04:00:00 4.40833 C 6 g/m*3 4.41 C 0 km/h
750 04-03-2021 05:00:00 4.68333 C 6.18 g/m*3 4.68 C 0.8 km/h
Sensor: Nr:Datum:Temp:Abs-Feuchte:Windchill:Wind:
Aussen-T/F 751 04-03-2021 06:00:00 4 C 5.85 g/m*3 4 C 0.13333 km/h
752 04-03-2021 07:00:00 3.60833 C 5.79 g/m*3 3.61 C 0.13333 km/h
753 04-03-2021 08:00:00 4.75 C 6.31 g/m*3 4.75 C 0.66667 km/h
754 04-03-2021 09:00:00 6.15833 C 6.75 g/m*3 6.16 C 0.53333 km/h
755 04-03-2021 10:00:00 8.56667 C 7.41 g/m*3 8.57 C 3.34167 km/h
756 04-03-2021 11:00:00 9.725 C 7.67 g/m*3 9.73 C 3.08333 km/h
757 04-03-2021 12:00:00 10.55833 C 8.01 g/m*3 9.6 C 8.325 km/h
758 04-03-2021 13:00:00 11.13333 C 8.18 g/m*3 11.13 C 2.94167 km/h
759 04-03-2021 14:00:00 11.23333 C 8.2 g/m*3 11.23 C 3.73333 km/h
760 04-03-2021 15:00:00 9.975 C 8.13 g/m*3 9.37 C 6.3 km/h
761 04-03-2021 16:00:00 8.74167 C 8 g/m*3 8.74 C 0 km/h
762 04-03-2021 17:00:00 8 C 7.63 g/m*3 5.99 C 11.40833 km/h
763 04-03-2021 18:00:00 6.575 C 6.98 g/m*3 5.07 C 7.65 km/h
764 04-03-2021 19:00:00 5.2 C 6.4 g/m*3 3.73 C 6.70833 km/h
765 04-03-2021 20:00:00 4.175 C 5.94 g/m*3 1.94 C 8.88333 km/h
766 04-03-2021 21:00:00 4.06667 C 5.94 g/m*3 1.88 C 8.6 km/h
767 04-03-2021 22:00:00 4.13333 C 5.97 g/m*3 2.58 C 6.425 km/h
768 04-03-2021 23:00:00 4.2 C 5.99 g/m*3 4.2 C 4.80833 km/h
769 05-03-2021 00:00:00 4.15 C 5.99 g/m*3 4.15 C 0.13333 km/h
770 05-03-2021 01:00:00 4.1 C 6.02 g/m*3 4.1 C 0.66667 km/h
771 05-03-2021 02:00:00 4.15833 C 5.99 g/m*3 2.48 C 6.85 km/h
772 05-03-2021 03:00:00 3.96667 C 5.7 g/m*3 2.48 C 6.15833 km/h
773 05-03-2021 04:00:00 3.625 C 5.44 g/m*3 1.9 C 6.70833 km/h
774 05-03-2021 05:00:00 3.25 C 5.34 g/m*3 3.25 C 2.40833 km/h
775 05-03-2021 06:00:00 3.10833 C 5.39 g/m*3 3.11 C 1.2 km/h
Sensor: Nr:Datum:Temp:Abs-Feuchte:Windchill:Wind:
Aussen-T/F 776 05-03-2021 07:00:00 3.2 C 5.44 g/m*3 3.2 C 3.74167 km/h
777 05-03-2021 08:00:00 3.38333 C 5.55 g/m*3 3.38 C 1.86667 km/h
778 05-03-2021 09:00:00 3.95833 C 5.57 g/m*3 2.75 C 5.375 km/h
779 05-03-2021 10:00:00 4.54167 C 5.36 g/m*3 1.89 C 11.01667 km/h
780 05-03-2021 11:00:00 5.21667 C 5.07 g/m*3 2.38 C 12.76667 km/h
781 05-03-2021 12:00:00 5.95833 C 4.76 g/m*3 3.9 C 9.55 km/h
782 05-03-2021 13:00:00 6.625 C 4.51 g/m*3 4.58 C 10.1 km/h
783 05-03-2021 14:00:00 6.575 C 4.31 g/m*3 4.15 C 12.08333 km/h
784 05-03-2021 15:00:00 6.44167 C 4.13 g/m*3 3.83 C 13.03333 km/h
785 05-03-2021 16:00:00 6.28333 C 4.18 g/m*3 3.75 C 12.35833 km/h
786 05-03-2021 17:00:00 5.85833 C 4.45 g/m*3 3.64 C 10.225 km/h
787 05-03-2021 18:00:00 5.15 C 4.68 g/m*3 5.15 C 1.73333 km/h
788 05-03-2021 19:00:00 2.61667 C 4.4 g/m*3 2.62 C 0 km/h
789 05-03-2021 20:00:00 0.86667 C 4.26 g/m*3 0.87 C 3.73333 km/h
790 05-03-2021 21:00:00 -0.15 C 4.12 g/m*3 -0.15 C 1.06667 km/h
791 05-03-2021 22:00:00 -0.78333 C 4.04 g/m*3 -0.78 C 0 km/h
792 05-03-2021 23:00:00 -1.49167 C 3.89 g/m*3 -1.49 C 0 km/h
793 06-03-2021 00:00:00 -2.06667 C 3.78 g/m*3 -2.07 C 0 km/h
794 06-03-2021 01:00:00 -2.60833 C 3.64 g/m*3 -2.61 C 0 km/h
795 06-03-2021 02:00:00 -2.91667 C 3.6 g/m*3 -2.92 C 0 km/h
796 06-03-2021 03:00:00 -3.34167 C 3.51 g/m*3 -3.34 C 0 km/h
797 06-03-2021 04:00:00 -3.64167 C 3.45 g/m*3 -3.64 C 0 km/h
798 06-03-2021 05:00:00 -4.00833 C 3.4 g/m*3 -4.01 C 0 km/h
799 06-03-2021 06:00:00 -4.29167 C 3.33 g/m*3 -4.29 C 0 km/h
800 06-03-2021 07:00:00 -4.325 C 3.34 g/m*3 -4.33 C 0 km/h
Sensor: Nr:Datum:Temp:Abs-Feuchte:Windchill:Wind:
Aussen-T/F 801 06-03-2021 08:00:00 -4.05 C 3.43 g/m*3 -4.05 C 0 km/h
802 06-03-2021 09:00:00 -3.06667 C 3.7 g/m*3 -3.07 C 0 km/h
803 06-03-2021 10:00:00 -1.23333 C 4.23 g/m*3 -1.23 C 0.13333 km/h
804 06-03-2021 11:00:00 1.91667 C 4.82 g/m*3 1.92 C 0.93333 km/h
805 06-03-2021 12:00:00 5.55833 C 4.32 g/m*3 3.92 C 7.50833 km/h
806 06-03-2021 13:00:00 7.06667 C 3.33 g/m*3 5.25 C 9.40833 km/h
807 06-03-2021 14:00:00 7.58333 C 3.21 g/m*3 6.22 C 7.78333 km/h
808 06-03-2021 15:00:00 7.68333 C 3.17 g/m*3 6.04 C 9.14167 km/h
809 06-03-2021 16:00:00 8.26667 C 3.31 g/m*3 7.18 C 7.11667 km/h
810 06-03-2021 17:00:00 8.73333 C 3.9 g/m*3 8.73 C 4.68333 km/h
811 06-03-2021 18:00:00 4.44167 C 3.94 g/m*3 4.44 C 4.13333 km/h
812 06-03-2021 19:00:00 1.85833 C 3.8 g/m*3 1.86 C 4.4 km/h
813 06-03-2021 20:00:00 0.64167 C 3.85 g/m*3 0.64 C 3.33333 km/h
814 06-03-2021 21:00:00 -0.54167 C 3.79 g/m*3 -0.54 C 0 km/h
815 06-03-2021 22:00:00 -1.58333 C 3.6 g/m*3 -1.58 C 0 km/h
816 06-03-2021 23:00:00 -2.28333 C 3.51 g/m*3 -2.28 C 0 km/h
817 07-03-2021 00:00:00 -2.725 C 3.47 g/m*3 -2.73 C 0 km/h
818 07-03-2021 01:00:00 -3.34167 C 3.37 g/m*3 -3.34 C 0 km/h
819 07-03-2021 02:00:00 -3.74167 C 3.32 g/m*3 -3.74 C 0 km/h
820 07-03-2021 03:00:00 -3.95 C 3.3 g/m*3 -3.95 C 0 km/h
821 07-03-2021 04:00:00 -4.24167 C 3.25 g/m*3 -4.24 C 0 km/h
822 07-03-2021 05:00:00 -4.85 C 3.15 g/m*3 -4.85 C 0 km/h
823 07-03-2021 06:00:00 -4.91667 C 3.15 g/m*3 -4.92 C 0 km/h
824 07-03-2021 07:00:00 -5.05 C 3.14 g/m*3 -5.05 C 0 km/h
825 07-03-2021 08:00:00 -4.66667 C 3.24 g/m*3 -4.67 C 0 km/h
Sensor: Nr:Datum:Temp:Abs-Feuchte:Windchill:Wind:
Aussen-T/F 826 07-03-2021 09:00:00 -3.975 C 3.42 g/m*3 -3.98 C 0 km/h
827 07-03-2021 10:00:00 -2.175 C 3.9 g/m*3 -2.17 C 0 km/h
828 07-03-2021 11:00:00 1.26667 C 4.56 g/m*3 1.27 C 0 km/h
829 07-03-2021 12:00:00 5.475 C 4.62 g/m*3 5.48 C 0.26667 km/h
830 07-03-2021 13:00:00 7.575 C 3.85 g/m*3 7.58 C 3.06667 km/h
831 07-03-2021 14:00:00 8.60833 C 3.67 g/m*3 7.3 C 8.34167 km/h
832 07-03-2021 15:00:00 8.38333 C 3.75 g/m*3 6.81 C 9.40833 km/h
833 07-03-2021 16:00:00 8.65833 C 3.8 g/m*3 6.87 C 10.9 km/h
834 07-03-2021 17:00:00 8.525 C 3.76 g/m*3 7.2 C 8.34167 km/h
835 07-03-2021 18:00:00 6.3 C 4.02 g/m*3 4.93 C 6.975 km/h
836 07-03-2021 19:00:00 4.8 C 4.32 g/m*3 3.07 C 7.39167 km/h
837 07-03-2021 20:00:00 3.11667 C 4.22 g/m*3 3.12 C 4.41667 km/h
838 07-03-2021 21:00:00 0.86667 C 4.15 g/m*3 -0.64 C 5.06667 km/h
839 07-03-2021 22:00:00 -0.38333 C 3.97 g/m*3 -0.38 C 1.2 km/h
840 07-03-2021 23:00:00 -1.1 C 3.89 g/m*3 -1.1 C 0 km/h
841 08-03-2021 00:00:00 -1.91667 C 3.75 g/m*3 -1.92 C 0 km/h
842 08-03-2021 01:00:00 -2.53333 C 3.65 g/m*3 -2.53 C 0 km/h
843 08-03-2021 02:00:00 -2.89167 C 3.6 g/m*3 -2.89 C 0 km/h
844 08-03-2021 03:00:00 -3.11667 C 3.57 g/m*3 -3.12 C 0 km/h
845 08-03-2021 04:00:00 -2.98333 C 3.63 g/m*3 -2.98 C 0.66667 km/h
846 08-03-2021 05:00:00 -2.91667 C 3.65 g/m*3 -2.92 C 0.26667 km/h
847 08-03-2021 06:00:00 -3.46667 C 3.51 g/m*3 -3.47 C 0.26667 km/h
848 08-03-2021 07:00:00 -3.56667 C 3.51 g/m*3 -3.57 C 0.53333 km/h
849 08-03-2021 08:00:00 -2.43333 C 3.84 g/m*3 -2.43 C 1.06667 km/h
850 08-03-2021 09:00:00 -0.69167 C 4.23 g/m*3 -0.69 C 1.6 km/h
Sensor: Nr:Datum:Temp:Abs-Feuchte:Windchill:Wind:
Aussen-T/F 851 08-03-2021 10:00:00 1.275 C 4.59 g/m*3 1.27 C 0.4 km/h
852 08-03-2021 11:00:00 3.55 C 4.99 g/m*3 3.55 C 1.73333 km/h
853 08-03-2021 12:00:00 5.03333 C 5.27 g/m*3 5.03 C 2.94167 km/h
854 08-03-2021 13:00:00 5.53333 C 5.39 g/m*3 5.53 C 2.93333 km/h
855 08-03-2021 14:00:00 5.91667 C 5.47 g/m*3 5.92 C 3.60833 km/h
856 08-03-2021 15:00:00 6.15 C 5.51 g/m*3 6.15 C 3.34167 km/h
857 08-03-2021 16:00:00 6.39167 C 5.55 g/m*3 6.39 C 0.93333 km/h
858 08-03-2021 17:00:00 6.28333 C 5.64 g/m*3 6.28 C 3.06667 km/h
859 08-03-2021 18:00:00 5.31667 C 5.44 g/m*3 5.32 C 2.26667 km/h
860 08-03-2021 19:00:00 3.04167 C 5.1 g/m*3 3.04 C 4.66667 km/h
861 08-03-2021 20:00:00 1.76667 C 4.87 g/m*3 1.77 C 2.8 km/h
862 08-03-2021 21:00:00 0.79167 C 4.66 g/m*3 0.79 C 0 km/h
863 08-03-2021 22:00:00 0.24167 C 4.57 g/m*3 0.24 C 0 km/h
864 08-03-2021 23:00:00 0.33333 C 4.65 g/m*3 0.33 C 0 km/h
865 09-03-2021 00:00:00 0.34167 C 4.66 g/m*3 0.34 C 0 km/h
866 09-03-2021 01:00:00 0.54167 C 4.74 g/m*3 0.54 C 0.26667 km/h
867 09-03-2021 02:00:00 0.5 C 4.73 g/m*3 0.5 C 0 km/h
868 09-03-2021 03:00:00 0.21667 C 4.62 g/m*3 0.22 C 0 km/h
869 09-03-2021 04:00:00 0.15833 C 4.65 g/m*3 0.16 C 0 km/h
870 09-03-2021 05:00:00 0.1 C 4.63 g/m*3 0.1 C 0.53333 km/h
871 09-03-2021 06:00:00 0.1 C 4.63 g/m*3 0.1 C 0 km/h
872 09-03-2021 07:00:00 -0.06667 C 4.58 g/m*3 -0.07 C 0 km/h
873 09-03-2021 08:00:00 0.41667 C 4.77 g/m*3 0.42 C 0.8 km/h
874 09-03-2021 09:00:00 1.88333 C 5.25 g/m*3 1.88 C 3.6 km/h
875 09-03-2021 10:00:00 3.86667 C 5.69 g/m*3 3.87 C 4.94167 km/h
Sensor: Nr:Datum:Temp:Abs-Feuchte:Windchill:Wind:
Aussen-T/F 876 09-03-2021 11:00:00 5.575 C 5.69 g/m*3 3.16 C 10.89167 km/h
877 09-03-2021 12:00:00 5.69167 C 5.85 g/m*3 3.28 C 11.025 km/h
878 09-03-2021 13:00:00 5.45 C 6.1 g/m*3 3.23 C 9.825 km/h
879 09-03-2021 14:00:00 5.49167 C 6.28 g/m*3 3.28 C 9.83333 km/h
880 09-03-2021 15:00:00 5.38333 C 6.25 g/m*3 3.5 C 8.33333 km/h
881 09-03-2021 16:00:00 5.36667 C 6.2 g/m*3 3.62 C 7.78333 km/h
882 09-03-2021 17:00:00 5.53333 C 6.32 g/m*3 5.53 C 3.2 km/h
883 09-03-2021 18:00:00 5.125 C 6.31 g/m*3 5.13 C 1.6 km/h
884 09-03-2021 19:00:00 4.90833 C 6.34 g/m*3 4.91 C 1.2 km/h
885 09-03-2021 20:00:00 4.74167 C 6.29 g/m*3 4.74 C 0.66667 km/h
886 09-03-2021 21:00:00 4.7 C 6.33 g/m*3 4.7 C 0.66667 km/h
887 09-03-2021 22:00:00 4.5 C 6.24 g/m*3 4.5 C 0.53333 km/h
888 09-03-2021 23:00:00 4.325 C 6.17 g/m*3 4.33 C 1.33333 km/h
889 10-03-2021 00:00:00 4.225 C 6.15 g/m*3 4.22 C 0.93333 km/h
890 10-03-2021 01:00:00 3.94167 C 6.04 g/m*3 3.94 C 1.06667 km/h
891 10-03-2021 02:00:00 3.8 C 6.02 g/m*3 3.8 C 1.06667 km/h
892 10-03-2021 03:00:00 3.78333 C 6.02 g/m*3 3.78 C 0.8 km/h
893 10-03-2021 04:00:00 3.75833 C 6.01 g/m*3 3.76 C 1.33333 km/h
894 10-03-2021 05:00:00 3.68333 C 5.98 g/m*3 3.68 C 1.6 km/h
895 10-03-2021 06:00:00 3.60833 C 5.9 g/m*3 3.61 C 0.26667 km/h
896 10-03-2021 07:00:00 3.7 C 5.96 g/m*3 3.7 C 4.01667 km/h
897 10-03-2021 08:00:00 4.25833 C 6.17 g/m*3 4.26 C 4.13333 km/h
898 10-03-2021 09:00:00 5.21667 C 6.51 g/m*3 5.22 C 3.34167 km/h
899 10-03-2021 10:00:00 6.59167 C 6.83 g/m*3 5.58 C 5.9 km/h
900 10-03-2021 11:00:00 6.95 C 6.87 g/m*3 6 C 5.89167 km/h
Sensor: Nr:Datum:Temp:Abs-Feuchte:Windchill:Wind:
Aussen-T/F 901 10-03-2021 12:00:00 7.73333 C 7.08 g/m*3 6.04 C 9.41667 km/h
902 10-03-2021 13:00:00 9.18333 C 7.28 g/m*3 7.27 C 12.36667 km/h
903 10-03-2021 14:00:00 10.675 C 6.99 g/m*3 8.84 C 14.23333 km/h
904 10-03-2021 15:00:00 11.18333 C 6.48 g/m*3 11.18 C 10.33333 km/h
905 10-03-2021 16:00:00 11.05 C 6.42 g/m*3 11.05 C 3.075 km/h
906 10-03-2021 17:00:00 10.46667 C 6.4 g/m*3 10.47 C 2.00833 km/h
907 10-03-2021 18:00:00 9.43333 C 6.4 g/m*3 9.43 C 1.34167 km/h
908 10-03-2021 19:00:00 8.775 C 6.34 g/m*3 8.78 C 0.26667 km/h
909 10-03-2021 20:00:00 7.98333 C 6.43 g/m*3 7.98 C 0 km/h
910 10-03-2021 21:00:00 7.88333 C 6.37 g/m*3 7.88 C 1.46667 km/h
911 10-03-2021 22:00:00 8.55833 C 6.16 g/m*3 8.56 C 4.56667 km/h
912 10-03-2021 23:00:00 7.79167 C 6.76 g/m*3 6.67 C 6.96667 km/h
913 11-03-2021 00:00:00 6.475 C 6.79 g/m*3 6.48 C 2.8 km/h
914 11-03-2021 01:00:00 6.33333 C 6.82 g/m*3 6.33 C 4.40833 km/h
915 11-03-2021 02:00:00 6.90833 C 6.81 g/m*3 5.01 C 9.66667 km/h
916 11-03-2021 03:00:00 7.85 C 6.72 g/m*3 6.21 C 9.26667 km/h
917 11-03-2021 04:00:00 8.2 C 6.87 g/m*3 5.54 C 16.23333 km/h
918 11-03-2021 05:00:00 8.325 C 7.08 g/m*3 5.08 C 21.85833 km/h
919 11-03-2021 06:00:00 8.26667 C 7.31 g/m*3 5.69 C 15.7 km/h
920 11-03-2021 07:00:00 8.88333 C 7.56 g/m*3 6.43 C 15.83333 km/h
921 11-03-2021 08:00:00 9.725 C 7.89 g/m*3 7.01 C 20.24167 km/h
922 11-03-2021 09:00:00 10.64167 C 8.19 g/m*3 8.33 C 18.50833 km/h
923 11-03-2021 10:00:00 11.64167 C 8.56 g/m*3 11.64 C 21.04167 km/h
924 11-03-2021 11:00:00 11.58333 C 9.03 g/m*3 11.58 C 13.81667 km/h
925 11-03-2021 12:00:00 10.86667 C 9.12 g/m*3 8.84 C 16.23333 km/h
Sensor: Nr:Datum:Temp:Abs-Feuchte:Windchill:Wind:
Aussen-T/F 926 11-03-2021 13:00:00 12.65833 C 9.49 g/m*3 12.66 C 18.1 km/h
927 11-03-2021 14:00:00 10.30833 C 8.42 g/m*3 7.86 C 19.05833 km/h
928 11-03-2021 15:00:00 9.85 C 8.19 g/m*3 7.31 C 18.775 km/h
929 11-03-2021 16:00:00 12.15 C 8.22 g/m*3 12.15 C 18.11667 km/h
930 11-03-2021 17:00:00 11.11818 C 7.6 g/m*3 11.12 C 18.00909 km/h
931 11-03-2021 18:00:00 9.74167 C 7.16 g/m*3 7.76 C 13.7 km/h
932 11-03-2021 19:00:00 8.68333 C 6.67 g/m*3 6.3 C 14.9 km/h
933 11-03-2021 20:00:00 8.38333 C 6.57 g/m*3 5.26 C 20.775 km/h
934 11-03-2021 21:00:00 8.05833 C 6.55 g/m*3 5.66 C 13.96667 km/h
935 11-03-2021 22:00:00 7.825 C 6.42 g/m*3 5.46 C 13.43333 km/h
936 11-03-2021 23:00:00 6.55833 C 6.37 g/m*3 3.14 C 19.05 km/h
937 12-03-2021 00:00:00 5.13333 C 6.23 g/m*3 2.66 C 10.75 km/h
938 12-03-2021 01:00:00 5.275 C 6.3 g/m*3 3.38 C 8.31667 km/h
939 12-03-2021 02:00:00 5.925 C 5.93 g/m*3 2.71 C 16.23333 km/h
940 12-03-2021 03:00:00 5.39167 C 5.8 g/m*3 2.35 C 14.23333 km/h
941 12-03-2021 04:00:00 5.33333 C 5.77 g/m*3 2.82 C 11.15 km/h
942 12-03-2021 05:00:00 5.65 C 5.85 g/m*3 2.61 C 14.63333 km/h
943 12-03-2021 06:00:00 5.35 C 5.81 g/m*3 2.5 C 13.03333 km/h
944 12-03-2021 07:00:00 5.56667 C 5.95 g/m*3 2.79 C 12.88333 km/h
945 12-03-2021 08:00:00 6.41667 C 6.08 g/m*3 3.15 C 17.56667 km/h
946 12-03-2021 09:00:00 7.05 C 6.45 g/m*3 4.04 C 16.76667 km/h
947 12-03-2021 10:00:00 8.04167 C 6.51 g/m*3 5.02 C 18.90833 km/h
948 12-03-2021 11:00:00 8.31667 C 6.4 g/m*3 5.34 C 19.16667 km/h
949 12-03-2021 12:00:00 8.98333 C 6.55 g/m*3 6.04 C 20.50833 km/h
950 12-03-2021 13:00:00 9.96667 C 6.31 g/m*3 7.58 C 17.56667 km/h
Sensor: Nr:Datum:Temp:Abs-Feuchte:Windchill:Wind:
Aussen-T/F 951 12-03-2021 14:00:00 10.36667 C 6.36 g/m*3 8.05 C 17.83333 km/h
952 12-03-2021 15:00:00 10.775 C 6.06 g/m*3 8.43 C 19.16667 km/h
953 12-03-2021 16:00:00 11.10833 C 6.13 g/m*3 11.11 C 19.975 km/h
954 12-03-2021 17:00:00 10.3 C 6.14 g/m*3 7.62 C 21.44167 km/h
955 12-03-2021 18:00:00 9.35 C 6.53 g/m*3 6.07 C 25.46667 km/h
956 12-03-2021 19:00:00 7.55833 C 6.73 g/m*3 4.42 C 18.91667 km/h
957 12-03-2021 20:00:00 7.05 C 6.41 g/m*3 4 C 17.03333 km/h
958 12-03-2021 21:00:00 6.63333 C 6.24 g/m*3 3.24 C 19.03333 km/h
959 12-03-2021 22:00:00 6.59167 C 6.31 g/m*3 2.9 C 21.56667 km/h
960 12-03-2021 23:00:00 6.425 C 6.36 g/m*3 2.9 C 19.7 km/h
961 13-03-2021 00:00:00 6.79167 C 6.45 g/m*3 3.7 C 16.9 km/h
962 13-03-2021 01:00:00 6.95833 C 6.57 g/m*3 4.16 C 15.03333 km/h
963 13-03-2021 02:00:00 7.2 C 6.67 g/m*3 4.69 C 13.43333 km/h
964 13-03-2021 03:00:00 7.19167 C 6.64 g/m*3 5.43 C 9.26667 km/h
965 13-03-2021 04:00:00 7.15 C 6.72 g/m*3 5.19 C 10.19167 km/h
966 13-03-2021 05:00:00 7.65833 C 6.87 g/m*3 5.44 C 12.23333 km/h
967 13-03-2021 06:00:00 8.23333 C 7.01 g/m*3 5.92 C 13.7 km/h
968 13-03-2021 07:00:00 8.66667 C 7.04 g/m*3 5.74 C 19.575 km/h
969 13-03-2021 08:00:00 8.325 C 7.23 g/m*3 5.31 C 19.58333 km/h
970 13-03-2021 09:00:00 8.48333 C 7.43 g/m*3 5.4 C 20.65 km/h
971 13-03-2021 10:00:00 8.1 C 7.32 g/m*3 4.55 C 24.39167 km/h
972 13-03-2021 11:00:00 6.39167 C 6.58 g/m*3 3.12 C 17.575 km/h
973 13-03-2021 12:00:00 6.98333 C 6.66 g/m*3 3.89 C 17.3 km/h
974 13-03-2021 13:00:00 8.48333 C 6.95 g/m*3 5.71 C 17.7 km/h
975 13-03-2021 14:00:00 9.24167 C 7.05 g/m*3 6.4 C 20.23333 km/h
Sensor: Nr:Datum:Temp:Abs-Feuchte:Windchill:Wind:
Aussen-T/F 976 13-03-2021 15:00:00 9.775 C 6.65 g/m*3 6.94 C 21.59167 km/h
977 13-03-2021 16:00:00 7.80833 C 6.41 g/m*3 4.29 C 23.20833 km/h
978 13-03-2021 17:00:00 8.675 C 6.34 g/m*3 5.92 C 17.96667 km/h
979 13-03-2021 18:00:00 5.69167 C 6.08 g/m*3 3.01 C 12.475 km/h
980 13-03-2021 19:00:00 5.45833 C 5.98 g/m*3 2.17 C 15.95833 km/h
981 13-03-2021 20:00:00 5.875 C 5.79 g/m*3 3.05 C 13.56667 km/h
982 13-03-2021 21:00:00 5.65 C 5.76 g/m*3 3.31 C 10.625 km/h
983 13-03-2021 22:00:00 5.05 C 5.66 g/m*3 2.61 C 10.49167 km/h
984 13-03-2021 23:00:00 5.06667 C 5.7 g/m*3 3.17 C 8.18333 km/h
985 14-03-2021 00:00:00 4.81667 C 5.69 g/m*3 2.74 C 8.71667 km/h
986 14-03-2021 01:00:00 4.40833 C 5.71 g/m*3 3.32 C 5.225 km/h
987 14-03-2021 02:00:00 3.91667 C 5.82 g/m*3 1.31 C 10.225 km/h
988 14-03-2021 03:00:00 3.80833 C 5.82 g/m*3 1.51 C 8.86667 km/h
989 14-03-2021 04:00:00 3.74167 C 5.71 g/m*3 0.66 C 12.36667 km/h
990 14-03-2021 05:00:00 3.63333 C 5.58 g/m*3 0.4 C 13.03333 km/h
991 14-03-2021 06:00:00 3.66667 C 5.43 g/m*3 0.08 C 15.16667 km/h
992 14-03-2021 07:00:00 4.1 C 5.48 g/m*3 0.9 C 13.43333 km/h
993 14-03-2021 08:00:00 4.90833 C 5.67 g/m*3 1.94 C 13.16667 km/h
994 14-03-2021 09:00:00 5.74167 C 5.86 g/m*3 2.87 C 13.7 km/h
995 14-03-2021 10:00:00 6.25 C 5.99 g/m*3 3.64 C 12.75833 km/h
996 14-03-2021 11:00:00 6.38333 C 6.09 g/m*3 3.72 C 13.29167 km/h
997 14-03-2021 12:00:00 7.125 C 6.24 g/m*3 4.24 C 15.96667 km/h
998 14-03-2021 13:00:00 7.30833 C 6.39 g/m*3 4.78 C 13.7 km/h
999 14-03-2021 14:00:00 6.66667 C 6.48 g/m*3 5.47 C 6.56667 km/h
1000 14-03-2021 15:00:00 7.30833 C 7.03 g/m*3 7.31 C 3.75 km/h
Sensor: Nr:Datum:Temp:Abs-Feuchte:Windchill:Wind:
Aussen-T/F 1001 14-03-2021 16:00:00 7.19167 C 6.64 g/m*3 5.57 C 8.58333 km/h
1002 14-03-2021 17:00:00 7.65 C 7 g/m*3 7.06 C 5.08333 km/h
1003 14-03-2021 18:00:00 5.81667 C 6.44 g/m*3 4.84 C 5.46667 km/h
1004 14-03-2021 19:00:00 4.575 C 6.01 g/m*3 3.32 C 5.75 km/h
1005 14-03-2021 20:00:00 4.19167 C 5.95 g/m*3 4.19 C 4.275 km/h
1006 14-03-2021 21:00:00 4.30833 C 6.02 g/m*3 3.11 C 5.48333 km/h
1007 14-03-2021 22:00:00 4.65833 C 6.03 g/m*3 2.86 C 7.51667 km/h
1008 14-03-2021 23:00:00 4.70833 C 5.95 g/m*3 1.91 C 11.95833 km/h
1009 15-03-2021 00:00:00 4.025 C 5.74 g/m*3 1.97 C 8.05833 km/h
1010 15-03-2021 01:00:00 4.375 C 5.89 g/m*3 1.81 C 10.48333 km/h
1011 15-03-2021 02:00:00 4.90833 C 6.04 g/m*3 3.39 C 6.71667 km/h
1012 15-03-2021 03:00:00 4.76667 C 6.14 g/m*3 4.77 C 2.675 km/h
1013 15-03-2021 04:00:00 5.01667 C 6.3 g/m*3 2.07 C 13.15 km/h
1014 15-03-2021 05:00:00 5.08333 C 6.33 g/m*3 2.34 C 12.1 km/h
1015 15-03-2021 06:00:00 4.58333 C 6.21 g/m*3 2.17 C 9.95833 km/h
1016 15-03-2021 07:00:00 4.5 C 6.18 g/m*3 2.42 C 8.48333 km/h
1017 15-03-2021 08:00:00 4.85833 C 6.38 g/m*3 3.51 C 6.15833 km/h
1018 15-03-2021 09:00:00 5.55 C 6.58 g/m*3 3.77 C 8.05 km/h
1019 15-03-2021 10:00:00 6.3 C 6.71 g/m*3 4.14 C 10.36667 km/h
1020 15-03-2021 11:00:00 7.08333 C 6.67 g/m*3 4.74 C 12.225 km/h
1021 15-03-2021 12:00:00 7.475 C 6.57 g/m*3 5.05 C 13.28333 km/h
1022 15-03-2021 13:00:00 8.35833 C 6.44 g/m*3 5.26 C 20.39167 km/h
1023 15-03-2021 14:00:00 6.56667 C 6.52 g/m*3 4.63 C 9.525 km/h
1024 15-03-2021 15:00:00 8.25833 C 6.64 g/m*3 5.59 C 16.36667 km/h
1025 15-03-2021 16:00:00 9.23333 C 6.62 g/m*3 6.62 C 17.96667 km/h
Sensor: Nr:Datum:Temp:Abs-Feuchte:Windchill:Wind:
Aussen-T/F 1026 15-03-2021 17:00:00 8.60833 C 6.17 g/m*3 5.95 C 17.03333 km/h
1027 15-03-2021 18:00:00 6.24167 C 6.38 g/m*3 4.02 C 10.6 km/h
1028 15-03-2021 19:00:00 5.65833 C 6.39 g/m*3 3.37 C 10.34167 km/h
1029 15-03-2021 20:00:00 5.575 C 6.39 g/m*3 3.76 C 8.19167 km/h
1030 15-03-2021 21:00:00 5.35 C 6.28 g/m*3 2.87 C 11.00833 km/h
1031 15-03-2021 22:00:00 5.31667 C 6.19 g/m*3 2.72 C 11.55833 km/h
1032 15-03-2021 23:00:00 4.71667 C 5.94 g/m*3 2.65 C 8.6 km/h
1033 16-03-2021 00:00:00 5.13333 C 6.08 g/m*3 2.53 C 11.425 km/h
1034 16-03-2021 01:00:00 5.26667 C 6.03 g/m*3 2.33 C 13.43333 km/h
1035 16-03-2021 02:00:00 4.575 C 5.93 g/m*3 3.47 C 5.35 km/h
1036 16-03-2021 03:00:00 4.30833 C 6.01 g/m*3 4.31 C 4.94167 km/h
1037 16-03-2021 04:00:00 4.66667 C 6.09 g/m*3 2.3 C 9.80833 km/h
1038 16-03-2021 05:00:00 4.575 C 6.01 g/m*3 4.58 C 4.55 km/h
1039 16-03-2021 06:00:00 4.45 C 6.06 g/m*3 4.45 C 3.86667 km/h
1040 16-03-2021 07:00:00 4.76667 C 6.07 g/m*3 2.99 C 7.51667 km/h
1041 16-03-2021 08:00:00 5.3 C 6.2 g/m*3 3.37 C 8.475 km/h
1042 16-03-2021 09:00:00 5.625 C 6.27 g/m*3 3.39 C 10.06667 km/h
1043 16-03-2021 10:00:00 6.71667 C 6.24 g/m*3 4.12 C 13.3 km/h
1044 16-03-2021 11:00:00 6.4 C 6.46 g/m*3 4.7 C 8.30833 km/h
1045 16-03-2021 12:00:00 6.54167 C 6.59 g/m*3 4.62 C 9.43333 km/h
1046 16-03-2021 13:00:00 8.2 C 6.64 g/m*3 6.3 C 11.025 km/h
1047 16-03-2021 14:00:00 7.75833 C 6.44 g/m*3 5.65 C 11.69167 km/h
1048 16-03-2021 15:00:00 8.13333 C 6.33 g/m*3 6.36 C 10.20833 km/h
1049 16-03-2021 16:00:00 7.28333 C 6.3 g/m*3 5.97 C 7.35833 km/h
1050 16-03-2021 17:00:00 6.65 C 6.48 g/m*3 6.65 C 2.13333 km/h
Sensor: Nr:Datum:Temp:Abs-Feuchte:Windchill:Wind:
Aussen-T/F 1051 16-03-2021 18:00:00 6.70833 C 6.15 g/m*3 6.71 C 3.34167 km/h
1052 16-03-2021 19:00:00 6.16667 C 6.05 g/m*3 6.17 C 2.68333 km/h
1053 16-03-2021 20:00:00 5.73333 C 6.06 g/m*3 5.73 C 3.46667 km/h
1054 16-03-2021 21:00:00 5.64167 C 6.1 g/m*3 5.64 C 1.06667 km/h
1055 16-03-2021 22:00:00 5.38333 C 6.11 g/m*3 5.38 C 1.33333 km/h
1056 16-03-2021 23:00:00 5.18333 C 6.16 g/m*3 5.18 C 0.66667 km/h
1057 17-03-2021 00:00:00 4.91667 C 6.22 g/m*3 4.92 C 0.53333 km/h
1058 17-03-2021 01:00:00 4.8 C 6.24 g/m*3 4.8 C 0 km/h
1059 17-03-2021 02:00:00 4.7 C 6.26 g/m*3 4.7 C 2.15 km/h
1060 17-03-2021 03:00:00 4.60833 C 6.22 g/m*3 4.61 C 1.86667 km/h
1061 17-03-2021 04:00:00 4.31667 C 6.11 g/m*3 4.32 C 1.86667 km/h
1062 17-03-2021 05:00:00 4.29167 C 6.16 g/m*3 4.29 C 1.2 km/h
1063 17-03-2021 06:00:00 4.325 C 6.17 g/m*3 4.33 C 0.53333 km/h
1064 17-03-2021 07:00:00 4.4 C 6.19 g/m*3 3.21 C 5.49167 km/h
1065 17-03-2021 08:00:00 4.39167 C 6.13 g/m*3 2.41 C 8.04167 km/h
1066 17-03-2021 09:00:00 4.40833 C 6.08 g/m*3 2.28 C 8.6 km/h
1067 17-03-2021 10:00:00 4.875 C 6.27 g/m*3 3.48 C 6.29167 km/h
1068 17-03-2021 11:00:00 5.55 C 6.38 g/m*3 3.45 C 9.38333 km/h
1069 17-03-2021 12:00:00 6.61667 C 6.1 g/m*3 3.84 C 14.35 km/h
1070 17-03-2021 13:00:00 6.075 C 5.71 g/m*3 3.13 C 14.63333 km/h
1071 17-03-2021 14:00:00 6.64167 C 5.41 g/m*3 3.97 C 13.7 km/h
1072 17-03-2021 15:00:00 5.675 C 5.46 g/m*3 3.21 C 11.28333 km/h
1073 17-03-2021 16:00:00 6.16667 C 5.07 g/m*3 3.52 C 12.89167 km/h
1074 17-03-2021 17:00:00 6.06667 C 4.84 g/m*3 3.73 C 11.03333 km/h
1075 17-03-2021 18:00:00 5.73333 C 4.87 g/m*3 4.27 C 6.975 km/h
Sensor: Nr:Datum:Temp:Abs-Feuchte:Windchill:Wind:
Aussen-T/F 1076 17-03-2021 19:00:00 5.2 C 5.14 g/m*3 5.2 C 2.14167 km/h
1077 17-03-2021 20:00:00 4.20833 C 5.22 g/m*3 4.21 C 1.2 km/h
1078 17-03-2021 21:00:00 2.95 C 5.1 g/m*3 2.95 C 1.86667 km/h
1079 17-03-2021 22:00:00 3.25833 C 5.36 g/m*3 3.26 C 0.4 km/h
1080 17-03-2021 23:00:00 2.81667 C 5.18 g/m*3 2.82 C 0.4 km/h
1081 18-03-2021 00:00:00 1.15 C 4.69 g/m*3 1.15 C 2 km/h
1082 18-03-2021 01:00:00 0.525 C 4.58 g/m*3 0.53 C 1.73333 km/h
1083 18-03-2021 02:00:00 -0.2 C 4.42 g/m*3 -0.2 C 0 km/h
1084 18-03-2021 03:00:00 -0.44167 C 4.41 g/m*3 -0.44 C 0 km/h
1085 18-03-2021 04:00:00 -0.84167 C 4.3 g/m*3 -0.84 C 0 km/h
1086 18-03-2021 05:00:00 -0.925 C 4.29 g/m*3 -0.93 C 0.4 km/h
1087 18-03-2021 06:00:00 0.18333 C 4.66 g/m*3 0.18 C 0.4 km/h
1088 18-03-2021 07:00:00 0.81667 C 4.87 g/m*3 0.82 C 0.4 km/h
1089 18-03-2021 08:00:00 1.275 C 5.02 g/m*3 1.27 C 0.13333 km/h
1090 18-03-2021 09:00:00 1.925 C 5.24 g/m*3 1.93 C 1.73333 km/h
1091 18-03-2021 10:00:00 3.08333 C 5.5 g/m*3 3.08 C 2.8 km/h
1092 18-03-2021 11:00:00 3.6 C 5.54 g/m*3 3.6 C 2.13333 km/h
1093 18-03-2021 12:00:00 4.75833 C 5.78 g/m*3 4.76 C 2.80833 km/h
1094 18-03-2021 13:00:00 6.025 C 5.73 g/m*3 4.39 C 7.8 km/h
1095 18-03-2021 14:00:00 6.84167 C 5.76 g/m*3 5.28 C 8.06667 km/h
1096 18-03-2021 15:00:00 6.94167 C 5.71 g/m*3 5.82 C 6.44167 km/h
1097 18-03-2021 16:00:00 6.825 C 5.59 g/m*3 5.14 C 8.58333 km/h
1098 18-03-2021 17:00:00 6.68333 C 5.46 g/m*3 5.03 C 8.325 km/h
1099 18-03-2021 18:00:00 6 C 5.4 g/m*3 4.26 C 8.18333 km/h
1100 18-03-2021 19:00:00 5.46667 C 5.45 g/m*3 5.47 C 1.46667 km/h
Sensor: Nr:Datum:Temp:Abs-Feuchte:Windchill:Wind:
Aussen-T/F 1101 18-03-2021 20:00:00 4.975 C 5.56 g/m*3 4.97 C 0.93333 km/h
1102 18-03-2021 21:00:00 4.7 C 5.75 g/m*3 4.7 C 2.66667 km/h
1103 18-03-2021 22:00:00 4.20833 C 5.78 g/m*3 4.21 C 1.06667 km/h
1104 18-03-2021 23:00:00 3.75 C 5.73 g/m*3 3.75 C 0.53333 km/h
1105 19-03-2021 00:00:00 2.59167 C 5.33 g/m*3 2.59 C 0 km/h
1106 19-03-2021 01:00:00 2.03333 C 5.19 g/m*3 2.03 C 0 km/h
1107 19-03-2021 02:00:00 2.175 C 5.29 g/m*3 2.17 C 0 km/h
1108 19-03-2021 03:00:00 2.43333 C 5.43 g/m*3 2.43 C 0 km/h
1109 19-03-2021 04:00:00 2.6 C 5.5 g/m*3 2.6 C 0 km/h
1110 19-03-2021 05:00:00 2.36667 C 5.41 g/m*3 2.37 C 0.26667 km/h
1111 19-03-2021 06:00:00 1.64167 C 5.15 g/m*3 1.64 C 1.2 km/h
1112 19-03-2021 07:00:00 1.31667 C 5.04 g/m*3 1.32 C 0.53333 km/h
1113 19-03-2021 08:00:00 1.73333 C 5.17 g/m*3 0 C 5.90833 km/h
1114 19-03-2021 09:00:00 3.125 C 5.2 g/m*3 0.16 C 11.14167 km/h
1115 19-03-2021 10:00:00 3.93333 C 5.04 g/m*3 1.08 C 11.425 km/h
1116 19-03-2021 11:00:00 5.525 C 4.64 g/m*3 1.96 C 18.1 km/h
1117 19-03-2021 12:00:00 6.74167 C 4.03 g/m*3 2.86 C 23.85 km/h
1118 19-03-2021 13:00:00 7.28333 C 4 g/m*3 3.91 C 20.375 km/h
1119 19-03-2021 14:00:00 7.55833 C 4.1 g/m*3 4.6 C 17.30833 km/h
1120 19-03-2021 15:00:00 7.375 C 4.11 g/m*3 4.1 C 19.7 km/h
1121 19-03-2021 16:00:00 7.15 C 4.25 g/m*3 3.87 C 19.175 km/h
1122 19-03-2021 17:00:00 7.74167 C 4.25 g/m*3 5.48 C 12.63333 km/h
1123 19-03-2021 18:00:00 6.79167 C 4.17 g/m*3 4.41 C 12.075 km/h
1124 19-03-2021 19:00:00 4.625 C 4.65 g/m*3 4.63 C 3.74167 km/h
1125 19-03-2021 20:00:00 2.36667 C 4.57 g/m*3 2.37 C 1.46667 km/h
Sensor: Nr:Datum:Temp:Abs-Feuchte:Windchill:Wind:
Aussen-T/F 1126 19-03-2021 21:00:00 1.74167 C 4.64 g/m*3 1.74 C 0.53333 km/h
1127 19-03-2021 22:00:00 1.15833 C 4.53 g/m*3 1.16 C 0.13333 km/h
1128 19-03-2021 23:00:00 0.31667 C 4.39 g/m*3 0.32 C 0 km/h
1129 20-03-2021 00:00:00 0.33333 C 4.5 g/m*3 0.33 C 0 km/h
1130 20-03-2021 01:00:00 0.2 C 4.43 g/m*3 0.2 C 0 km/h
1131 20-03-2021 02:00:00 -0.44167 C 4.3 g/m*3 -0.44 C 0 km/h
1132 20-03-2021 03:00:00 -1.06667 C 4.16 g/m*3 -1.07 C 0 km/h
1133 20-03-2021 04:00:00 -1.275 C 4.13 g/m*3 -1.27 C 0 km/h
1134 20-03-2021 05:00:00 -1.08333 C 4.22 g/m*3 -1.08 C 0 km/h
1135 20-03-2021 06:00:00 -0.75833 C 4.32 g/m*3 -0.76 C 0 km/h
1136 20-03-2021 07:00:00 -0.34167 C 4.48 g/m*3 -0.34 C 0 km/h
1137 20-03-2021 08:00:00 0.40833 C 4.73 g/m*3 0.41 C 0 km/h
1138 20-03-2021 09:00:00 1.55 C 4.85 g/m*3 1.55 C 2.675 km/h
1139 20-03-2021 10:00:00 2.89167 C 4.67 g/m*3 1.34 C 5.88333 km/h
1140 20-03-2021 11:00:00 3.94167 C 4.26 g/m*3 1.98 C 7.66667 km/h
1141 20-03-2021 12:00:00 5.175 C 4.12 g/m*3 3.15 C 8.74167 km/h
1142 20-03-2021 13:00:00 6.51667 C 4.08 g/m*3 5.04 C 7.51667 km/h
1143 20-03-2021 14:00:00 7.30833 C 4.06 g/m*3 5.48 C 9.69167 km/h
1144 20-03-2021 15:00:00 7.45 C 4 g/m*3 6.66 C 5.625 km/h
1145 20-03-2021 16:00:00 8.70833 C 3.92 g/m*3 7.48 C 8.05833 km/h
1146 20-03-2021 17:00:00 7.83333 C 3.74 g/m*3 6.61 C 7.38333 km/h
1147 20-03-2021 18:00:00 6.93333 C 3.77 g/m*3 5.7 C 6.85 km/h
1148 20-03-2021 19:00:00 6.15 C 3.89 g/m*3 6.15 C 4.14167 km/h
1149 20-03-2021 20:00:00 5.49167 C 3.94 g/m*3 5.49 C 2.4 km/h
1150 20-03-2021 21:00:00 4.90833 C 4.42 g/m*3 4.91 C 1.86667 km/h
Sensor: Nr:Datum:Temp:Abs-Feuchte:Windchill:Wind:
Aussen-T/F 1151 20-03-2021 22:00:00 4.54167 C 4.67 g/m*3 4.54 C 0.4 km/h
1152 20-03-2021 23:00:00 4.36667 C 4.69 g/m*3 4.37 C 0.53333 km/h
1153 21-03-2021 00:00:00 4.5 C 4.69 g/m*3 4.5 C 2.26667 km/h
1154 21-03-2021 01:00:00 4.60833 C 4.71 g/m*3 4.61 C 0.4 km/h
1155 21-03-2021 02:00:00 4.725 C 4.9 g/m*3 4.72 C 0.93333 km/h
1156 21-03-2021 03:00:00 5.20833 C 5.55 g/m*3 3.82 C 6.45 km/h
1157 21-03-2021 04:00:00 4.9 C 5.82 g/m*3 4.9 C 3.73333 km/h
1158 21-03-2021 05:00:00 4.55 C 5.86 g/m*3 4.55 C 2.53333 km/h
1159 21-03-2021 06:00:00 4.36667 C 5.91 g/m*3 4.37 C 4.675 km/h
1160 21-03-2021 07:00:00 4.44167 C 6.06 g/m*3 4.44 C 4.00833 km/h
1161 21-03-2021 08:00:00 4.81667 C 6.24 g/m*3 3.55 C 5.88333 km/h
1162 21-03-2021 09:00:00 5.55833 C 6.56 g/m*3 3.92 C 7.5 km/h
1163 21-03-2021 10:00:00 6.54167 C 6.75 g/m*3 4.2 C 11.55833 km/h
1164 21-03-2021 11:00:00 7.20833 C 6.75 g/m*3 4.92 C 12.09167 km/h
1165 21-03-2021 12:00:00 7.6 C 6.59 g/m*3 4.93 C 15.16667 km/h
1166 21-03-2021 13:00:00 8.15 C 6.23 g/m*3 5.47 C 16.23333 km/h
1167 21-03-2021 14:00:00 8.31667 C 5.99 g/m*3 5.76 C 15.56667 km/h
1168 21-03-2021 15:00:00 8.31667 C 5.86 g/m*3 5.57 C 17.175 km/h
1169 21-03-2021 16:00:00 8.48333 C 5.76 g/m*3 6.28 C 13.3 km/h
1170 21-03-2021 17:00:00 8.26667 C 5.66 g/m*3 6.07 C 12.9 km/h
1171 21-03-2021 18:00:00 7.45 C 5.56 g/m*3 5.32 C 11.425 km/h
1172 21-03-2021 19:00:00 6.55 C 5.48 g/m*3 4.91 C 8.2 km/h
1173 21-03-2021 20:00:00 6.06667 C 5.52 g/m*3 4.24 C 8.60833 km/h
1174 21-03-2021 21:00:00 5.93333 C 5.53 g/m*3 4.66 C 6.425 km/h
1175 21-03-2021 22:00:00 5.3 C 5.45 g/m*3 3.88 C 6.58333 km/h
Sensor: Nr:Datum:Temp:Abs-Feuchte:Windchill:Wind:
Aussen-T/F 1176 21-03-2021 23:00:00 4.84167 C 5.37 g/m*3 4.84 C 3.875 km/h
1177 22-03-2021 00:00:00 4.40833 C 5.26 g/m*3 4.41 C 3.88333 km/h
1178 22-03-2021 01:00:00 4.225 C 5.24 g/m*3 4.22 C 2.53333 km/h
1179 22-03-2021 02:00:00 4.46667 C 5.45 g/m*3 4.47 C 3.75 km/h
1180 22-03-2021 03:00:00 4.575 C 5.45 g/m*3 2.88 C 7.11667 km/h
1181 22-03-2021 04:00:00 4.55 C 5.52 g/m*3 2.77 C 7.4 km/h
1182 22-03-2021 05:00:00 4.53333 C 5.58 g/m*3 2.8 C 7.23333 km/h
1183 22-03-2021 06:00:00 4.4 C 5.62 g/m*3 3.03 C 6.025 km/h
1184 22-03-2021 07:00:00 4.525 C 5.73 g/m*3 3.17 C 6.03333 km/h
1185 22-03-2021 08:00:00 5.01667 C 5.9 g/m*3 3.14 C 8.06667 km/h
1186 22-03-2021 09:00:00 5.75833 C 6.01 g/m*3 3.09 C 12.49167 km/h
1187 22-03-2021 10:00:00 6.15833 C 6.17 g/m*3 4.02 C 10.09167 km/h
1188 22-03-2021 11:00:00 6.55 C 6.22 g/m*3 4.38 C 10.63333 km/h
1189 22-03-2021 12:00:00 6.78333 C 6.05 g/m*3 4.59 C 11.025 km/h
1190 22-03-2021 13:00:00 7 C 6 g/m*3 4.9 C 10.75833 km/h
1191 22-03-2021 14:00:00 7.49167 C 5.97 g/m*3 5.62 C 10.09167 km/h
1192 22-03-2021 15:00:00 7.325 C 6.15 g/m*3 5.67 C 8.875 km/h
1193 22-03-2021 16:00:00 7.4 C 6.18 g/m*3 6.21 C 6.975 km/h
1194 22-03-2021 17:00:00 7.18333 C 6.16 g/m*3 6.03 C 6.70833 km/h
1195 22-03-2021 18:00:00 7.00833 C 6.1 g/m*3 5.87 C 6.56667 km/h
1196 22-03-2021 19:00:00 6.65833 C 6.09 g/m*3 6.66 C 2.53333 km/h
1197 22-03-2021 20:00:00 6.275 C 6.06 g/m*3 6.28 C 1.73333 km/h
1198 22-03-2021 21:00:00 6.05833 C 6.04 g/m*3 6.06 C 2.26667 km/h
1199 22-03-2021 22:00:00 6.08333 C 6 g/m*3 6.08 C 1.6 km/h
1200 22-03-2021 23:00:00 5.725 C 6.06 g/m*3 5.73 C 1.33333 km/h
Sensor: Nr:Datum:Temp:Abs-Feuchte:Windchill:Wind:
Aussen-T/F 1201 23-03-2021 00:00:00 5.41667 C 6.01 g/m*3 5.42 C 0 km/h
1202 23-03-2021 01:00:00 5.19167 C 5.99 g/m*3 5.19 C 0 km/h
1203 23-03-2021 02:00:00 4.98333 C 5.94 g/m*3 4.98 C 0 km/h
1204 23-03-2021 03:00:00 4.84167 C 5.85 g/m*3 4.84 C 0.53333 km/h
1205 23-03-2021 04:00:00 4.95833 C 5.78 g/m*3 4.96 C 2.4 km/h
1206 23-03-2021 05:00:00 5.2 C 5.69 g/m*3 5.2 C 2.93333 km/h
1207 23-03-2021 06:00:00 5.41667 C 5.56 g/m*3 5.42 C 4.40833 km/h
1208 23-03-2021 07:00:00 5.65 C 5.53 g/m*3 5.65 C 3.33333 km/h
1209 23-03-2021 08:00:00 6.075 C 5.67 g/m*3 5.13 C 5.49167 km/h
1210 23-03-2021 09:00:00 6.59167 C 5.61 g/m*3 5.73 C 5.46667 km/h
1211 23-03-2021 10:00:00 7.025 C 5.68 g/m*3 6.17 C 5.60833 km/h
1212 23-03-2021 11:00:00 7.70833 C 5.83 g/m*3 6.12 C 8.89167 km/h
1213 23-03-2021 12:00:00 8.98333 C 6.11 g/m*3 7.5 C 9.54167 km/h
1214 23-03-2021 13:00:00 9.66667 C 6.19 g/m*3 8.69 C 7.65833 km/h
1215 23-03-2021 14:00:00 10.11667 C 6.22 g/m*3 9.31 C 7.24167 km/h
1216 23-03-2021 15:00:00 10.75833 C 6.31 g/m*3 10.41 C 5.74167 km/h
1217 23-03-2021 16:00:00 11.50833 C 6.31 g/m*3 11.51 C 4.26667 km/h
1218 23-03-2021 17:00:00 12.46667 C 6.41 g/m*3 12.47 C 2 km/h
1219 23-03-2021 18:00:00 10.44167 C 6.5 g/m*3 10.44 C 3.2 km/h
1220 23-03-2021 19:00:00 6.74167 C 6.02 g/m*3 6.74 C 4.66667 km/h
1221 23-03-2021 20:00:00 4.95 C 5.72 g/m*3 4.95 C 0.66667 km/h
1222 23-03-2021 21:00:00 3.44167 C 5.37 g/m*3 3.44 C 0.13333 km/h
1223 23-03-2021 22:00:00 2.525 C 5.19 g/m*3 2.53 C 0 km/h
1224 23-03-2021 23:00:00 1.70833 C 4.99 g/m*3 1.71 C 0 km/h
1225 24-03-2021 00:00:00 1.10833 C 4.84 g/m*3 1.11 C 0 km/h
Sensor: Nr:Datum:Temp:Abs-Feuchte:Windchill:Wind:
Aussen-T/F 1226 24-03-2021 01:00:00 0.725 C 4.74 g/m*3 0.73 C 0 km/h
1227 24-03-2021 02:00:00 0.16667 C 4.6 g/m*3 0.17 C 0 km/h
1228 24-03-2021 03:00:00 -0.3 C 4.46 g/m*3 -0.3 C 0 km/h
1229 24-03-2021 04:00:00 -0.31667 C 4.5 g/m*3 -0.32 C 0.13333 km/h
1230 24-03-2021 05:00:00 -0.68333 C 4.39 g/m*3 -0.68 C 0 km/h
1231 24-03-2021 06:00:00 -0.90833 C 4.32 g/m*3 -0.91 C 0 km/h
1232 24-03-2021 07:00:00 -0.725 C 4.38 g/m*3 -0.73 C 0 km/h
1233 24-03-2021 08:00:00 0.125 C 4.68 g/m*3 0.13 C 0.53333 km/h
1234 24-03-2021 09:00:00 1.63333 C 5.21 g/m*3 1.63 C 0.4 km/h
1235 24-03-2021 10:00:00 4.925 C 6.51 g/m*3 4.93 C 0 km/h
1236 24-03-2021 11:00:00 10.16667 C 7.2 g/m*3 8.96 C 9.25833 km/h
1237 24-03-2021 12:00:00 13.69167 C 6.89 g/m*3 13.69 C 11.95833 km/h
1238 24-03-2021 13:00:00 15.14167 C 6.68 g/m*3 15.14 C 12.63333 km/h
1239 24-03-2021 14:00:00 16.24167 C 6.09 g/m*3 16.24 C 12.36667 km/h
1240 24-03-2021 15:00:00 16.94167 C 6.03 g/m*3 16.94 C 11.3 km/h
1241 24-03-2021 16:00:00 18.23333 C 6.33 g/m*3 18.23 C 12.9 km/h
1242 24-03-2021 17:00:00 18.15 C 6.53 g/m*3 18.15 C 9.41667 km/h
1243 24-03-2021 18:00:00 15.08333 C 6.94 g/m*3 15.08 C 5.60833 km/h
1244 24-03-2021 19:00:00 10.925 C 6.72 g/m*3 10.4 C 6.54167 km/h
1245 24-03-2021 20:00:00 9.65833 C 6.65 g/m*3 9.19 C 5.6 km/h
1246 24-03-2021 21:00:00 8.775 C 6.59 g/m*3 8.78 C 2.66667 km/h
1247 24-03-2021 22:00:00 7.575 C 6.18 g/m*3 7.58 C 0.13333 km/h
1248 24-03-2021 23:00:00 5.06667 C 5.78 g/m*3 5.07 C 0 km/h
1249 25-03-2021 00:00:00 4.64167 C 5.81 g/m*3 4.64 C 0.13333 km/h
1250 25-03-2021 01:00:00 4.38333 C 5.73 g/m*3 4.38 C 0 km/h
Sensor: Nr:Datum:Temp:Abs-Feuchte:Windchill:Wind:
Aussen-T/F 1251 25-03-2021 02:00:00 3.15 C 5.38 g/m*3 3.15 C 0 km/h
1252 25-03-2021 03:00:00 2.4 C 5.22 g/m*3 2.4 C 0 km/h
1253 25-03-2021 04:00:00 2.08333 C 5.19 g/m*3 2.08 C 0 km/h
1254 25-03-2021 05:00:00 1.75833 C 5.11 g/m*3 1.76 C 0 km/h
1255 25-03-2021 06:00:00 1.33333 C 4.99 g/m*3 1.33 C 0 km/h
1256 25-03-2021 07:00:00 2.1 C 5.33 g/m*3 2.1 C 0 km/h
1257 25-03-2021 08:00:00 4.225 C 6.1 g/m*3 4.22 C 1.73333 km/h
1258 25-03-2021 09:00:00 6.50833 C 6.68 g/m*3 6.51 C 2.4 km/h
1259 25-03-2021 10:00:00 9.84167 C 7.33 g/m*3 9.47 C 5.36667 km/h
1260 25-03-2021 11:00:00 11.95833 C 7.64 g/m*3 11.96 C 2.93333 km/h
1261 25-03-2021 12:00:00 13.09167 C 7.81 g/m*3 13.09 C 5.34167 km/h
1262 25-03-2021 13:00:00 14.30833 C 7.98 g/m*3 14.31 C 5.475 km/h
1263 25-03-2021 14:00:00 15.53333 C 8.09 g/m*3 15.53 C 6.15833 km/h
1264 25-03-2021 15:00:00 16.23333 C 8.03 g/m*3 16.23 C 4.01667 km/h
1265 25-03-2021 16:00:00 15.18333 C 7.79 g/m*3 15.18 C 9.28333 km/h
1266 25-03-2021 17:00:00 14.05 C 7.72 g/m*3 14.05 C 13.16667 km/h
1267 25-03-2021 18:00:00 12.59167 C 7.75 g/m*3 12.59 C 7.375 km/h
1268 25-03-2021 19:00:00 11.68333 C 7.74 g/m*3 11.68 C 2.66667 km/h
1269 25-03-2021 20:00:00 10.90833 C 7.78 g/m*3 10.91 C 2 km/h
1270 25-03-2021 21:00:00 10.04167 C 7.65 g/m*3 10.04 C 2.53333 km/h
1271 25-03-2021 22:00:00 8.625 C 7.27 g/m*3 8.63 C 3.86667 km/h
1272 25-03-2021 23:00:00 7.3 C 6.93 g/m*3 7.3 C 2.93333 km/h
1273 26-03-2021 00:00:00 6.28333 C 6.67 g/m*3 6.28 C 0.8 km/h
1274 26-03-2021 01:00:00 6.04167 C 6.73 g/m*3 6.04 C 0 km/h
1275 26-03-2021 02:00:00 6.275 C 6.86 g/m*3 6.28 C 0 km/h
Sensor: Nr:Datum:Temp:Abs-Feuchte:Windchill:Wind:
Aussen-T/F 1276 26-03-2021 03:00:00 6.33333 C 6.9 g/m*3 6.33 C 0.66667 km/h
1277 26-03-2021 04:00:00 5.78333 C 6.55 g/m*3 5.78 C 0.26667 km/h
1278 26-03-2021 05:00:00 4.35 C 6.02 g/m*3 4.35 C 0 km/h
1279 26-03-2021 06:00:00 3.35 C 5.69 g/m*3 3.35 C 0 km/h
1280 26-03-2021 07:00:00 3.79167 C 5.95 g/m*3 3.79 C 0 km/h
1281 26-03-2021 08:00:00 4.55 C 6.28 g/m*3 4.55 C 0 km/h
1282 26-03-2021 09:00:00 6.19167 C 7.06 g/m*3 6.19 C 0 km/h
1283 26-03-2021 10:00:00 9.175 C 8.25 g/m*3 9.18 C 2.55 km/h
1284 26-03-2021 11:00:00 13.46667 C 7.83 g/m*3 13.47 C 11.15833 km/h
1285 26-03-2021 12:00:00 14.98333 C 7.48 g/m*3 14.98 C 14.5 km/h
1286 26-03-2021 13:00:00 15.85 C 7.39 g/m*3 15.85 C 14.63333 km/h
1287 26-03-2021 14:00:00 16.18333 C 7.29 g/m*3 16.18 C 11.69167 km/h
1288 26-03-2021 15:00:00 16.46667 C 7.25 g/m*3 16.47 C 9.80833 km/h
1289 26-03-2021 16:00:00 16.375 C 7.28 g/m*3 16.38 C 10.63333 km/h
1290 26-03-2021 17:00:00 15.71667 C 7.17 g/m*3 15.72 C 11.15833 km/h
1291 26-03-2021 18:00:00 15.10833 C 7.3 g/m*3 15.11 C 6.31667 km/h
1292 26-03-2021 19:00:00 12.35 C 7.35 g/m*3 12.35 C 3.46667 km/h
1293 26-03-2021 20:00:00 11.16667 C 7.05 g/m*3 11.17 C 5.06667 km/h
1294 26-03-2021 21:00:00 9.975 C 6.86 g/m*3 9.98 C 2.8 km/h
1295 26-03-2021 22:00:00 8.93333 C 6.8 g/m*3 8.93 C 2.26667 km/h
1296 26-03-2021 23:00:00 8.51667 C 6.71 g/m*3 8.52 C 0 km/h
1297 27-03-2021 00:00:00 8.33333 C 6.74 g/m*3 8.33 C 1.06667 km/h
1298 27-03-2021 01:00:00 9.91667 C 7.23 g/m*3 9.1 C 7.10833 km/h
1299 27-03-2021 02:00:00 10.2 C 7.2 g/m*3 8.54 C 12.08333 km/h
1300 27-03-2021 03:00:00 8.26667 C 6.46 g/m*3 5.6 C 16.36667 km/h
Sensor: Nr:Datum:Temp:Abs-Feuchte:Windchill:Wind:
Aussen-T/F 1301 27-03-2021 04:00:00 7.375 C 6.13 g/m*3 4.64 C 15.3 km/h
1302 27-03-2021 05:00:00 6.8 C 5.86 g/m*3 3.98 C 14.9 km/h
1303 27-03-2021 06:00:00 5.9 C 5.65 g/m*3 2.91 C 14.63333 km/h
1304 27-03-2021 07:00:00 6.05833 C 5.77 g/m*3 3.83 C 10.46667 km/h
1305 27-03-2021 08:00:00 6.95833 C 5.91 g/m*3 3.24 C 22.79167 km/h
1306 27-03-2021 09:00:00 7.61667 C 6.2 g/m*3 4.57 C 18.23333 km/h
1307 27-03-2021 10:00:00 7.025 C 6.05 g/m*3 3.94 C 17.30833 km/h
1308 27-03-2021 11:00:00 6.60833 C 6.35 g/m*3 3.87 C 14.1 km/h
1309 27-03-2021 12:00:00 7.81667 C 6.71 g/m*3 4.94 C 17.175 km/h
1310 27-03-2021 13:00:00 7.58333 C 6.53 g/m*3 4.23 C 20.90833 km/h
1311 27-03-2021 14:00:00 7.74167 C 6.12 g/m*3 4.75 C 17.96667 km/h
1312 27-03-2021 15:00:00 9.025 C 5.63 g/m*3 6.36 C 17.96667 km/h
1313 27-03-2021 16:00:00 9.51667 C 5.96 g/m*3 7.18 C 16.1 km/h
1314 27-03-2021 17:00:00 9.86667 C 6.37 g/m*3 7.93 C 13.56667 km/h
1315 27-03-2021 18:00:00 6.58333 C 6.15 g/m*3 4.54 C 10.06667 km/h
1316 27-03-2021 19:00:00 5.08333 C 6.05 g/m*3 3.39 C 7.4 km/h
1317 27-03-2021 20:00:00 4.93333 C 5.98 g/m*3 4.93 C 4.66667 km/h
1318 27-03-2021 21:00:00 5.15 C 6.07 g/m*3 5.15 C 2.8 km/h
1319 27-03-2021 22:00:00 4.53333 C 5.85 g/m*3 4.53 C 4.675 km/h
1320 27-03-2021 23:00:00 4.03333 C 5.73 g/m*3 4.03 C 2.13333 km/h
1321 28-03-2021 00:00:00 3.95 C 5.75 g/m*3 3.95 C 4.13333 km/h
1322 28-03-2021 01:00:00 4.15833 C 5.89 g/m*3 4.16 C 3.33333 km/h
1323 28-03-2021 02:00:00 4.90833 C 6.09 g/m*3 3.39 C 6.71667 km/h
1324 28-03-2021 04:00:00 5.15833 C 6.18 g/m*3 5.16 C 4.53333 km/h
1325 28-03-2021 05:00:00 4.95 C 6.08 g/m*3 3.95 C 5.20833 km/h
Sensor: Nr:Datum:Temp:Abs-Feuchte:Windchill:Wind:
Aussen-T/F 1326 28-03-2021 06:00:00 4.45833 C 5.93 g/m*3 4.46 C 4.675 km/h
1327 28-03-2021 07:00:00 5.01667 C 6.13 g/m*3 3.17 C 7.925 km/h
1328 28-03-2021 08:00:00 6.06667 C 6.35 g/m*3 4.41 C 7.925 km/h
1329 28-03-2021 09:00:00 6.88333 C 6.65 g/m*3 5.53 C 7.26667 km/h
1330 28-03-2021 10:00:00 8.26667 C 6.87 g/m*3 7.67 C 5.35833 km/h
1331 28-03-2021 11:00:00 10.66667 C 7.16 g/m*3 9.58 C 9.14167 km/h
1332 28-03-2021 12:00:00 12.075 C 6.69 g/m*3 12.08 C 15.16667 km/h
1333 28-03-2021 13:00:00 13.34167 C 6.35 g/m*3 13.34 C 20.1 km/h
1334 28-03-2021 14:00:00 14.30833 C 6.44 g/m*3 14.31 C 19.03333 km/h
1335 28-03-2021 15:00:00 14.9 C 6.46 g/m*3 14.9 C 17.16667 km/h
1336 28-03-2021 16:00:00 15.475 C 6.49 g/m*3 15.48 C 16.1 km/h
1337 28-03-2021 17:00:00 15.48333 C 6.47 g/m*3 15.48 C 15.16667 km/h
1338 28-03-2021 18:00:00 15.69167 C 6.4 g/m*3 15.69 C 13.16667 km/h
1339 28-03-2021 19:00:00 13.94167 C 6.4 g/m*3 13.94 C 6.98333 km/h
1340 28-03-2021 20:00:00 12.225 C 6.27 g/m*3 12.23 C 6.43333 km/h
1341 28-03-2021 21:00:00 10.275 C 6.45 g/m*3 10.28 C 1.86667 km/h
1342 28-03-2021 22:00:00 8.975 C 6.5 g/m*3 8.98 C 0 km/h
1343 28-03-2021 23:00:00 8.48333 C 6.5 g/m*3 8.48 C 0 km/h
1344 29-03-2021 00:00:00 7.73333 C 6.37 g/m*3 7.73 C 0 km/h
1345 29-03-2021 01:00:00 6.76667 C 6.14 g/m*3 6.77 C 0 km/h
1346 29-03-2021 02:00:00 5.58333 C 5.9 g/m*3 5.58 C 0 km/h
1347 29-03-2021 03:00:00 4.575 C 5.74 g/m*3 4.58 C 0 km/h
1348 29-03-2021 04:00:00 4.33333 C 5.73 g/m*3 4.33 C 0 km/h
1349 29-03-2021 05:00:00 3.83333 C 5.61 g/m*3 3.83 C 0 km/h
1350 29-03-2021 06:00:00 3.78333 C 5.67 g/m*3 3.78 C 0 km/h
Sensor: Nr:Datum:Temp:Abs-Feuchte:Windchill:Wind:
Aussen-T/F 1351 29-03-2021 07:00:00 3.58333 C 5.61 g/m*3 3.58 C 0 km/h
1352 29-03-2021 08:00:00 3.93333 C 5.77 g/m*3 3.93 C 0 km/h
1353 29-03-2021 09:00:00 4.76667 C 6.11 g/m*3 4.77 C 0 km/h
1354 29-03-2021 10:00:00 8.08333 C 6.85 g/m*3 8.08 C 3.75 km/h
1355 29-03-2021 11:00:00 13.80833 C 7.05 g/m*3 13.81 C 10.35833 km/h
1356 29-03-2021 12:00:00 16.375 C 6.89 g/m*3 16.38 C 11.96667 km/h
1357 29-03-2021 13:00:00 18.28333 C 6.65 g/m*3 18.28 C 13.43333 km/h
1358 29-03-2021 14:00:00 19.81667 C 6.43 g/m*3 19.82 C 12.5 km/h
1359 29-03-2021 15:00:00 20.775 C 6.31 g/m*3 20.78 C 12.5 km/h
1360 29-03-2021 16:00:00 21.41667 C 6.44 g/m*3 21.42 C 13.03333 km/h
1361 29-03-2021 17:00:00 22.625 C 6.42 g/m*3 22.63 C 12.63333 km/h
1362 29-03-2021 18:00:00 22.59167 C 6.49 g/m*3 22.59 C 10.75833 km/h
1363 29-03-2021 19:00:00 19.79167 C 7.31 g/m*3 19.79 C 5.20833 km/h
1364 29-03-2021 20:00:00 14.89167 C 7.17 g/m*3 14.89 C 6.4 km/h
1365 29-03-2021 21:00:00 13.40833 C 7.13 g/m*3 13.41 C 4.80833 km/h
1366 29-03-2021 22:00:00 10.86667 C 6.76 g/m*3 10.87 C 0.26667 km/h
1367 29-03-2021 23:00:00 8.525 C 6.49 g/m*3 8.53 C 0 km/h
1368 30-03-2021 00:00:00 7.34167 C 6.27 g/m*3 7.34 C 0 km/h
1369 30-03-2021 01:00:00 6.25833 C 6.08 g/m*3 6.26 C 0 km/h
1370 30-03-2021 02:00:00 5.49167 C 5.93 g/m*3 5.49 C 0 km/h
1371 30-03-2021 03:00:00 4.96667 C 5.81 g/m*3 4.97 C 0 km/h
1372 30-03-2021 04:00:00 3.9 C 5.54 g/m*3 3.9 C 0 km/h
1373 30-03-2021 05:00:00 3.025 C 5.34 g/m*3 3.03 C 0 km/h
1374 30-03-2021 06:00:00 2.675 C 5.33 g/m*3 2.68 C 0.4 km/h
1375 30-03-2021 07:00:00 2.44167 C 5.25 g/m*3 2.44 C 0.13333 km/h
Sensor: Nr:Datum:Temp:Abs-Feuchte:Windchill:Wind:
Aussen-T/F 1376 30-03-2021 08:00:00 2.18333 C 5.21 g/m*3 2.18 C 0 km/h
1377 30-03-2021 09:00:00 3.05833 C 5.61 g/m*3 3.06 C 0 km/h
1378 30-03-2021 10:00:00 5.18333 C 6.42 g/m*3 5.18 C 0 km/h
1379 30-03-2021 11:00:00 9.38333 C 7.48 g/m*3 9.38 C 0.53333 km/h
1380 30-03-2021 12:00:00 14.05 C 7.68 g/m*3 14.05 C 1.73333 km/h
1381 30-03-2021 13:00:00 18.68333 C 7.73 g/m*3 18.68 C 2.53333 km/h
1382 30-03-2021 14:00:00 21.775 C 6.42 g/m*3 21.78 C 5.23333 km/h
1383 30-03-2021 15:00:00 23.40833 C 5.91 g/m*3 23.41 C 5.475 km/h
1384 30-03-2021 16:00:00 24.25 C 5.63 g/m*3 24.25 C 6.15833 km/h
1385 30-03-2021 17:00:00 25.61667 C 4.85 g/m*3 25.62 C 7.10833 km/h
1386 30-03-2021 18:00:00 26.05833 C 5.64 g/m*3 26.06 C 4.40833 km/h
1387 30-03-2021 19:00:00 21.54167 C 6.62 g/m*3 21.54 C 5.6 km/h
1388 30-03-2021 20:00:00 15.95833 C 6.39 g/m*3 15.96 C 7.10833 km/h
1389 30-03-2021 21:00:00 13.275 C 6.51 g/m*3 13.28 C 3.46667 km/h
1390 30-03-2021 22:00:00 10.875 C 6.41 g/m*3 10.88 C 0.8 km/h
1391 30-03-2021 23:00:00 9.075 C 6.18 g/m*3 9.07 C 0 km/h
1392 31-03-2021 00:00:00 8.15833 C 6.08 g/m*3 8.16 C 0.13333 km/h
1393 31-03-2021 01:00:00 7.275 C 6.03 g/m*3 7.28 C 0 km/h
1394 31-03-2021 02:00:00 6.34167 C 5.96 g/m*3 6.34 C 0 km/h
1395 31-03-2021 03:00:00 5.5 C 5.84 g/m*3 5.5 C 0 km/h
1396 31-03-2021 04:00:00 4.75833 C 5.67 g/m*3 4.76 C 0 km/h
1397 31-03-2021 05:00:00 3.93333 C 5.52 g/m*3 3.93 C 0 km/h
1398 31-03-2021 06:00:00 3.55 C 5.46 g/m*3 3.55 C 0 km/h
1399 31-03-2021 07:00:00 3.21667 C 5.45 g/m*3 3.22 C 0 km/h
1400 31-03-2021 08:00:00 3.775 C 5.7 g/m*3 3.78 C 0.13333 km/h
Sensor: Nr:Datum:Temp:Abs-Feuchte:Windchill:Wind:
Aussen-T/F 1401 31-03-2021 09:00:00 4.89167 C 6.11 g/m*3 4.89 C 0 km/h
1402 31-03-2021 10:00:00 7.15 C 6.79 g/m*3 7.15 C 0 km/h
1403 31-03-2021 11:00:00 11.66667 C 7.65 g/m*3 11.67 C 0.4 km/h
1404 31-03-2021 12:00:00 16.39167 C 7.89 g/m*3 16.39 C 0.53333 km/h
1405 31-03-2021 13:00:00 21.18333 C 7.5 g/m*3 21.18 C 2 km/h
1406 31-03-2021 14:00:00 23.925 C 7.44 g/m*3 23.93 C 5.63333 km/h
1407 31-03-2021 15:00:00 25.51667 C 7.13 g/m*3 25.52 C 10.1 km/h
1408 31-03-2021 16:00:00 26.16667 C 6.53 g/m*3 26.17 C 13.7 km/h
1409 31-03-2021 17:00:00 27.325 C 6.18 g/m*3 27.33 C 10.36667 km/h
1410 31-03-2021 18:00:00 27.125 C 6.85 g/m*3 27.13 C 7.26667 km/h
1411 31-03-2021 19:00:00 24.20833 C 7.61 g/m*3 24.21 C 6.15 km/h
1412 31-03-2021 20:00:00 18.28333 C 7.85 g/m*3 18.28 C 6.13333 km/h
1413 31-03-2021 21:00:00 15.65833 C 7.89 g/m*3 15.66 C 1.73333 km/h
1414 31-03-2021 22:00:00 13.64167 C 7.75 g/m*3 13.64 C 3.88333 km/h
1415 31-03-2021 23:00:00 12.6 C 7.5 g/m*3 12.6 C 0.8 km/h
1416 01-04-2021 00:00:00 11.39167 C 7.26 g/m*3 11.39 C 0.8 km/h
1417 01-04-2021 01:00:00 10.00833 C 7.05 g/m*3 10.01 C 0.4 km/h
1418 01-04-2021 02:00:00 8.55833 C 6.94 g/m*3 8.56 C 0.4 km/h
1419 01-04-2021 03:00:00 8.3 C 6.89 g/m*3 8.3 C 1.06667 km/h
1420 01-04-2021 04:00:00 7.68333 C 6.86 g/m*3 7.68 C 0.93333 km/h
1421 01-04-2021 05:00:00 7.26667 C 6.79 g/m*3 7.27 C 0.8 km/h
1422 01-04-2021 06:00:00 7.11667 C 6.78 g/m*3 7.12 C 0.66667 km/h
1423 01-04-2021 07:00:00 6.73333 C 6.75 g/m*3 6.73 C 0.26667 km/h
1424 01-04-2021 08:00:00 7.46667 C 7.09 g/m*3 7.47 C 0.4 km/h
1425 01-04-2021 09:00:00 8.93333 C 7.41 g/m*3 8.93 C 2.13333 km/h
Sensor: Nr:Datum:Temp:Abs-Feuchte:Windchill:Wind:
Aussen-T/F 1426 01-04-2021 10:00:00 10.66667 C 7.77 g/m*3 10.67 C 0.93333 km/h
1427 01-04-2021 11:00:00 13.23333 C 8.25 g/m*3 13.23 C 0.13333 km/h
1428 01-04-2021 12:00:00 17.13333 C 8.85 g/m*3 17.13 C 2.4 km/h
1429 01-04-2021 13:00:00 20.7 C 8.06 g/m*3 20.7 C 10.08333 km/h
1430 01-04-2021 14:00:00 21.96667 C 7.88 g/m*3 21.97 C 12.75833 km/h
1431 01-04-2021 15:00:00 22.58333 C 7.86 g/m*3 22.58 C 11.55833 km/h
1432 01-04-2021 16:00:00 22.84167 C 8.06 g/m*3 22.84 C 15.16667 km/h
1433 01-04-2021 17:00:00 22.725 C 8.5 g/m*3 22.73 C 14.9 km/h
1434 01-04-2021 18:00:00 21.30833 C 8.66 g/m*3 21.31 C 15.83333 km/h
1435 01-04-2021 19:00:00 18.825 C 8.83 g/m*3 18.83 C 13.3 km/h
1436 01-04-2021 20:00:00 16.775 C 8.2 g/m*3 16.77 C 12.625 km/h
1437 01-04-2021 21:00:00 15.38333 C 8.3 g/m*3 15.38 C 12.9 km/h
1438 01-04-2021 22:00:00 13.825 C 8.05 g/m*3 13.83 C 9.14167 km/h
1439 01-04-2021 23:00:00 12.05 C 7.28 g/m*3 12.05 C 3.89167 km/h
1440 02-04-2021 00:00:00 10.21667 C 6.44 g/m*3 9.25 C 8.06667 km/h
1441 02-04-2021 01:00:00 8.28333 C 5.99 g/m*3 8.28 C 3.625 km/h
1442 02-04-2021 02:00:00 6.25833 C 5.67 g/m*3 6.26 C 1.33333 km/h
1443 02-04-2021 03:00:00 4.85 C 5.59 g/m*3 4.85 C 1.6 km/h
1444 02-04-2021 04:00:00 4.48333 C 5.61 g/m*3 4.48 C 2.93333 km/h
1445 02-04-2021 05:00:00 3.98333 C 5.51 g/m*3 3.98 C 3.2 km/h
1446 02-04-2021 06:00:00 3.975 C 5.64 g/m*3 3.98 C 2.80833 km/h
1447 02-04-2021 07:00:00 4.49167 C 5.86 g/m*3 4.49 C 1.46667 km/h
1448 02-04-2021 08:00:00 5.23333 C 6.08 g/m*3 5.23 C 0.13333 km/h
1449 02-04-2021 09:00:00 6.19167 C 6.27 g/m*3 6.19 C 0.4 km/h
1450 02-04-2021 10:00:00 7.18333 C 6.14 g/m*3 6.18 C 6.175 km/h
Sensor: Nr:Datum:Temp:Abs-Feuchte:Windchill:Wind:
Aussen-T/F 1451 02-04-2021 11:00:00 8.18333 C 5.91 g/m*3 6.37 C 10.5 km/h
1452 02-04-2021 12:00:00 8.975 C 5.9 g/m*3 7.02 C 12.36667 km/h
1453 02-04-2021 13:00:00 9.88333 C 5.92 g/m*3 8.34 C 10.89167 km/h
1454 02-04-2021 14:00:00 11.08333 C 5.98 g/m*3 11.08 C 15.3 km/h
1455 02-04-2021 15:00:00 11.63333 C 5.79 g/m*3 11.63 C 16.1 km/h
1456 02-04-2021 16:00:00 11.58333 C 5.88 g/m*3 11.58 C 19.56667 km/h
1457 02-04-2021 17:00:00 10.875 C 5.98 g/m*3 8.51 C 19.7 km/h
1458 02-04-2021 18:00:00 9.775 C 5.8 g/m*3 7.63 C 15.03333 km/h
1459 02-04-2021 19:00:00 8.3 C 5.49 g/m*3 6.02 C 13.56667 km/h
1460 02-04-2021 20:00:00 7.40833 C 5.35 g/m*3 5.79 C 8.74167 km/h
1461 02-04-2021 21:00:00 7.33333 C 5.41 g/m*3 5.45 C 9.95833 km/h
1462 02-04-2021 22:00:00 7.35 C 5.28 g/m*3 5.13 C 11.83333 km/h
1463 02-04-2021 23:00:00 7.15833 C 5.26 g/m*3 4.9 C 11.825 km/h
1464 03-04-2021 00:00:00 6.88333 C 5.27 g/m*3 5.57 C 7.10833 km/h
1465 03-04-2021 01:00:00 6.775 C 5.31 g/m*3 5.93 C 5.48333 km/h
1466 03-04-2021 02:00:00 6.7 C 5.43 g/m*3 4.87 C 9.14167 km/h
1467 03-04-2021 03:00:00 6.64167 C 5.58 g/m*3 5.36 C 6.84167 km/h
1468 03-04-2021 04:00:00 6.45 C 5.82 g/m*3 5.07 C 7.1 km/h
1469 03-04-2021 05:00:00 6.29167 C 5.48 g/m*3 3.62 C 13.16667 km/h
1470 03-04-2021 06:00:00 5.93333 C 5.4 g/m*3 4.29 C 7.78333 km/h
1471 03-04-2021 07:00:00 5.625 C 5.58 g/m*3 4.31 C 6.43333 km/h
1472 03-04-2021 08:00:00 5.05833 C 5.64 g/m*3 3.22 C 7.93333 km/h
1473 03-04-2021 09:00:00 5.34167 C 5.28 g/m*3 2.86 C 11.025 km/h
1474 03-04-2021 10:00:00 6.01667 C 5.02 g/m*3 3.91 C 9.80833 km/h
1475 03-04-2021 11:00:00 7.76667 C 5.16 g/m*3 5.92 C 10.225 km/h
Sensor: Nr:Datum:Temp:Abs-Feuchte:Windchill:Wind:
Aussen-T/F 1476 03-04-2021 12:00:00 9.14167 C 5.38 g/m*3 7.93 C 8.31667 km/h
1477 03-04-2021 13:00:00 10.56667 C 5.38 g/m*3 9.69 C 7.925 km/h
1478 03-04-2021 14:00:00 11.68333 C 5.05 g/m*3 11.68 C 11.41667 km/h
1479 03-04-2021 15:00:00 12.43333 C 4.85 g/m*3 12.43 C 11.94167 km/h
1480 03-04-2021 16:00:00 12.8 C 4.64 g/m*3 12.8 C 14.5 km/h
1481 03-04-2021 17:00:00 13.13333 C 4.58 g/m*3 13.13 C 14.5 km/h
1482 03-04-2021 18:00:00 12.99167 C 4.75 g/m*3 12.99 C 13.16667 km/h
1483 03-04-2021 19:00:00 11.56667 C 4.76 g/m*3 11.57 C 12.36667 km/h
1484 03-04-2021 20:00:00 9.2 C 4.88 g/m*3 9.2 C 3.475 km/h
1485 03-04-2021 21:00:00 6.39167 C 4.91 g/m*3 6.39 C 3.33333 km/h
1486 03-04-2021 22:00:00 5.275 C 4.91 g/m*3 5.28 C 3.73333 km/h
1487 03-04-2021 23:00:00 4.125 C 4.81 g/m*3 4.13 C 1.2 km/h
1488 04-04-2021 00:00:00 3 C 4.73 g/m*3 3 C 0.66667 km/h
1489 04-04-2021 01:00:00 2.44167 C 4.74 g/m*3 2.44 C 0.26667 km/h
1490 04-04-2021 02:00:00 2.75833 C 5.07 g/m*3 2.76 C 2.26667 km/h
1491 04-04-2021 03:00:00 3.89167 C 5.39 g/m*3 3.89 C 3.475 km/h
1492 04-04-2021 04:00:00 3.20833 C 5.25 g/m*3 3.21 C 3.73333 km/h
1493 04-04-2021 05:00:00 2.86667 C 5.19 g/m*3 2.87 C 3.33333 km/h
1494 04-04-2021 06:00:00 1.79167 C 4.89 g/m*3 1.79 C 0.66667 km/h
1495 04-04-2021 07:00:00 1.05 C 4.75 g/m*3 1.05 C 0.13333 km/h
1496 04-04-2021 08:00:00 1.48333 C 4.97 g/m*3 1.48 C 0.4 km/h
1497 04-04-2021 09:00:00 3.65 C 5.67 g/m*3 3.65 C 1.33333 km/h
1498 04-04-2021 10:00:00 5.99167 C 5.79 g/m*3 4.5 C 7.25 km/h
1499 04-04-2021 11:00:00 6.69167 C 5.46 g/m*3 4.83 C 9.29167 km/h
1500 04-04-2021 12:00:00 7.05 C 5.4 g/m*3 4.89 C 11.15833 km/h
Sensor: Nr:Datum:Temp:Abs-Feuchte:Windchill:Wind:
Aussen-T/F 1501 04-04-2021 13:00:00 7.44167 C 5.34 g/m*3 5.24 C 11.83333 km/h
1502 04-04-2021 14:00:00 8.25 C 5.4 g/m*3 6.58 C 9.81667 km/h
1503 04-04-2021 15:00:00 9 C 5.36 g/m*3 7.26 C 11.01667 km/h
1504 04-04-2021 16:00:00 9.99167 C 5.6 g/m*3 8.72 C 9.425 km/h
1505 04-04-2021 17:00:00 10.35 C 5.72 g/m*3 9.18 C 9.275 km/h
1506 04-04-2021 18:00:00 10.09167 C 5.8 g/m*3 9.13 C 7.925 km/h
1507 04-04-2021 19:00:00 8.575 C 5.68 g/m*3 7.75 C 6.30833 km/h
1508 04-04-2021 20:00:00 6.20833 C 5.41 g/m*3 6.21 C 3.6 km/h
1509 04-04-2021 21:00:00 4.09167 C 5.23 g/m*3 4.09 C 3.73333 km/h
1510 04-04-2021 22:00:00 2.75833 C 5.01 g/m*3 2.76 C 0 km/h
1511 04-04-2021 23:00:00 1.8 C 4.86 g/m*3 1.8 C 0 km/h
1512 05-04-2021 00:00:00 1.19167 C 4.75 g/m*3 1.19 C 0 km/h
1513 05-04-2021 01:00:00 0.75 C 4.66 g/m*3 0.75 C 0 km/h
1514 05-04-2021 02:00:00 0.21667 C 4.53 g/m*3 0.22 C 0 km/h
1515 05-04-2021 03:00:00 0.43333 C 4.66 g/m*3 0.43 C 1.2 km/h
1516 05-04-2021 04:00:00 0.94167 C 4.85 g/m*3 0.94 C 1.2 km/h
1517 05-04-2021 05:00:00 3.6 C 5.63 g/m*3 0.97 C 10.08333 km/h
1518 05-04-2021 06:00:00 4.88333 C 5.68 g/m*3 1.79 C 13.83333 km/h
1519 05-04-2021 07:00:00 5.35 C 5.74 g/m*3 2.14 C 15.3 km/h
1520 05-04-2021 08:00:00 5.66667 C 5.87 g/m*3 2.71 C 14.1 km/h
1521 05-04-2021 09:00:00 6.36667 C 6.03 g/m*3 3.59 C 13.96667 km/h
1522 05-04-2021 10:00:00 6.75833 C 6.18 g/m*3 3.78 C 15.96667 km/h
1523 05-04-2021 11:00:00 6.63333 C 6.5 g/m*3 4.02 C 13.3 km/h
1524 05-04-2021 12:00:00 5.525 C 6.3 g/m*3 2.09 C 17.16667 km/h
1525 05-04-2021 13:00:00 4.25 C 5.83 g/m*3 0.33 C 18.38333 km/h
Sensor: Nr:Datum:Temp:Abs-Feuchte:Windchill:Wind:
Aussen-T/F 1526 05-04-2021 14:00:00 3.48333 C 5.51 g/m*3 0.08 C 13.83333 km/h
1527 05-04-2021 15:00:00 2.43333 C 5.04 g/m*3 -1.31 C 14.375 km/h
1528 05-04-2021 16:00:00 3.85833 C 5.11 g/m*3 0.05 C 16.9 km/h
1529 05-04-2021 17:00:00 4.29167 C 4.98 g/m*3 0.48 C 17.7 km/h
1530 05-04-2021 18:00:00 5.45833 C 4.48 g/m*3 2.02 C 17.03333 km/h
1531 05-04-2021 19:00:00 4.475 C 3.89 g/m*3 0.82 C 16.9 km/h
1532 05-04-2021 20:00:00 2.61667 C 3.85 g/m*3 -0.18 C 9.95 km/h
1533 05-04-2021 21:00:00 1.99167 C 4.08 g/m*3 -0.86 C 9.68333 km/h
1534 05-04-2021 22:00:00 1.5 C 4.16 g/m*3 -0.87 C 7.65833 km/h
1535 05-04-2021 23:00:00 1.48333 C 4.06 g/m*3 -0.53 C 6.575 km/h
1536 06-04-2021 00:00:00 1.08333 C 4.04 g/m*3 -2.39 C 11.55833 km/h
1537 06-04-2021 01:00:00 0.93333 C 4.02 g/m*3 -3.17 C 14.5 km/h
1538 06-04-2021 02:00:00 1.28333 C 4.3 g/m*3 -2.91 C 15.43333 km/h
1539 06-04-2021 03:00:00 1.4 C 4.46 g/m*3 -2.5 C 13.96667 km/h
1540 06-04-2021 04:00:00 2.06667 C 4.53 g/m*3 -1.45 C 12.75833 km/h
1541 06-04-2021 05:00:00 2.69167 C 4.57 g/m*3 -0.56 C 12.1 km/h
1542 06-04-2021 06:00:00 2.21667 C 4.74 g/m*3 -0.51 C 9.375 km/h
1543 06-04-2021 07:00:00 1.76667 C 4.8 g/m*3 -0.15 C 6.43333 km/h
1544 06-04-2021 08:00:00 2.2 C 4.81 g/m*3 -0.05 C 7.64167 km/h
1545 06-04-2021 09:00:00 3.19167 C 4.64 g/m*3 -0.66 C 16.1 km/h
1546 06-04-2021 10:00:00 3.775 C 4.58 g/m*3 0.6 C 12.9 km/h
1547 06-04-2021 11:00:00 4.45 C 4.47 g/m*3 1.02 C 15.3 km/h
1548 06-04-2021 12:00:00 3.38333 C 4.85 g/m*3 0.08 C 13.15 km/h
1549 06-04-2021 13:00:00 5.70833 C 4.61 g/m*3 2.3 C 17.3 km/h
1550 06-04-2021 14:00:00 6.44167 C 4.09 g/m*3 3.08 C 18.36667 km/h
Sensor: Nr:Datum:Temp:Abs-Feuchte:Windchill:Wind:
Aussen-T/F 1551 06-04-2021 15:00:00 6.51667 C 4.1 g/m*3 3.5 C 15.83333 km/h
1552 06-04-2021 16:00:00 6.05 C 4.43 g/m*3 2.69 C 17.575 km/h
1553 06-04-2021 17:00:00 6.025 C 4.47 g/m*3 2.8 C 16.5 km/h
1554 06-04-2021 18:00:00 5.00833 C 4.25 g/m*3 1.35 C 17.83333 km/h
1555 06-04-2021 19:00:00 2.075 C 4.84 g/m*3 -0.69 C 9.40833 km/h
1556 06-04-2021 20:00:00 1.45 C 4.78 g/m*3 1.45 C 4.95 km/h
1557 06-04-2021 21:00:00 1.60833 C 4.61 g/m*3 1.61 C 4.40833 km/h
1558 06-04-2021 22:00:00 1.7 C 4.49 g/m*3 -0.51 C 7.24167 km/h
1559 06-04-2021 23:00:00 1.575 C 4.44 g/m*3 -0.65 C 7.25 km/h
1560 07-04-2021 00:00:00 1.59167 C 4.43 g/m*3 -1.6 C 10.75833 km/h
1561 07-04-2021 01:00:00 1.625 C 4.36 g/m*3 -2.09 C 13.28333 km/h
1562 07-04-2021 02:00:00 1.525 C 4.39 g/m*3 -2.17 C 13.03333 km/h
1563 07-04-2021 03:00:00 1.03333 C 4.27 g/m*3 -1.7 C 8.58333 km/h
1564 07-04-2021 04:00:00 0.425 C 4.14 g/m*3 0.43 C 3.33333 km/h
1565 07-04-2021 05:00:00 0.44167 C 4.17 g/m*3 -1.73 C 6.56667 km/h
1566 07-04-2021 06:00:00 0.26667 C 4.11 g/m*3 -1.89 C 6.44167 km/h
1567 07-04-2021 07:00:00 0.65833 C 4.37 g/m*3 -3 C 11.96667 km/h
1568 07-04-2021 08:00:00 1.3 C 4.53 g/m*3 -2.22 C 11.96667 km/h
1569 07-04-2021 09:00:00 2.21667 C 4.71 g/m*3 -1.35 C 13.16667 km/h
1570 07-04-2021 10:00:00 3.225 C 4.68 g/m*3 -0.9 C 17.96667 km/h
1571 07-04-2021 11:00:00 2.525 C 4.75 g/m*3 -1.77 C 17.98333 km/h
1572 07-04-2021 12:00:00 3.33333 C 4.8 g/m*3 -1.03 C 19.96667 km/h
1573 07-04-2021 13:00:00 2.54167 C 5.02 g/m*3 -0.92 C 13.00833 km/h
1574 07-04-2021 14:00:00 1.93333 C 5.1 g/m*3 -1.09 C 10.35833 km/h
1575 07-04-2021 15:00:00 3.06667 C 5.6 g/m*3 0.84 C 8.06667 km/h
Sensor: Nr:Datum:Temp:Abs-Feuchte:Windchill:Wind:
Aussen-T/F 1576 07-04-2021 16:00:00 4.575 C 5.75 g/m*3 1.12 C 15.7 km/h
1577 07-04-2021 17:00:00 5.29167 C 5.57 g/m*3 1.39 C 20.38333 km/h
1578 07-04-2021 18:00:00 5.24167 C 5.32 g/m*3 1.49 C 19.03333 km/h
1579 07-04-2021 19:00:00 4.88333 C 4.99 g/m*3 1.58 C 15.16667 km/h
1580 07-04-2021 20:00:00 4.54167 C 4.75 g/m*3 1.35 C 13.95833 km/h
1581 07-04-2021 21:00:00 3.875 C 4.46 g/m*3 1.69 C 8.475 km/h
1582 07-04-2021 22:00:00 2.85833 C 4.2 g/m*3 1.3 C 5.9 km/h
1583 07-04-2021 23:00:00 2.5 C 4.11 g/m*3 1 C 5.60833 km/h
1584 08-04-2021 00:00:00 2.53333 C 4.08 g/m*3 0.29 C 7.80833 km/h
1585 08-04-2021 01:00:00 2.6 C 4.12 g/m*3 0.59 C 7.10833 km/h
1586 08-04-2021 02:00:00 2.43333 C 4.23 g/m*3 0.35 C 7.24167 km/h
1587 08-04-2021 03:00:00 2.21667 C 4.31 g/m*3 2.22 C 4.81667 km/h
1588 08-04-2021 04:00:00 1.80833 C 4.35 g/m*3 0.05 C 6.01667 km/h
1589 08-04-2021 05:00:00 1.79167 C 4.41 g/m*3 1.79 C 1.86667 km/h
1590 08-04-2021 06:00:00 1.60833 C 4.45 g/m*3 1.61 C 3.06667 km/h
1591 08-04-2021 07:00:00 1.7 C 4.49 g/m*3 1.7 C 4.40833 km/h
1592 08-04-2021 08:00:00 2.51667 C 4.6 g/m*3 0.24 C 7.93333 km/h
1593 08-04-2021 09:00:00 3.55 C 4.73 g/m*3 1.16 C 9.025 km/h
1594 08-04-2021 10:00:00 4.43333 C 4.75 g/m*3 1.82 C 10.75833 km/h
1595 08-04-2021 11:00:00 5.925 C 4.45 g/m*3 3.77 C 9.95833 km/h
1596 08-04-2021 12:00:00 7.15 C 4 g/m*3 4.91 C 11.7 km/h
1597 08-04-2021 13:00:00 8.025 C 4.17 g/m*3 5.55 C 14.5 km/h
1598 08-04-2021 14:00:00 8.375 C 4.07 g/m*3 5.91 C 15.025 km/h
1599 08-04-2021 15:00:00 9.05833 C 4 g/m*3 7.24 C 11.55833 km/h
1600 08-04-2021 16:00:00 10.33333 C 4.13 g/m*3 8.34 C 14.89167 km/h
Sensor: Nr:Datum:Temp:Abs-Feuchte:Windchill:Wind:
Aussen-T/F 1601 08-04-2021 17:00:00 11.28333 C 4.13 g/m*3 11.28 C 12.63333 km/h
1602 08-04-2021 18:00:00 10.93333 C 4.14 g/m*3 9.61 C 10.89167 km/h
1603 08-04-2021 19:00:00 9.68333 C 4.31 g/m*3 9 C 6.425 km/h
1604 08-04-2021 20:00:00 6.375 C 4.72 g/m*3 5.39 C 5.73333 km/h
1605 08-04-2021 21:00:00 4.26667 C 4.64 g/m*3 4.27 C 4 km/h
1606 08-04-2021 22:00:00 3.025 C 4.63 g/m*3 3.03 C 1.46667 km/h
1607 08-04-2021 23:00:00 1.625 C 4.42 g/m*3 1.63 C 0.13333 km/h
1608 09-04-2021 00:00:00 1.175 C 4.51 g/m*3 1.18 C 0 km/h
1609 09-04-2021 01:00:00 0.825 C 4.4 g/m*3 0.83 C 0 km/h
1610 09-04-2021 02:00:00 0.26667 C 4.27 g/m*3 0.27 C 0.13333 km/h
1611 09-04-2021 03:00:00 -0.28333 C 4.19 g/m*3 -0.28 C 0.13333 km/h
1612 09-04-2021 04:00:00 -0.68333 C 4.11 g/m*3 -0.68 C 0 km/h
1613 09-04-2021 05:00:00 -0.83333 C 4.1 g/m*3 -0.83 C 0.4 km/h
1614 09-04-2021 06:00:00 -1 C 4.1 g/m*3 -1 C 0 km/h
1615 09-04-2021 07:00:00 -0.73333 C 4.22 g/m*3 -0.73 C 0 km/h
1616 09-04-2021 08:00:00 0.54167 C 4.58 g/m*3 0.54 C 0.26667 km/h
1617 09-04-2021 09:00:00 3.2 C 5.04 g/m*3 3.2 C 3.35 km/h
1618 09-04-2021 10:00:00 6.49167 C 5.34 g/m*3 4.87 C 8.05 km/h
1619 09-04-2021 11:00:00 10.225 C 5.11 g/m*3 8.57 C 12.1 km/h
1620 09-04-2021 12:00:00 12.3 C 4.95 g/m*3 12.3 C 14.5 km/h
1621 09-04-2021 13:00:00 13.675 C 5.02 g/m*3 13.68 C 14.36667 km/h
1622 09-04-2021 14:00:00 14.525 C 5.11 g/m*3 14.53 C 12.1 km/h
1623 09-04-2021 15:00:00 14.875 C 5.15 g/m*3 14.88 C 10.63333 km/h
1624 09-04-2021 16:00:00 15.625 C 4.99 g/m*3 15.63 C 11.03333 km/h
1625 09-04-2021 17:00:00 16.4 C 4.83 g/m*3 16.4 C 9.94167 km/h
Sensor: Nr:Datum:Temp:Abs-Feuchte:Windchill:Wind:
Aussen-T/F 1626 09-04-2021 18:00:00 15.9 C 4.83 g/m*3 15.9 C 4.94167 km/h
1627 09-04-2021 19:00:00 14.75833 C 5.31 g/m*3 14.76 C 5.48333 km/h
1628 09-04-2021 20:00:00 12.68333 C 5.43 g/m*3 12.68 C 5.61667 km/h
1629 09-04-2021 21:00:00 12.83333 C 6.06 g/m*3 12.83 C 3.06667 km/h
1630 09-04-2021 22:00:00 11.575 C 6.6 g/m*3 11.58 C 4.4 km/h
1631 09-04-2021 23:00:00 9.875 C 7.89 g/m*3 9.26 C 6.275 km/h
1632 10-04-2021 00:00:00 8.70833 C 7.9 g/m*3 8.71 C 3.06667 km/h
1633 10-04-2021 01:00:00 8.43333 C 7.86 g/m*3 8.43 C 0.26667 km/h
1634 10-04-2021 02:00:00 8.4 C 7.94 g/m*3 8.4 C 0.13333 km/h
1635 10-04-2021 03:00:00 8.275 C 7.91 g/m*3 8.28 C 0 km/h
1636 10-04-2021 04:00:00 8.1 C 7.86 g/m*3 8.1 C 0.13333 km/h
1637 10-04-2021 05:00:00 7.96667 C 7.84 g/m*3 7.97 C 0 km/h
1638 10-04-2021 06:00:00 7.93333 C 7.82 g/m*3 7.93 C 0 km/h
1639 10-04-2021 07:00:00 7.90833 C 7.81 g/m*3 7.91 C 0.13333 km/h
1640 10-04-2021 08:00:00 8.325 C 8.1 g/m*3 8.32 C 0 km/h
1641 10-04-2021 09:00:00 8.83333 C 8.37 g/m*3 8.83 C 0.26667 km/h
1642 10-04-2021 10:00:00 9.44167 C 8.69 g/m*3 9.44 C 0.53333 km/h
1643 10-04-2021 11:00:00 9.55 C 8.55 g/m*3 9.55 C 2.66667 km/h
1644 10-04-2021 12:00:00 9.95833 C 8.69 g/m*3 9.96 C 2.93333 km/h
1645 10-04-2021 13:00:00 10.20833 C 8.78 g/m*3 10.21 C 4.00833 km/h
1646 10-04-2021 14:00:00 10.51667 C 9.01 g/m*3 10.52 C 2 km/h
1647 10-04-2021 15:00:00 10.55 C 8.98 g/m*3 10.55 C 2 km/h
1648 10-04-2021 16:00:00 10.81667 C 9.09 g/m*3 10.82 C 2.53333 km/h
1649 10-04-2021 17:00:00 10.75833 C 9.1 g/m*3 10.76 C 1.075 km/h
1650 10-04-2021 18:00:00 10.50833 C 9.06 g/m*3 10.51 C 0 km/h
Sensor: Nr:Datum:Temp:Abs-Feuchte:Windchill:Wind:
Aussen-T/F 1651 10-04-2021 19:00:00 9.94167 C 8.8 g/m*3 9.94 C 0 km/h
1652 10-04-2021 20:00:00 9.425 C 8.57 g/m*3 9.43 C 0.66667 km/h
1653 10-04-2021 21:00:00 9.125 C 8.44 g/m*3 9.13 C 1.46667 km/h
1654 10-04-2021 22:00:00 8.88333 C 8.36 g/m*3 8.88 C 1.33333 km/h
1655 10-04-2021 23:00:00 8.76667 C 8.34 g/m*3 8.77 C 3.2 km/h
1656 11-04-2021 00:00:00 8.65 C 8.28 g/m*3 8.65 C 2.26667 km/h
1657 11-04-2021 01:00:00 8.7 C 8.3 g/m*3 8.7 C 1.2 km/h
1658 11-04-2021 02:00:00 9.03333 C 8.53 g/m*3 9.03 C 1.86667 km/h
1659 11-04-2021 03:00:00 9.15 C 8.63 g/m*3 9.15 C 0.4 km/h
1660 11-04-2021 04:00:00 8.84167 C 8.46 g/m*3 8.84 C 0 km/h
1661 11-04-2021 05:00:00 8.8 C 8.44 g/m*3 8.8 C 1.86667 km/h
1662 11-04-2021 06:00:00 9.075 C 8.59 g/m*3 9.07 C 1.6 km/h
1663 11-04-2021 07:00:00 9.225 C 8.68 g/m*3 9.23 C 0 km/h
1664 11-04-2021 08:00:00 9.71667 C 8.97 g/m*3 9.72 C 0 km/h
1665 11-04-2021 09:00:00 9.7 C 8.93 g/m*3 8.91 C 6.84167 km/h
1666 11-04-2021 10:00:00 7 C 7.43 g/m*3 6.14 C 5.625 km/h
1667 11-04-2021 11:00:00 5.8 C 6.85 g/m*3 4.16 C 7.65 km/h
1668 11-04-2021 12:00:00 5.325 C 6.59 g/m*3 2.95 C 10.48333 km/h
1669 11-04-2021 13:00:00 5.15 C 6.46 g/m*3 2.47 C 11.83333 km/h
1670 11-04-2021 14:00:00 4.575 C 6.18 g/m*3 1.67 C 12.35833 km/h
1671 11-04-2021 15:00:00 4.50833 C 6.14 g/m*3 2.33 C 8.875 km/h
1672 11-04-2021 16:00:00 4.40833 C 6.1 g/m*3 2.18 C 9.00833 km/h
1673 11-04-2021 17:00:00 4.66667 C 6.24 g/m*3 2.84 C 7.65 km/h
1674 11-04-2021 18:00:00 4.94167 C 6.33 g/m*3 3.05 C 8.06667 km/h
1675 11-04-2021 19:00:00 4.90833 C 6.28 g/m*3 3.8 C 5.48333 km/h
Sensor: Nr:Datum:Temp:Abs-Feuchte:Windchill:Wind:
Aussen-T/F 1676 11-04-2021 20:00:00 4.50833 C 6.12 g/m*3 2.61 C 7.80833 km/h
1677 11-04-2021 21:00:00 4.18333 C 6 g/m*3 4.18 C 4.15 km/h
1678 11-04-2021 22:00:00 3.775 C 5.9 g/m*3 3.78 C 2.4 km/h
1679 11-04-2021 23:00:00 3.825 C 5.97 g/m*3 3.83 C 1.6 km/h
1680 12-04-2021 00:00:00 3.975 C 6.07 g/m*3 3.98 C 1.46667 km/h
1681 12-04-2021 01:00:00 3.825 C 6.03 g/m*3 3.83 C 2.93333 km/h
1682 12-04-2021 02:00:00 3.275 C 5.77 g/m*3 3.28 C 1.73333 km/h
1683 12-04-2021 03:00:00 2.74167 C 5.59 g/m*3 2.74 C 2.80833 km/h
1684 12-04-2021 04:00:00 2.3 C 5.39 g/m*3 2.3 C 2.4 km/h
1685 12-04-2021 05:00:00 1.85833 C 5.23 g/m*3 1.86 C 2.26667 km/h
1686 12-04-2021 06:00:00 1.74167 C 5.21 g/m*3 1.74 C 1.06667 km/h
1687 12-04-2021 07:00:00 2.03333 C 5.35 g/m*3 2.03 C 0.26667 km/h
1688 12-04-2021 08:00:00 2.28333 C 5.44 g/m*3 2.28 C 0.4 km/h
1689 12-04-2021 09:00:00 3.325 C 5.79 g/m*3 3.33 C 2.54167 km/h
1690 12-04-2021 10:00:00 4.625 C 5.66 g/m*3 2.86 C 7.39167 km/h
1691 12-04-2021 11:00:00 5.425 C 5.55 g/m*3 5.43 C 4.825 km/h
1692 12-04-2021 12:00:00 6.88333 C 5.54 g/m*3 4.87 C 10.18333 km/h
1693 12-04-2021 13:00:00 5.09167 C 5.88 g/m*3 2.93 C 9.26667 km/h
1694 12-04-2021 14:00:00 6.2 C 5.97 g/m*3 5.14 C 5.89167 km/h
1695 12-04-2021 15:00:00 7.24167 C 5.87 g/m*3 5.99 C 7.11667 km/h
1696 12-04-2021 16:00:00 5.51667 C 5.83 g/m*3 4.18 C 6.44167 km/h
1697 12-04-2021 17:00:00 6.03333 C 5.53 g/m*3 3.85 C 10.19167 km/h
1698 12-04-2021 18:00:00 7.19167 C 5.53 g/m*3 5.66 C 8.20833 km/h
1699 12-04-2021 19:00:00 6.83333 C 5.28 g/m*3 5.78 C 6.16667 km/h
1700 12-04-2021 20:00:00 5.13333 C 5.36 g/m*3 5.13 C 3.2 km/h
Sensor: Nr:Datum:Temp:Abs-Feuchte:Windchill:Wind:
Aussen-T/F 1701 12-04-2021 21:00:00 3.03333 C 5.15 g/m*3 1.77 C 5.2 km/h
1702 12-04-2021 22:00:00 2.05833 C 4.99 g/m*3 2.06 C 1.86667 km/h
1703 12-04-2021 23:00:00 1.41667 C 4.87 g/m*3 1.42 C 0 km/h
1704 13-04-2021 00:00:00 0.43333 C 4.61 g/m*3 0.43 C 0 km/h
1705 13-04-2021 01:00:00 -0.15833 C 4.47 g/m*3 -0.16 C 0 km/h
1706 13-04-2021 02:00:00 -0.51667 C 4.39 g/m*3 -0.52 C 0 km/h
1707 13-04-2021 03:00:00 -1 C 4.25 g/m*3 -1 C 0 km/h
1708 13-04-2021 04:00:00 -1.25833 C 4.21 g/m*3 -1.26 C 0 km/h
1709 13-04-2021 05:00:00 -1.35 C 4.19 g/m*3 -1.35 C 0 km/h
1710 13-04-2021 06:00:00 -1.38333 C 4.18 g/m*3 -1.38 C 0 km/h
1711 13-04-2021 07:00:00 -1.25 C 4.24 g/m*3 -1.25 C 0.66667 km/h
1712 13-04-2021 08:00:00 -0.25 C 4.57 g/m*3 -0.25 C 2.8 km/h
1713 13-04-2021 09:00:00 0.94167 C 4.96 g/m*3 0.94 C 2.26667 km/h
1714 13-04-2021 10:00:00 2.73333 C 5.45 g/m*3 2.73 C 3.46667 km/h
1715 13-04-2021 11:00:00 4.84167 C 5.66 g/m*3 3.58 C 5.9 km/h
1716 13-04-2021 12:00:00 5.58333 C 5.58 g/m*3 4.09 C 6.98333 km/h
1717 13-04-2021 13:00:00 6.35 C 5.46 g/m*3 5.27 C 6.025 km/h
1718 13-04-2021 14:00:00 7.475 C 5.34 g/m*3 5.85 C 8.86667 km/h
1719 13-04-2021 15:00:00 8.75833 C 5.11 g/m*3 8.03 C 6.03333 km/h
1720 13-04-2021 16:00:00 10.04167 C 4.93 g/m*3 9.25 C 7.11667 km/h
1721 13-04-2021 17:00:00 8.39167 C 5.01 g/m*3 6.33 C 12.225 km/h
1722 13-04-2021 18:00:00 9.30833 C 5.06 g/m*3 9.31 C 3.35 km/h
1723 13-04-2021 19:00:00 7.575 C 5.12 g/m*3 6.56 C 6.425 km/h
1724 13-04-2021 20:00:00 5.325 C 5.28 g/m*3 5.33 C 4.8 km/h
1725 13-04-2021 21:00:00 3.81667 C 5.2 g/m*3 3.82 C 4.66667 km/h
Sensor: Nr:Datum:Temp:Abs-Feuchte:Windchill:Wind:
Aussen-T/F 1726 13-04-2021 22:00:00 3.55 C 5.25 g/m*3 3.55 C 3.2 km/h
1727 13-04-2021 23:00:00 2.24167 C 4.94 g/m*3 2.24 C 2 km/h
1728 14-04-2021 00:00:00 1.01667 C 4.67 g/m*3 1.02 C 0.8 km/h
1729 14-04-2021 01:00:00 0.16667 C 4.48 g/m*3 0.17 C 0 km/h
1730 14-04-2021 02:00:00 -0.375 C 4.37 g/m*3 -0.38 C 0 km/h
1731 14-04-2021 03:00:00 -0.75833 C 4.28 g/m*3 -0.76 C 0 km/h
1732 14-04-2021 04:00:00 -1.06667 C 4.23 g/m*3 -1.07 C 0.13333 km/h
1733 14-04-2021 05:00:00 -1.31667 C 4.16 g/m*3 -1.32 C 0 km/h
1734 14-04-2021 06:00:00 -1.7 C 4.05 g/m*3 -1.7 C 0 km/h
1735 14-04-2021 07:00:00 -1.75 C 4.05 g/m*3 -1.75 C 0 km/h
1736 14-04-2021 08:00:00 -1.3 C 4.21 g/m*3 -1.3 C 0 km/h
1737 14-04-2021 09:00:00 -0.35 C 4.51 g/m*3 -0.35 C 0 km/h
1738 14-04-2021 10:00:00 1.60833 C 5.19 g/m*3 1.61 C 0.13333 km/h
1739 14-04-2021 11:00:00 5.475 C 5.04 g/m*3 5.48 C 4.275 km/h
1740 14-04-2021 12:00:00 7.525 C 3.98 g/m*3 5.61 C 10.34167 km/h
1741 14-04-2021 13:00:00 8.01667 C 3.94 g/m*3 6.3 C 9.80833 km/h
1742 14-04-2021 14:00:00 7.94167 C 4.65 g/m*3 5.64 C 13.16667 km/h
1743 14-04-2021 15:00:00 8.7 C 4.58 g/m*3 6.4 C 14.36667 km/h
1744 14-04-2021 16:00:00 9.35 C 4.51 g/m*3 7.45 C 12.5 km/h
1745 14-04-2021 17:00:00 7.20833 C 5.38 g/m*3 4.85 C 12.475 km/h
1746 14-04-2021 18:00:00 7 C 4.99 g/m*3 7 C 1.2 km/h
1747 14-04-2021 19:00:00 6.43333 C 5.33 g/m*3 4.84 C 7.91667 km/h
1748 14-04-2021 20:00:00 4.60833 C 5.26 g/m*3 4.61 C 2.4 km/h
1749 14-04-2021 21:00:00 3.33333 C 5.14 g/m*3 3.33 C 0.93333 km/h
1750 14-04-2021 22:00:00 3.075 C 5.21 g/m*3 3.08 C 0.93333 km/h
Sensor: Nr:Datum:Temp:Abs-Feuchte:Windchill:Wind:
Aussen-T/F 1751 14-04-2021 23:00:00 2.26667 C 5 g/m*3 2.27 C 1.86667 km/h
1752 15-04-2021 00:00:00 1.49167 C 4.86 g/m*3 1.49 C 0 km/h
1753 15-04-2021 01:00:00 0.69167 C 4.67 g/m*3 0.69 C 1.06667 km/h
1754 15-04-2021 02:00:00 -0.15 C 4.44 g/m*3 -0.15 C 0 km/h
1755 15-04-2021 03:00:00 -0.46667 C 4.39 g/m*3 -0.47 C 0 km/h
1756 15-04-2021 04:00:00 -0.86667 C 4.29 g/m*3 -0.87 C 0 km/h
1757 15-04-2021 05:00:00 -0.75 C 4.34 g/m*3 -0.75 C 0 km/h
1758 15-04-2021 06:00:00 -1.1 C 4.26 g/m*3 -1.1 C 0 km/h
1759 15-04-2021 07:00:00 -1.09167 C 4.27 g/m*3 -1.09 C 0 km/h
1760 15-04-2021 08:00:00 -0.625 C 4.41 g/m*3 -0.63 C 0 km/h
1761 15-04-2021 09:00:00 0.45833 C 4.79 g/m*3 0.46 C 0.26667 km/h
1762 15-04-2021 10:00:00 2.45833 C 5.5 g/m*3 2.46 C 0 km/h
1763 15-04-2021 11:00:00 5.65833 C 5.77 g/m*3 5.66 C 4.95 km/h
1764 15-04-2021 12:00:00 7.59167 C 5.35 g/m*3 5.96 C 8.99167 km/h
1765 15-04-2021 13:00:00 7.49167 C 5.48 g/m*3 6.21 C 7.375 km/h
1766 15-04-2021 14:00:00 8.65833 C 5.14 g/m*3 7.04 C 9.925 km/h
1767 15-04-2021 15:00:00 9.06667 C 5.28 g/m*3 7.25 C 11.55 km/h
1768 15-04-2021 16:00:00 7.46667 C 5.93 g/m*3 6.19 C 7.36667 km/h
1769 15-04-2021 17:00:00 7.95 C 5.75 g/m*3 6.85 C 6.96667 km/h
1770 15-04-2021 18:00:00 8.89167 C 5.43 g/m*3 8.89 C 3.34167 km/h
1771 15-04-2021 19:00:00 7.91667 C 5.08 g/m*3 6.64 C 7.64167 km/h
1772 15-04-2021 20:00:00 6.16667 C 5.47 g/m*3 6.17 C 3.46667 km/h
1773 15-04-2021 21:00:00 5.05 C 5.56 g/m*3 5.05 C 1.06667 km/h
1774 15-04-2021 22:00:00 3.90833 C 5.24 g/m*3 3.91 C 0 km/h
1775 15-04-2021 23:00:00 2.65 C 4.9 g/m*3 2.65 C 0.93333 km/h
Sensor: Nr:Datum:Temp:Abs-Feuchte:Windchill:Wind:
Aussen-T/F 1776 16-04-2021 00:00:00 1.5 C 4.65 g/m*3 1.5 C 0.66667 km/h
1777 16-04-2021 01:00:00 0.55 C 4.51 g/m*3 0.55 C 0 km/h
1778 16-04-2021 02:00:00 0.35 C 4.52 g/m*3 0.35 C 0 km/h
1779 16-04-2021 03:00:00 1.01667 C 4.74 g/m*3 1.02 C 0.13333 km/h
1780 16-04-2021 04:00:00 1.44167 C 4.86 g/m*3 1.44 C 0.13333 km/h
1781 16-04-2021 05:00:00 1.55833 C 4.85 g/m*3 1.56 C 0 km/h
1782 16-04-2021 06:00:00 1.65833 C 4.9 g/m*3 1.66 C 0.13333 km/h
1783 16-04-2021 07:00:00 1.93333 C 5.03 g/m*3 1.93 C 0 km/h
1784 16-04-2021 08:00:00 2.75833 C 5.25 g/m*3 2.76 C 0.13333 km/h
1785 16-04-2021 09:00:00 4.73333 C 5.22 g/m*3 3.26 C 6.46667 km/h
1786 16-04-2021 10:00:00 6.25 C 5.08 g/m*3 4.08 C 10.34167 km/h
1787 16-04-2021 11:00:00 7.675 C 4.86 g/m*3 5.35 C 12.9 km/h
1788 16-04-2021 12:00:00 8.45 C 4.77 g/m*3 6.07 C 14.49167 km/h
1789 16-04-2021 13:00:00 9.03333 C 4.76 g/m*3 7.09 C 12.35833 km/h
1790 16-04-2021 14:00:00 8.79167 C 4.98 g/m*3 7.96 C 6.44167 km/h
1791 16-04-2021 15:00:00 8.9 C 5.07 g/m*3 8.9 C 3.34167 km/h
1792 16-04-2021 16:00:00 9.3 C 5.24 g/m*3 7.85 C 9.68333 km/h
1793 16-04-2021 17:00:00 9.50833 C 5.41 g/m*3 9.51 C 4.55 km/h
1794 16-04-2021 18:00:00 9.375 C 5.42 g/m*3 9.38 C 0.8 km/h
1795 16-04-2021 19:00:00 9.11667 C 5.66 g/m*3 9.12 C 0 km/h
1796 16-04-2021 20:00:00 7.85833 C 5.9 g/m*3 7.86 C 1.73333 km/h
1797 16-04-2021 21:00:00 6.01667 C 5.78 g/m*3 6.02 C 0 km/h
1798 16-04-2021 22:00:00 5.45 C 5.79 g/m*3 5.45 C 0 km/h
1799 16-04-2021 23:00:00 4.825 C 5.7 g/m*3 4.83 C 0 km/h
1800 17-04-2021 00:00:00 4.4 C 5.65 g/m*3 4.4 C 0 km/h
Sensor: Nr:Datum:Temp:Abs-Feuchte:Windchill:Wind:
Aussen-T/F 1801 17-04-2021 01:00:00 4.275 C 5.62 g/m*3 4.28 C 0 km/h
1802 17-04-2021 02:00:00 4.01667 C 5.6 g/m*3 4.02 C 0 km/h
1803 17-04-2021 03:00:00 3.88333 C 5.56 g/m*3 3.88 C 0 km/h
1804 17-04-2021 04:00:00 3.48333 C 5.43 g/m*3 3.48 C 0 km/h
1805 17-04-2021 05:00:00 2.43333 C 5.14 g/m*3 2.43 C 0 km/h
1806 17-04-2021 06:00:00 1.59167 C 4.93 g/m*3 1.59 C 0 km/h
1807 17-04-2021 07:00:00 1.51667 C 4.99 g/m*3 1.52 C 0 km/h
1808 17-04-2021 08:00:00 2.475 C 5.38 g/m*3 2.48 C 0 km/h
1809 17-04-2021 09:00:00 4.21667 C 5.89 g/m*3 4.22 C 0 km/h
1810 17-04-2021 10:00:00 7.475 C 5.53 g/m*3 6.64 C 5.775 km/h
1811 17-04-2021 11:00:00 9.74167 C 4.77 g/m*3 7.53 C 15.56667 km/h
1812 17-04-2021 12:00:00 10.75833 C 4.72 g/m*3 8.71 C 16.23333 km/h
1813 17-04-2021 13:00:00 11.625 C 4.66 g/m*3 11.63 C 16.91667 km/h
1814 17-04-2021 14:00:00 12.09167 C 4.63 g/m*3 12.09 C 15.7 km/h
1815 17-04-2021 15:00:00 10.79167 C 5.1 g/m*3 8.43 C 19.43333 km/h
1816 17-04-2021 16:00:00 9.95833 C 5.33 g/m*3 8.37 C 11.28333 km/h
1817 17-04-2021 17:00:00 10.24167 C 5.14 g/m*3 8.77 C 10.9 km/h
1818 17-04-2021 18:00:00 10.4 C 5.18 g/m*3 9.23 C 9.28333 km/h
1819 17-04-2021 19:00:00 10.61667 C 5.28 g/m*3 9.2 C 11.03333 km/h
1820 17-04-2021 20:00:00 9.88333 C 5.25 g/m*3 9.16 C 6.7 km/h
1821 17-04-2021 21:00:00 8.74167 C 5.8 g/m*3 8.74 C 1.2 km/h
1822 17-04-2021 22:00:00 7.95833 C 5.82 g/m*3 7.96 C 1.2 km/h
1823 17-04-2021 23:00:00 7.74167 C 6.01 g/m*3 7.74 C 0 km/h
1824 18-04-2021 00:00:00 7.375 C 5.99 g/m*3 7.38 C 0 km/h
1825 18-04-2021 01:00:00 7.15 C 6.08 g/m*3 7.15 C 0 km/h
Sensor: Nr:Datum:Temp:Abs-Feuchte:Windchill:Wind:
Aussen-T/F 1826 18-04-2021 02:00:00 6.76667 C 5.98 g/m*3 6.77 C 0 km/h
1827 18-04-2021 03:00:00 6.15 C 5.91 g/m*3 6.15 C 0 km/h
1828 18-04-2021 04:00:00 6.3 C 5.98 g/m*3 6.3 C 0 km/h
1829 18-04-2021 05:00:00 6.64167 C 5.97 g/m*3 6.64 C 0.26667 km/h
1830 18-04-2021 06:00:00 6.78333 C 5.98 g/m*3 6.78 C 0.66667 km/h
1831 18-04-2021 07:00:00 6.825 C 5.99 g/m*3 6.83 C 1.06667 km/h
1832 18-04-2021 08:00:00 7.24167 C 6.07 g/m*3 7.24 C 0.4 km/h
1833 18-04-2021 09:00:00 7.79167 C 6.14 g/m*3 7.79 C 0 km/h
1834 18-04-2021 10:00:00 7.76667 C 6.47 g/m*3 7.77 C 1.46667 km/h
1835 18-04-2021 11:00:00 7.99167 C 6.71 g/m*3 7.99 C 2.8 km/h
1836 18-04-2021 12:00:00 8.775 C 6.76 g/m*3 8.78 C 2.8 km/h
1837 18-04-2021 13:00:00 10.50833 C 7.08 g/m*3 10.51 C 3.20833 km/h
1838 18-04-2021 14:00:00 11.95833 C 7.17 g/m*3 11.96 C 10.20833 km/h
1839 18-04-2021 15:00:00 12.18333 C 7.2 g/m*3 12.18 C 10.35 km/h
1840 18-04-2021 16:00:00 12.61667 C 7.45 g/m*3 12.62 C 9.14167 km/h
1841 18-04-2021 17:00:00 12.90833 C 7.56 g/m*3 12.91 C 7.78333 km/h
1842 18-04-2021 18:00:00 12.66667 C 7.38 g/m*3 12.67 C 7.51667 km/h
1843 18-04-2021 19:00:00 11.76667 C 7.75 g/m*3 11.77 C 2.26667 km/h
1844 18-04-2021 20:00:00 10.35833 C 7.83 g/m*3 10.36 C 4.13333 km/h
1845 18-04-2021 21:00:00 9.35 C 7.61 g/m*3 9.35 C 0.13333 km/h
1846 18-04-2021 22:00:00 9.05 C 7.69 g/m*3 9.05 C 0.26667 km/h
1847 18-04-2021 23:00:00 8.21667 C 7.36 g/m*3 8.22 C 1.2 km/h
1848 19-04-2021 00:00:00 8.25833 C 7.5 g/m*3 8.26 C 0.66667 km/h
1849 19-04-2021 01:00:00 8.53333 C 7.64 g/m*3 8.53 C 0.4 km/h
1850 19-04-2021 02:00:00 8.48333 C 7.82 g/m*3 8.48 C 0.66667 km/h
Sensor: Nr:Datum:Temp:Abs-Feuchte:Windchill:Wind:
Aussen-T/F 1851 19-04-2021 03:00:00 8.13333 C 7.74 g/m*3 8.13 C 0.66667 km/h
1852 19-04-2021 04:00:00 7.78333 C 7.64 g/m*3 7.78 C 0 km/h
1853 19-04-2021 05:00:00 7.7 C 7.63 g/m*3 7.7 C 0 km/h
1854 19-04-2021 06:00:00 7.51667 C 7.57 g/m*3 7.52 C 0 km/h
1855 19-04-2021 07:00:00 7.75833 C 7.73 g/m*3 7.76 C 0 km/h
1856 19-04-2021 08:00:00 8.15 C 7.99 g/m*3 8.15 C 0 km/h
1857 19-04-2021 09:00:00 8.30833 C 8.1 g/m*3 8.31 C 0 km/h
1858 19-04-2021 10:00:00 8.78333 C 8.33 g/m*3 8.78 C 0.13333 km/h
1859 19-04-2021 11:00:00 9.59167 C 8.55 g/m*3 9.59 C 2.4 km/h
1860 19-04-2021 12:00:00 11.10833 C 8.56 g/m*3 11.11 C 4.54167 km/h
1861 19-04-2021 13:00:00 12.18333 C 8.24 g/m*3 12.18 C 4.54167 km/h
1862 19-04-2021 14:00:00 12.84167 C 7.97 g/m*3 12.84 C 4.13333 km/h
1863 19-04-2021 15:00:00 13.55833 C 7.71 g/m*3 13.56 C 3.475 km/h
1864 19-04-2021 16:00:00 14.39167 C 7.49 g/m*3 14.39 C 6.56667 km/h
1865 19-04-2021 17:00:00 16.31667 C 7.5 g/m*3 16.32 C 7.11667 km/h
1866 19-04-2021 18:00:00 15.76667 C 7.47 g/m*3 15.77 C 9.13333 km/h
1867 19-04-2021 19:00:00 14.08333 C 7.92 g/m*3 14.08 C 4.69167 km/h
1868 19-04-2021 20:00:00 11.375 C 7.99 g/m*3 11.38 C 3.2 km/h
1869 19-04-2021 21:00:00 9.80833 C 7.9 g/m*3 9.81 C 2.8 km/h
1870 19-04-2021 22:00:00 8.74167 C 7.56 g/m*3 8.74 C 0.13333 km/h
1871 19-04-2021 23:00:00 7.39167 C 7.03 g/m*3 7.39 C 0.13333 km/h
1872 20-04-2021 00:00:00 5.96667 C 6.56 g/m*3 5.97 C 0 km/h
1873 20-04-2021 01:00:00 5 C 6.27 g/m*3 5 C 0 km/h
1874 20-04-2021 02:00:00 4.51667 C 6.15 g/m*3 4.52 C 0 km/h
1875 20-04-2021 03:00:00 3.93333 C 5.95 g/m*3 3.93 C 0 km/h
Sensor: Nr:Datum:Temp:Abs-Feuchte:Windchill:Wind:
Aussen-T/F 1876 20-04-2021 04:00:00 3.31667 C 5.71 g/m*3 3.32 C 0.26667 km/h
1877 20-04-2021 05:00:00 2.69167 C 5.52 g/m*3 2.69 C 0 km/h
1878 20-04-2021 06:00:00 2.28333 C 5.38 g/m*3 2.28 C 0 km/h
1879 20-04-2021 07:00:00 2.625 C 5.55 g/m*3 2.63 C 0 km/h
1880 20-04-2021 08:00:00 3.41667 C 5.87 g/m*3 3.42 C 0.93333 km/h
1881 20-04-2021 09:00:00 4.71667 C 6.42 g/m*3 4.72 C 0.66667 km/h
1882 20-04-2021 10:00:00 7.18333 C 7.6 g/m*3 7.18 C 0.13333 km/h
1883 20-04-2021 11:00:00 10.825 C 8.41 g/m*3 10.83 C 0 km/h
1884 20-04-2021 12:00:00 13.91667 C 7.59 g/m*3 13.92 C 2.95 km/h
1885 20-04-2021 13:00:00 15.25 C 7.52 g/m*3 15.25 C 4.69167 km/h
1886 20-04-2021 14:00:00 15.69167 C 7.38 g/m*3 15.69 C 1.06667 km/h
1887 20-04-2021 15:00:00 16.725 C 7.38 g/m*3 16.73 C 3.21667 km/h
1888 20-04-2021 16:00:00 16.425 C 7.21 g/m*3 16.43 C 2 km/h
1889 20-04-2021 17:00:00 16.73333 C 7.3 g/m*3 16.73 C 1.86667 km/h
1890 20-04-2021 18:00:00 18.43333 C 7.12 g/m*3 18.43 C 4.41667 km/h
1891 20-04-2021 19:00:00 17.475 C 7.12 g/m*3 17.48 C 1.6 km/h
1892 20-04-2021 20:00:00 14.04167 C 7.49 g/m*3 14.04 C 4 km/h
1893 20-04-2021 21:00:00 10.675 C 7.19 g/m*3 10.68 C 2.675 km/h
1894 20-04-2021 22:00:00 8.76667 C 6.89 g/m*3 8.77 C 0 km/h
1895 20-04-2021 23:00:00 7.375 C 6.66 g/m*3 7.38 C 0 km/h
1896 21-04-2021 00:00:00 6.23333 C 6.42 g/m*3 6.23 C 0 km/h
1897 21-04-2021 01:00:00 5.69167 C 6.33 g/m*3 5.69 C 0 km/h
1898 21-04-2021 02:00:00 5.45 C 6.27 g/m*3 5.45 C 0 km/h
1899 21-04-2021 03:00:00 4.55 C 5.97 g/m*3 4.55 C 0.13333 km/h
1900 21-04-2021 04:00:00 4.025 C 5.83 g/m*3 4.03 C 0 km/h
Sensor: Nr:Datum:Temp:Abs-Feuchte:Windchill:Wind:
Aussen-T/F 1901 21-04-2021 05:00:00 3.50833 C 5.7 g/m*3 3.51 C 0.26667 km/h
1902 21-04-2021 06:00:00 2.8 C 5.46 g/m*3 2.8 C 0 km/h
1903 21-04-2021 07:00:00 3.08333 C 5.65 g/m*3 3.08 C 0.66667 km/h
1904 21-04-2021 08:00:00 4.31667 C 6.17 g/m*3 4.32 C 1.06667 km/h
1905 21-04-2021 09:00:00 5.875 C 6.76 g/m*3 5.88 C 0.13333 km/h
1906 21-04-2021 10:00:00 8.95 C 7.63 g/m*3 8.95 C 0.26667 km/h
1907 21-04-2021 11:00:00 13.31667 C 8.21 g/m*3 13.32 C 1.06667 km/h
1908 21-04-2021 12:00:00 15.81667 C 8.51 g/m*3 15.82 C 5.9 km/h
1909 21-04-2021 13:00:00 16.84167 C 8.09 g/m*3 16.84 C 9.00833 km/h
1910 21-04-2021 14:00:00 17.325 C 7.54 g/m*3 17.33 C 10.08333 km/h
1911 21-04-2021 15:00:00 18.23333 C 7.46 g/m*3 18.23 C 10.74167 km/h
1912 21-04-2021 16:00:00 18.9 C 8.02 g/m*3 18.9 C 12.225 km/h
1913 21-04-2021 17:00:00 18.10833 C 7.51 g/m*3 18.11 C 12.23333 km/h
1914 21-04-2021 18:00:00 16.54167 C 7.16 g/m*3 16.54 C 9 km/h
1915 21-04-2021 19:00:00 16.15 C 7.28 g/m*3 16.15 C 1.86667 km/h
1916 21-04-2021 20:00:00 15 C 7.37 g/m*3 15 C 2.40833 km/h
1917 21-04-2021 21:00:00 12.69167 C 7.15 g/m*3 12.69 C 4 km/h
1918 21-04-2021 22:00:00 12.65833 C 7.4 g/m*3 12.66 C 8.06667 km/h
1919 21-04-2021 23:00:00 11.78333 C 7.32 g/m*3 11.78 C 10.60833 km/h
1920 22-04-2021 00:00:00 10.53333 C 7.01 g/m*3 10.53 C 4.69167 km/h
1921 22-04-2021 01:00:00 9.2 C 6.59 g/m*3 8.62 C 5.75833 km/h
1922 22-04-2021 02:00:00 8.14167 C 6.22 g/m*3 6.94 C 7.51667 km/h
1923 22-04-2021 03:00:00 7.05833 C 5.65 g/m*3 5.47 C 8.35 km/h
1924 22-04-2021 04:00:00 5.76667 C 5.28 g/m*3 4.82 C 5.35833 km/h
1925 22-04-2021 05:00:00 4.11667 C 5.08 g/m*3 4.12 C 2.26667 km/h
Sensor: Nr:Datum:Temp:Abs-Feuchte:Windchill:Wind:
Aussen-T/F 1926 22-04-2021 06:00:00 2.86667 C 4.92 g/m*3 2.87 C 1.33333 km/h
1927 22-04-2021 07:00:00 2.76667 C 4.97 g/m*3 2.77 C 1.06667 km/h
1928 22-04-2021 08:00:00 4.425 C 5.05 g/m*3 2.67 C 7.24167 km/h
1929 22-04-2021 09:00:00 5.7 C 4.99 g/m*3 3.81 C 8.6 km/h
1930 22-04-2021 10:00:00 6.94167 C 4.95 g/m*3 4.71 C 11.43333 km/h
1931 22-04-2021 11:00:00 8.06667 C 4.93 g/m*3 5.83 C 12.89167 km/h
1932 22-04-2021 12:00:00 9.28333 C 5 g/m*3 7.33 C 12.75833 km/h
1933 22-04-2021 13:00:00 10.325 C 4.84 g/m*3 8.46 C 13.83333 km/h
1934 22-04-2021 14:00:00 11.80833 C 4.94 g/m*3 11.81 C 13.29167 km/h
1935 22-04-2021 15:00:00 13.025 C 4.88 g/m*3 13.03 C 13.83333 km/h
1936 22-04-2021 16:00:00 13.93333 C 5.18 g/m*3 13.93 C 12.09167 km/h
1937 22-04-2021 17:00:00 14.23333 C 5.28 g/m*3 14.23 C 10.76667 km/h

Maximal/Minimal-Werte vom 23.02.2003 - 03.08.2020

Sensor Min Max Avg
Temp
(Aussen-T/F)
-16.4 °C
20-12-2009  01:30:01
40.4 °C
25-07-2019  16:20:00
11.23 °C

Die Daten stammen von einer Davis Vantage Pro 2 Wetter-Station und werden unter Linux mit der Software wview2wettercgi und aufbereitet. Alle Angaben erfolgen ohne Gewähr für ihre Vollständigkeit oder Richtigkeit.
Kontakt: Rainer Krienke krienke@uni-koblenz.de . Meine Webseiten an der Uni Koblenz oder privat.
Version: $Revision: 0.78 $